<?xml version="1.0" encoding="UTF-8" standalone="no" ?>
<gpx xmlns="http://www.topografix.com/GPX/1/1" xmlns:xsi="http://www.w3.org/2001/XMLSchema-instance" xsi:schemaLocation="http://www.topografix.com/GPX/1/1 http://www.topografix.com/GPX/1/1/gpx.xsd" version="1.1" creator="EditGPX">
  <metadata>
    <name>les_baux_st_remy</name>
  </metadata>
  <trk>
    <name>les_baux_st_remy</name>
    <extensions>
      <line xmlns="http://www.topografix.com/GPX/gpx_style/0/2">
        <color>0000FF</color>
        <width>4</width>
      </line>
    </extensions>
    <trkseg>
      <trkpt lat="43.744530" lon="4.830530">
        <ele>143.19</ele>
        <time>2021-05-13T06:49:43Z</time>
      </trkpt>
      <trkpt lat="43.744410" lon="4.830590">
        <ele>142.94</ele>
        <time>2021-05-13T06:50:42Z</time>
      </trkpt>
      <trkpt lat="43.744310" lon="4.830620">
        <ele>142.39</ele>
        <time>2021-05-13T06:50:51Z</time>
      </trkpt>
      <trkpt lat="43.744210" lon="4.830640">
        <ele>141.77</ele>
        <time>2021-05-13T06:51:00Z</time>
      </trkpt>
      <trkpt lat="43.744100" lon="4.830700">
        <ele>141.32</ele>
        <time>2021-05-13T06:51:10Z</time>
      </trkpt>
      <trkpt lat="43.743850" lon="4.830800">
        <ele>139.31</ele>
        <time>2021-05-13T06:51:31Z</time>
      </trkpt>
      <trkpt lat="43.743750" lon="4.830860">
        <ele>138.75</ele>
        <time>2021-05-13T06:51:40Z</time>
      </trkpt>
      <trkpt lat="43.743760" lon="4.831010">
        <ele>137.83</ele>
        <time>2021-05-13T06:52:01Z</time>
      </trkpt>
      <trkpt lat="43.743720" lon="4.831200">
        <ele>136.98</ele>
        <time>2021-05-13T06:52:15Z</time>
      </trkpt>
      <trkpt lat="43.743670" lon="4.831380">
        <ele>136.86</ele>
        <time>2021-05-13T06:52:24Z</time>
      </trkpt>
      <trkpt lat="43.743630" lon="4.831530">
        <ele>137.06</ele>
        <time>2021-05-13T06:52:31Z</time>
      </trkpt>
      <trkpt lat="43.743560" lon="4.831660">
        <ele>137.1</ele>
        <time>2021-05-13T06:52:39Z</time>
      </trkpt>
      <trkpt lat="43.743480" lon="4.831730">
        <ele>136.94</ele>
        <time>2021-05-13T06:52:47Z</time>
      </trkpt>
      <trkpt lat="43.743370" lon="4.831730">
        <ele>136.44</ele>
        <time>2021-05-13T06:52:55Z</time>
      </trkpt>
      <trkpt lat="43.743260" lon="4.831750">
        <ele>135.77</ele>
        <time>2021-05-13T06:53:03Z</time>
      </trkpt>
      <trkpt lat="43.743160" lon="4.831770">
        <ele>135.53</ele>
        <time>2021-05-13T06:53:11Z</time>
      </trkpt>
      <trkpt lat="43.743070" lon="4.831800">
        <ele>135.3</ele>
        <time>2021-05-13T06:53:19Z</time>
      </trkpt>
      <trkpt lat="43.742980" lon="4.831780">
        <ele>134.66</ele>
        <time>2021-05-13T06:53:28Z</time>
      </trkpt>
      <trkpt lat="43.742890" lon="4.831690">
        <ele>133.37</ele>
        <time>2021-05-13T06:53:37Z</time>
      </trkpt>
      <trkpt lat="43.742780" lon="4.831600">
        <ele>132.79</ele>
        <time>2021-05-13T06:53:47Z</time>
      </trkpt>
      <trkpt lat="43.742680" lon="4.831560">
        <ele>131.58</ele>
        <time>2021-05-13T06:53:57Z</time>
      </trkpt>
      <trkpt lat="43.742580" lon="4.831570">
        <ele>131.02</ele>
        <time>2021-05-13T06:54:05Z</time>
      </trkpt>
      <trkpt lat="43.742450" lon="4.831670">
        <ele>130.2</ele>
        <time>2021-05-13T06:54:16Z</time>
      </trkpt>
      <trkpt lat="43.742340" lon="4.831740">
        <ele>130.06</ele>
        <time>2021-05-13T06:54:24Z</time>
      </trkpt>
      <trkpt lat="43.742270" lon="4.831850">
        <ele>129.93</ele>
        <time>2021-05-13T06:54:32Z</time>
      </trkpt>
      <trkpt lat="43.742200" lon="4.831930">
        <ele>129.72</ele>
        <time>2021-05-13T06:54:41Z</time>
      </trkpt>
      <trkpt lat="43.742110" lon="4.832000">
        <ele>129.24</ele>
        <time>2021-05-13T06:55:07Z</time>
      </trkpt>
      <trkpt lat="43.741990" lon="4.832010">
        <ele>128.75</ele>
        <time>2021-05-13T06:55:15Z</time>
      </trkpt>
      <trkpt lat="43.741910" lon="4.832010">
        <ele>127.74</ele>
        <time>2021-05-13T06:55:42Z</time>
      </trkpt>
      <trkpt lat="43.741810" lon="4.832010">
        <ele>127.79</ele>
        <time>2021-05-13T06:55:49Z</time>
      </trkpt>
      <trkpt lat="43.741720" lon="4.832030">
        <ele>127.04</ele>
        <time>2021-05-13T06:55:56Z</time>
      </trkpt>
      <trkpt lat="43.741630" lon="4.832060">
        <ele>125.79</ele>
        <time>2021-05-13T06:56:04Z</time>
      </trkpt>
      <trkpt lat="43.741540" lon="4.832080">
        <ele>123.72</ele>
        <time>2021-05-13T06:56:14Z</time>
      </trkpt>
      <trkpt lat="43.741440" lon="4.832100">
        <ele>121.99</ele>
        <time>2021-05-13T06:56:23Z</time>
      </trkpt>
      <trkpt lat="43.741390" lon="4.832200">
        <ele>120.86</ele>
        <time>2021-05-13T06:56:32Z</time>
      </trkpt>
      <trkpt lat="43.741400" lon="4.832320">
        <ele>119.59</ele>
        <time>2021-05-13T06:56:40Z</time>
      </trkpt>
      <trkpt lat="43.741410" lon="4.832450">
        <ele>119.13</ele>
        <time>2021-05-13T06:56:48Z</time>
      </trkpt>
      <trkpt lat="43.741390" lon="4.832600">
        <ele>118.17</ele>
        <time>2021-05-13T06:56:58Z</time>
      </trkpt>
      <trkpt lat="43.741370" lon="4.832830">
        <ele>116.4</ele>
        <time>2021-05-13T06:57:12Z</time>
      </trkpt>
      <trkpt lat="43.741360" lon="4.833010">
        <ele>116</ele>
        <time>2021-05-13T06:57:22Z</time>
      </trkpt>
      <trkpt lat="43.741380" lon="4.833190">
        <ele>115</ele>
        <time>2021-05-13T06:57:33Z</time>
      </trkpt>
      <trkpt lat="43.741410" lon="4.833320">
        <ele>114.7</ele>
        <time>2021-05-13T06:57:41Z</time>
      </trkpt>
      <trkpt lat="43.741450" lon="4.833480">
        <ele>114.18</ele>
        <time>2021-05-13T06:57:49Z</time>
      </trkpt>
      <trkpt lat="43.741520" lon="4.833560">
        <ele>113.75</ele>
        <time>2021-05-13T06:57:56Z</time>
      </trkpt>
      <trkpt lat="43.741610" lon="4.833630">
        <ele>113.07</ele>
        <time>2021-05-13T06:58:04Z</time>
      </trkpt>
      <trkpt lat="43.741710" lon="4.833670">
        <ele>113.35</ele>
        <time>2021-05-13T06:58:12Z</time>
      </trkpt>
      <trkpt lat="43.741820" lon="4.833720">
        <ele>114.26</ele>
        <time>2021-05-13T06:58:19Z</time>
      </trkpt>
      <trkpt lat="43.741900" lon="4.833790">
        <ele>115.32</ele>
        <time>2021-05-13T06:58:27Z</time>
      </trkpt>
      <trkpt lat="43.741980" lon="4.833890">
        <ele>117.46</ele>
        <time>2021-05-13T06:58:36Z</time>
      </trkpt>
      <trkpt lat="43.742060" lon="4.833970">
        <ele>118.9</ele>
        <time>2021-05-13T06:58:46Z</time>
      </trkpt>
      <trkpt lat="43.742150" lon="4.834030">
        <ele>120.43</ele>
        <time>2021-05-13T06:58:56Z</time>
      </trkpt>
      <trkpt lat="43.742260" lon="4.834090">
        <ele>121.14</ele>
        <time>2021-05-13T06:59:08Z</time>
      </trkpt>
      <trkpt lat="43.742350" lon="4.834160">
        <ele>121.87</ele>
        <time>2021-05-13T06:59:17Z</time>
      </trkpt>
      <trkpt lat="43.742430" lon="4.834240">
        <ele>122.58</ele>
        <time>2021-05-13T06:59:25Z</time>
      </trkpt>
      <trkpt lat="43.742500" lon="4.834300">
        <ele>123.4</ele>
        <time>2021-05-13T06:59:33Z</time>
      </trkpt>
      <trkpt lat="43.742570" lon="4.834400">
        <ele>123.79</ele>
        <time>2021-05-13T06:59:42Z</time>
      </trkpt>
      <trkpt lat="43.742600" lon="4.834520">
        <ele>124.43</ele>
        <time>2021-05-13T06:59:51Z</time>
      </trkpt>
      <trkpt lat="43.742570" lon="4.834650">
        <ele>125.68</ele>
        <time>2021-05-13T07:00:01Z</time>
      </trkpt>
      <trkpt lat="43.742500" lon="4.834740">
        <ele>127.83</ele>
        <time>2021-05-13T07:00:10Z</time>
      </trkpt>
      <trkpt lat="43.742420" lon="4.834810">
        <ele>129.42</ele>
        <time>2021-05-13T07:00:24Z</time>
      </trkpt>
      <trkpt lat="43.742320" lon="4.834850">
        <ele>129.91</ele>
        <time>2021-05-13T07:00:34Z</time>
      </trkpt>
      <trkpt lat="43.742210" lon="4.834880">
        <ele>130.38</ele>
        <time>2021-05-13T07:00:42Z</time>
      </trkpt>
      <trkpt lat="43.742110" lon="4.834930">
        <ele>131.03</ele>
        <time>2021-05-13T07:00:50Z</time>
      </trkpt>
      <trkpt lat="43.742040" lon="4.835000">
        <ele>131.52</ele>
        <time>2021-05-13T07:00:59Z</time>
      </trkpt>
      <trkpt lat="43.741970" lon="4.835100">
        <ele>131.91</ele>
        <time>2021-05-13T07:01:08Z</time>
      </trkpt>
      <trkpt lat="43.741880" lon="4.835170">
        <ele>132.03</ele>
        <time>2021-05-13T07:01:17Z</time>
      </trkpt>
      <trkpt lat="43.741760" lon="4.835130">
        <ele>131.46</ele>
        <time>2021-05-13T07:01:26Z</time>
      </trkpt>
      <trkpt lat="43.741670" lon="4.835060">
        <ele>130.78</ele>
        <time>2021-05-13T07:01:34Z</time>
      </trkpt>
      <trkpt lat="43.741580" lon="4.835010">
        <ele>130.69</ele>
        <time>2021-05-13T07:01:43Z</time>
      </trkpt>
      <trkpt lat="43.741490" lon="4.834970">
        <ele>130.42</ele>
        <time>2021-05-13T07:01:52Z</time>
      </trkpt>
      <trkpt lat="43.741400" lon="4.834910">
        <ele>130.09</ele>
        <time>2021-05-13T07:02:02Z</time>
      </trkpt>
      <trkpt lat="43.741300" lon="4.834820">
        <ele>130.03</ele>
        <time>2021-05-13T07:02:12Z</time>
      </trkpt>
      <trkpt lat="43.741200" lon="4.834770">
        <ele>130.1</ele>
        <time>2021-05-13T07:02:21Z</time>
      </trkpt>
      <trkpt lat="43.741080" lon="4.834740">
        <ele>131.52</ele>
        <time>2021-05-13T07:02:31Z</time>
      </trkpt>
      <trkpt lat="43.740990" lon="4.834740">
        <ele>132.72</ele>
        <time>2021-05-13T07:03:02Z</time>
      </trkpt>
      <trkpt lat="43.740890" lon="4.834790">
        <ele>132.38</ele>
        <time>2021-05-13T07:03:12Z</time>
      </trkpt>
      <trkpt lat="43.740810" lon="4.834860">
        <ele>130.79</ele>
        <time>2021-05-13T07:03:23Z</time>
      </trkpt>
      <trkpt lat="43.740720" lon="4.834990">
        <ele>128.4</ele>
        <time>2021-05-13T07:03:33Z</time>
      </trkpt>
      <trkpt lat="43.740640" lon="4.835110">
        <ele>127.25</ele>
        <time>2021-05-13T07:03:50Z</time>
      </trkpt>
      <trkpt lat="43.740550" lon="4.835160">
        <ele>127.37</ele>
        <time>2021-05-13T07:03:58Z</time>
      </trkpt>
      <trkpt lat="43.740440" lon="4.835200">
        <ele>128.47</ele>
        <time>2021-05-13T07:04:10Z</time>
      </trkpt>
      <trkpt lat="43.740350" lon="4.835260">
        <ele>128.97</ele>
        <time>2021-05-13T07:04:19Z</time>
      </trkpt>
      <trkpt lat="43.740250" lon="4.835330">
        <ele>130.95</ele>
        <time>2021-05-13T07:04:28Z</time>
      </trkpt>
      <trkpt lat="43.740170" lon="4.835380">
        <ele>132.7</ele>
        <time>2021-05-13T07:04:36Z</time>
      </trkpt>
      <trkpt lat="43.740080" lon="4.835450">
        <ele>134.62</ele>
        <time>2021-05-13T07:04:46Z</time>
      </trkpt>
      <trkpt lat="43.739970" lon="4.835480">
        <ele>136.38</ele>
        <time>2021-05-13T07:04:56Z</time>
      </trkpt>
      <trkpt lat="43.739860" lon="4.835650">
        <ele>136.67</ele>
        <time>2021-05-13T07:05:10Z</time>
      </trkpt>
      <trkpt lat="43.739880" lon="4.835770">
        <ele>137.06</ele>
        <time>2021-05-13T07:05:19Z</time>
      </trkpt>
      <trkpt lat="43.739950" lon="4.835910">
        <ele>137.62</ele>
        <time>2021-05-13T07:05:29Z</time>
      </trkpt>
      <trkpt lat="43.740020" lon="4.836070">
        <ele>138.98</ele>
        <time>2021-05-13T07:05:42Z</time>
      </trkpt>
      <trkpt lat="43.740080" lon="4.836190">
        <ele>139.32</ele>
        <time>2021-05-13T07:05:50Z</time>
      </trkpt>
      <trkpt lat="43.740140" lon="4.836330">
        <ele>139.57</ele>
        <time>2021-05-13T07:05:59Z</time>
      </trkpt>
      <trkpt lat="43.740190" lon="4.836490">
        <ele>139.92</ele>
        <time>2021-05-13T07:06:08Z</time>
      </trkpt>
      <trkpt lat="43.740230" lon="4.836620">
        <ele>140.24</ele>
        <time>2021-05-13T07:06:16Z</time>
      </trkpt>
      <trkpt lat="43.740250" lon="4.836750">
        <ele>140.82</ele>
        <time>2021-05-13T07:06:24Z</time>
      </trkpt>
      <trkpt lat="43.740200" lon="4.836840">
        <ele>141.15</ele>
        <time>2021-05-13T07:06:32Z</time>
      </trkpt>
      <trkpt lat="43.740130" lon="4.836870">
        <ele>140.46</ele>
        <time>2021-05-13T07:06:42Z</time>
      </trkpt>
      <trkpt lat="43.740030" lon="4.836900">
        <ele>139.77</ele>
        <time>2021-05-13T07:06:51Z</time>
      </trkpt>
      <trkpt lat="43.739900" lon="4.836930">
        <ele>138.69</ele>
        <time>2021-05-13T07:07:00Z</time>
      </trkpt>
      <trkpt lat="43.739800" lon="4.836940">
        <ele>138.26</ele>
        <time>2021-05-13T07:07:07Z</time>
      </trkpt>
      <trkpt lat="43.739700" lon="4.836960">
        <ele>138.13</ele>
        <time>2021-05-13T07:07:15Z</time>
      </trkpt>
      <trkpt lat="43.739610" lon="4.836990">
        <ele>138.05</ele>
        <time>2021-05-13T07:07:22Z</time>
      </trkpt>
      <trkpt lat="43.739510" lon="4.837020">
        <ele>137.93</ele>
        <time>2021-05-13T07:07:29Z</time>
      </trkpt>
      <trkpt lat="43.739410" lon="4.837060">
        <ele>137.76</ele>
        <time>2021-05-13T07:07:37Z</time>
      </trkpt>
      <trkpt lat="43.739300" lon="4.837110">
        <ele>136.63</ele>
        <time>2021-05-13T07:07:46Z</time>
      </trkpt>
      <trkpt lat="43.739190" lon="4.837140">
        <ele>136.51</ele>
        <time>2021-05-13T07:07:55Z</time>
      </trkpt>
      <trkpt lat="43.739100" lon="4.837190">
        <ele>136.51</ele>
        <time>2021-05-13T07:08:02Z</time>
      </trkpt>
      <trkpt lat="43.738930" lon="4.837270">
        <ele>136.5</ele>
        <time>2021-05-13T07:08:17Z</time>
      </trkpt>
      <trkpt lat="43.738710" lon="4.837250">
        <ele>136.82</ele>
        <time>2021-05-13T07:08:34Z</time>
      </trkpt>
      <trkpt lat="43.738610" lon="4.837240">
        <ele>135.95</ele>
        <time>2021-05-13T07:08:42Z</time>
      </trkpt>
      <trkpt lat="43.738470" lon="4.837260">
        <ele>134.31</ele>
        <time>2021-05-13T07:08:55Z</time>
      </trkpt>
      <trkpt lat="43.738310" lon="4.837300">
        <ele>133.34</ele>
        <time>2021-05-13T07:09:06Z</time>
      </trkpt>
      <trkpt lat="43.738180" lon="4.837280">
        <ele>133.43</ele>
        <time>2021-05-13T07:09:17Z</time>
      </trkpt>
      <trkpt lat="43.738070" lon="4.837270">
        <ele>134.52</ele>
        <time>2021-05-13T07:09:26Z</time>
      </trkpt>
      <trkpt lat="43.737940" lon="4.837300">
        <ele>136.22</ele>
        <time>2021-05-13T07:09:36Z</time>
      </trkpt>
      <trkpt lat="43.737820" lon="4.837300">
        <ele>136.5</ele>
        <time>2021-05-13T07:09:46Z</time>
      </trkpt>
      <trkpt lat="43.737710" lon="4.837310">
        <ele>136.55</ele>
        <time>2021-05-13T07:09:54Z</time>
      </trkpt>
      <trkpt lat="43.737590" lon="4.837290">
        <ele>136.46</ele>
        <time>2021-05-13T07:10:03Z</time>
      </trkpt>
      <trkpt lat="43.737500" lon="4.837300">
        <ele>135.69</ele>
        <time>2021-05-13T07:10:11Z</time>
      </trkpt>
      <trkpt lat="43.737390" lon="4.837290">
        <ele>135.28</ele>
        <time>2021-05-13T07:10:19Z</time>
      </trkpt>
      <trkpt lat="43.737290" lon="4.837280">
        <ele>135.1</ele>
        <time>2021-05-13T07:10:27Z</time>
      </trkpt>
      <trkpt lat="43.737170" lon="4.837300">
        <ele>135.25</ele>
        <time>2021-05-13T07:10:35Z</time>
      </trkpt>
      <trkpt lat="43.736980" lon="4.837340">
        <ele>134.88</ele>
        <time>2021-05-13T07:10:50Z</time>
      </trkpt>
      <trkpt lat="43.736810" lon="4.837420">
        <ele>134.03</ele>
        <time>2021-05-13T07:11:04Z</time>
      </trkpt>
      <trkpt lat="43.736680" lon="4.837480">
        <ele>133.59</ele>
        <time>2021-05-13T07:11:14Z</time>
      </trkpt>
      <trkpt lat="43.736580" lon="4.837500">
        <ele>133.6</ele>
        <time>2021-05-13T07:11:22Z</time>
      </trkpt>
      <trkpt lat="43.736460" lon="4.837530">
        <ele>133.94</ele>
        <time>2021-05-13T07:11:32Z</time>
      </trkpt>
      <trkpt lat="43.736330" lon="4.837560">
        <ele>134.7</ele>
        <time>2021-05-13T07:11:44Z</time>
      </trkpt>
      <trkpt lat="43.736180" lon="4.837640">
        <ele>135.35</ele>
        <time>2021-05-13T07:11:56Z</time>
      </trkpt>
      <trkpt lat="43.736100" lon="4.837710">
        <ele>135.52</ele>
        <time>2021-05-13T07:12:03Z</time>
      </trkpt>
      <trkpt lat="43.735980" lon="4.837790">
        <ele>136.02</ele>
        <time>2021-05-13T07:12:14Z</time>
      </trkpt>
      <trkpt lat="43.735810" lon="4.837870">
        <ele>136.49</ele>
        <time>2021-05-13T07:12:27Z</time>
      </trkpt>
      <trkpt lat="43.735660" lon="4.837920">
        <ele>136.52</ele>
        <time>2021-05-13T07:12:39Z</time>
      </trkpt>
      <trkpt lat="43.735560" lon="4.837930">
        <ele>135.54</ele>
        <time>2021-05-13T07:12:46Z</time>
      </trkpt>
      <trkpt lat="43.735370" lon="4.837930">
        <ele>134.42</ele>
        <time>2021-05-13T07:13:01Z</time>
      </trkpt>
      <trkpt lat="43.735270" lon="4.838000">
        <ele>133.11</ele>
        <time>2021-05-13T07:13:26Z</time>
      </trkpt>
      <trkpt lat="43.735220" lon="4.838100">
        <ele>133.78</ele>
        <time>2021-05-13T07:13:44Z</time>
      </trkpt>
      <trkpt lat="43.735230" lon="4.838230">
        <ele>135.36</ele>
        <time>2021-05-13T07:14:23Z</time>
      </trkpt>
      <trkpt lat="43.735240" lon="4.838380">
        <ele>136.18</ele>
        <time>2021-05-13T07:14:33Z</time>
      </trkpt>
      <trkpt lat="43.735280" lon="4.838530">
        <ele>138.04</ele>
        <time>2021-05-13T07:14:44Z</time>
      </trkpt>
      <trkpt lat="43.735390" lon="4.838690">
        <ele>138.64</ele>
        <time>2021-05-13T07:14:56Z</time>
      </trkpt>
      <trkpt lat="43.735420" lon="4.838820">
        <ele>139.83</ele>
        <time>2021-05-13T07:15:18Z</time>
      </trkpt>
      <trkpt lat="43.735480" lon="4.838910">
        <ele>140.53</ele>
        <time>2021-05-13T07:15:28Z</time>
      </trkpt>
      <trkpt lat="43.735530" lon="4.839010">
        <ele>142.05</ele>
        <time>2021-05-13T07:15:40Z</time>
      </trkpt>
      <trkpt lat="43.735630" lon="4.839080">
        <ele>143.96</ele>
        <time>2021-05-13T07:15:52Z</time>
      </trkpt>
      <trkpt lat="43.735690" lon="4.839180">
        <ele>145.72</ele>
        <time>2021-05-13T07:16:04Z</time>
      </trkpt>
      <trkpt lat="43.735720" lon="4.839340">
        <ele>148.06</ele>
        <time>2021-05-13T07:16:19Z</time>
      </trkpt>
      <trkpt lat="43.735780" lon="4.839430">
        <ele>150.21</ele>
        <time>2021-05-13T07:16:33Z</time>
      </trkpt>
      <trkpt lat="43.735880" lon="4.839520">
        <ele>152.18</ele>
        <time>2021-05-13T07:16:46Z</time>
      </trkpt>
      <trkpt lat="43.735970" lon="4.839560">
        <ele>155.17</ele>
        <time>2021-05-13T07:17:03Z</time>
      </trkpt>
      <trkpt lat="43.736070" lon="4.839630">
        <ele>156.59</ele>
        <time>2021-05-13T07:17:16Z</time>
      </trkpt>
      <trkpt lat="43.736120" lon="4.839720">
        <ele>159.22</ele>
        <time>2021-05-13T07:17:33Z</time>
      </trkpt>
      <trkpt lat="43.736200" lon="4.839780">
        <ele>161.4</ele>
        <time>2021-05-13T07:17:46Z</time>
      </trkpt>
      <trkpt lat="43.736250" lon="4.839900">
        <ele>163.18</ele>
        <time>2021-05-13T07:17:59Z</time>
      </trkpt>
      <trkpt lat="43.736270" lon="4.840030">
        <ele>163.8</ele>
        <time>2021-05-13T07:18:11Z</time>
      </trkpt>
      <trkpt lat="43.736300" lon="4.840160">
        <ele>164.95</ele>
        <time>2021-05-13T07:18:23Z</time>
      </trkpt>
      <trkpt lat="43.736330" lon="4.840270">
        <ele>167.34</ele>
        <time>2021-05-13T07:18:34Z</time>
      </trkpt>
      <trkpt lat="43.736390" lon="4.840360">
        <ele>169.08</ele>
        <time>2021-05-13T07:18:45Z</time>
      </trkpt>
      <trkpt lat="43.736420" lon="4.840470">
        <ele>170.77</ele>
        <time>2021-05-13T07:18:57Z</time>
      </trkpt>
      <trkpt lat="43.736400" lon="4.840580">
        <ele>172.12</ele>
        <time>2021-05-13T07:19:11Z</time>
      </trkpt>
      <trkpt lat="43.736450" lon="4.840730">
        <ele>174.8</ele>
        <time>2021-05-13T07:19:27Z</time>
      </trkpt>
      <trkpt lat="43.736520" lon="4.840830">
        <ele>176.63</ele>
        <time>2021-05-13T07:20:06Z</time>
      </trkpt>
      <trkpt lat="43.736500" lon="4.840860">
        <ele>176.46</ele>
        <time>2021-05-13T07:20:42Z</time>
      </trkpt>
      <trkpt lat="43.736580" lon="4.840950">
        <ele>178.85</ele>
        <time>2021-05-13T07:20:59Z</time>
      </trkpt>
      <trkpt lat="43.736680" lon="4.840990">
        <ele>180.21</ele>
        <time>2021-05-13T07:21:10Z</time>
      </trkpt>
      <trkpt lat="43.736730" lon="4.841070">
        <ele>181.64</ele>
        <time>2021-05-13T07:21:22Z</time>
      </trkpt>
      <trkpt lat="43.736820" lon="4.841160">
        <ele>182.97</ele>
        <time>2021-05-13T07:21:33Z</time>
      </trkpt>
      <trkpt lat="43.736870" lon="4.841280">
        <ele>184.16</ele>
        <time>2021-05-13T07:21:45Z</time>
      </trkpt>
      <trkpt lat="43.736950" lon="4.841370">
        <ele>187.1</ele>
        <time>2021-05-13T07:22:03Z</time>
      </trkpt>
      <trkpt lat="43.736980" lon="4.841470">
        <ele>187.77</ele>
        <time>2021-05-13T07:22:22Z</time>
      </trkpt>
      <trkpt lat="43.737030" lon="4.841550">
        <ele>189.47</ele>
        <time>2021-05-13T07:22:45Z</time>
      </trkpt>
      <trkpt lat="43.737000" lon="4.841690">
        <ele>191.62</ele>
        <time>2021-05-13T07:22:59Z</time>
      </trkpt>
      <trkpt lat="43.737040" lon="4.841770">
        <ele>194.63</ele>
        <time>2021-05-13T07:23:12Z</time>
      </trkpt>
      <trkpt lat="43.737000" lon="4.841840">
        <ele>194.45</ele>
        <time>2021-05-13T07:23:34Z</time>
      </trkpt>
      <trkpt lat="43.737010" lon="4.841960">
        <ele>196.97</ele>
        <time>2021-05-13T07:23:52Z</time>
      </trkpt>
      <trkpt lat="43.737030" lon="4.842060">
        <ele>200.27</ele>
        <time>2021-05-13T07:24:08Z</time>
      </trkpt>
      <trkpt lat="43.737090" lon="4.842160">
        <ele>202.6</ele>
        <time>2021-05-13T07:24:23Z</time>
      </trkpt>
      <trkpt lat="43.737170" lon="4.842240">
        <ele>205.92</ele>
        <time>2021-05-13T07:24:40Z</time>
      </trkpt>
      <trkpt lat="43.737280" lon="4.842380">
        <ele>208.89</ele>
        <time>2021-05-13T07:24:56Z</time>
      </trkpt>
      <trkpt lat="43.737330" lon="4.842410">
        <ele>209.11</ele>
        <time>2021-05-13T07:25:32Z</time>
      </trkpt>
      <trkpt lat="43.737390" lon="4.842350">
        <ele>209</ele>
        <time>2021-05-13T07:26:30Z</time>
      </trkpt>
      <trkpt lat="43.737420" lon="4.842410">
        <ele>208.92</ele>
        <time>2021-05-13T07:26:52Z</time>
      </trkpt>
      <trkpt lat="43.737520" lon="4.842440">
        <ele>209.99</ele>
        <time>2021-05-13T07:27:03Z</time>
      </trkpt>
      <trkpt lat="43.737590" lon="4.842530">
        <ele>210.24</ele>
        <time>2021-05-13T07:27:13Z</time>
      </trkpt>
      <trkpt lat="43.737670" lon="4.842630">
        <ele>210.29</ele>
        <time>2021-05-13T07:27:23Z</time>
      </trkpt>
      <trkpt lat="43.737720" lon="4.842720">
        <ele>211.02</ele>
        <time>2021-05-13T07:27:39Z</time>
      </trkpt>
      <trkpt lat="43.737760" lon="4.842810">
        <ele>211.69</ele>
        <time>2021-05-13T07:27:53Z</time>
      </trkpt>
      <trkpt lat="43.737830" lon="4.842880">
        <ele>211.64</ele>
        <time>2021-05-13T07:28:03Z</time>
      </trkpt>
      <trkpt lat="43.737860" lon="4.842940">
        <ele>211.55</ele>
        <time>2021-05-13T07:28:39Z</time>
      </trkpt>
      <trkpt lat="43.737940" lon="4.843020">
        <ele>211.47</ele>
        <time>2021-05-13T07:28:50Z</time>
      </trkpt>
      <trkpt lat="43.738010" lon="4.843110">
        <ele>211.13</ele>
        <time>2021-05-13T07:29:00Z</time>
      </trkpt>
      <trkpt lat="43.738100" lon="4.843160">
        <ele>209.89</ele>
        <time>2021-05-13T07:29:14Z</time>
      </trkpt>
      <trkpt lat="43.738190" lon="4.843210">
        <ele>209.09</ele>
        <time>2021-05-13T07:29:25Z</time>
      </trkpt>
      <trkpt lat="43.738280" lon="4.843250">
        <ele>207.92</ele>
        <time>2021-05-13T07:29:35Z</time>
      </trkpt>
      <trkpt lat="43.738360" lon="4.843220">
        <ele>207.23</ele>
        <time>2021-05-13T07:29:45Z</time>
      </trkpt>
      <trkpt lat="43.738430" lon="4.843160">
        <ele>206.23</ele>
        <time>2021-05-13T07:29:56Z</time>
      </trkpt>
      <trkpt lat="43.738540" lon="4.843170">
        <ele>204.69</ele>
        <time>2021-05-13T07:30:09Z</time>
      </trkpt>
      <trkpt lat="43.738630" lon="4.843250">
        <ele>203.32</ele>
        <time>2021-05-13T07:30:21Z</time>
      </trkpt>
      <trkpt lat="43.738710" lon="4.843340">
        <ele>200.6</ele>
        <time>2021-05-13T07:30:36Z</time>
      </trkpt>
      <trkpt lat="43.738780" lon="4.843430">
        <ele>199.72</ele>
        <time>2021-05-13T07:30:46Z</time>
      </trkpt>
      <trkpt lat="43.738760" lon="4.843520">
        <ele>201.38</ele>
        <time>2021-05-13T07:31:05Z</time>
      </trkpt>
      <trkpt lat="43.738820" lon="4.843550">
        <ele>203.07</ele>
        <time>2021-05-13T07:31:39Z</time>
      </trkpt>
      <trkpt lat="43.738910" lon="4.843580">
        <ele>205.08</ele>
        <time>2021-05-13T07:31:59Z</time>
      </trkpt>
      <trkpt lat="43.738990" lon="4.843600">
        <ele>207.84</ele>
        <time>2021-05-13T07:32:22Z</time>
      </trkpt>
      <trkpt lat="43.739080" lon="4.843560">
        <ele>210.01</ele>
        <time>2021-05-13T07:32:38Z</time>
      </trkpt>
      <trkpt lat="43.739160" lon="4.843610">
        <ele>213.79</ele>
        <time>2021-05-13T07:33:02Z</time>
      </trkpt>
      <trkpt lat="43.739220" lon="4.843590">
        <ele>216.21</ele>
        <time>2021-05-13T07:34:49Z</time>
      </trkpt>
      <trkpt lat="43.739310" lon="4.843610">
        <ele>217.24</ele>
        <time>2021-05-13T07:35:05Z</time>
      </trkpt>
      <trkpt lat="43.739390" lon="4.843660">
        <ele>219.91</ele>
        <time>2021-05-13T07:35:19Z</time>
      </trkpt>
      <trkpt lat="43.739460" lon="4.843730">
        <ele>221.82</ele>
        <time>2021-05-13T07:35:31Z</time>
      </trkpt>
      <trkpt lat="43.739530" lon="4.843820">
        <ele>224.16</ele>
        <time>2021-05-13T07:35:42Z</time>
      </trkpt>
      <trkpt lat="43.739600" lon="4.843900">
        <ele>225.23</ele>
        <time>2021-05-13T07:35:54Z</time>
      </trkpt>
      <trkpt lat="43.739670" lon="4.843980">
        <ele>227.79</ele>
        <time>2021-05-13T07:36:08Z</time>
      </trkpt>
      <trkpt lat="43.739760" lon="4.844050">
        <ele>231.93</ele>
        <time>2021-05-13T07:37:19Z</time>
      </trkpt>
      <trkpt lat="43.739840" lon="4.844110">
        <ele>232.8</ele>
        <time>2021-05-13T07:37:32Z</time>
      </trkpt>
      <trkpt lat="43.739940" lon="4.844160">
        <ele>235.23</ele>
        <time>2021-05-13T07:37:44Z</time>
      </trkpt>
      <trkpt lat="43.740020" lon="4.844170">
        <ele>237.11</ele>
        <time>2021-05-13T07:37:55Z</time>
      </trkpt>
      <trkpt lat="43.740140" lon="4.844130">
        <ele>238.5</ele>
        <time>2021-05-13T07:38:07Z</time>
      </trkpt>
      <trkpt lat="43.740200" lon="4.844080">
        <ele>241.08</ele>
        <time>2021-05-13T07:39:15Z</time>
      </trkpt>
      <trkpt lat="43.740220" lon="4.844110">
        <ele>241.52</ele>
        <time>2021-05-13T07:40:14Z</time>
      </trkpt>
      <trkpt lat="43.740170" lon="4.844120">
        <ele>240.21</ele>
        <time>2021-05-13T07:41:45Z</time>
      </trkpt>
      <trkpt lat="43.740180" lon="4.844130">
        <ele>240.86</ele>
        <time>2021-05-13T07:43:54Z</time>
      </trkpt>
      <trkpt lat="43.740180" lon="4.844090">
        <ele>240.58</ele>
        <time>2021-05-13T07:45:33Z</time>
      </trkpt>
      <trkpt lat="43.740280" lon="4.844070">
        <ele>241.55</ele>
        <time>2021-05-13T07:45:47Z</time>
      </trkpt>
      <trkpt lat="43.740380" lon="4.844020">
        <ele>242.71</ele>
        <time>2021-05-13T07:45:57Z</time>
      </trkpt>
      <trkpt lat="43.740480" lon="4.843980">
        <ele>243.25</ele>
        <time>2021-05-13T07:46:07Z</time>
      </trkpt>
      <trkpt lat="43.740590" lon="4.843950">
        <ele>245.23</ele>
        <time>2021-05-13T07:46:16Z</time>
      </trkpt>
      <trkpt lat="43.740690" lon="4.843950">
        <ele>245.48</ele>
        <time>2021-05-13T07:46:25Z</time>
      </trkpt>
      <trkpt lat="43.740780" lon="4.843970">
        <ele>244.6</ele>
        <time>2021-05-13T07:46:33Z</time>
      </trkpt>
      <trkpt lat="43.740830" lon="4.843990">
        <ele>244.1</ele>
        <time>2021-05-13T07:46:53Z</time>
      </trkpt>
      <trkpt lat="43.740920" lon="4.844070">
        <ele>244.45</ele>
        <time>2021-05-13T07:47:06Z</time>
      </trkpt>
      <trkpt lat="43.741000" lon="4.844120">
        <ele>244.99</ele>
        <time>2021-05-13T07:47:16Z</time>
      </trkpt>
      <trkpt lat="43.741050" lon="4.844240">
        <ele>247.44</ele>
        <time>2021-05-13T07:47:33Z</time>
      </trkpt>
      <trkpt lat="43.741090" lon="4.844310">
        <ele>246.86</ele>
        <time>2021-05-13T07:48:43Z</time>
      </trkpt>
      <trkpt lat="43.741170" lon="4.844390">
        <ele>247</ele>
        <time>2021-05-13T07:48:54Z</time>
      </trkpt>
      <trkpt lat="43.741260" lon="4.844450">
        <ele>248.09</ele>
        <time>2021-05-13T07:49:04Z</time>
      </trkpt>
      <trkpt lat="43.741350" lon="4.844470">
        <ele>247.81</ele>
        <time>2021-05-13T07:49:14Z</time>
      </trkpt>
      <trkpt lat="43.741440" lon="4.844470">
        <ele>247.83</ele>
        <time>2021-05-13T07:49:37Z</time>
      </trkpt>
      <trkpt lat="43.741430" lon="4.844510">
        <ele>248.28</ele>
        <time>2021-05-13T07:50:26Z</time>
      </trkpt>
      <trkpt lat="43.741530" lon="4.844500">
        <ele>248.7</ele>
        <time>2021-05-13T07:50:42Z</time>
      </trkpt>
      <trkpt lat="43.741620" lon="4.844460">
        <ele>249.89</ele>
        <time>2021-05-13T07:51:47Z</time>
      </trkpt>
      <trkpt lat="43.741730" lon="4.844420">
        <ele>249.91</ele>
        <time>2021-05-13T07:52:09Z</time>
      </trkpt>
      <trkpt lat="43.741840" lon="4.844390">
        <ele>250.38</ele>
        <time>2021-05-13T07:52:20Z</time>
      </trkpt>
      <trkpt lat="43.741950" lon="4.844360">
        <ele>250.66</ele>
        <time>2021-05-13T07:52:31Z</time>
      </trkpt>
      <trkpt lat="43.742030" lon="4.844360">
        <ele>250.7</ele>
        <time>2021-05-13T07:52:46Z</time>
      </trkpt>
      <trkpt lat="43.742150" lon="4.844380">
        <ele>250.12</ele>
        <time>2021-05-13T07:53:02Z</time>
      </trkpt>
      <trkpt lat="43.742200" lon="4.844470">
        <ele>250.74</ele>
        <time>2021-05-13T07:53:12Z</time>
      </trkpt>
      <trkpt lat="43.742300" lon="4.844510">
        <ele>251.95</ele>
        <time>2021-05-13T07:53:24Z</time>
      </trkpt>
      <trkpt lat="43.742360" lon="4.844550">
        <ele>254.81</ele>
        <time>2021-05-13T07:53:51Z</time>
      </trkpt>
      <trkpt lat="43.742420" lon="4.844570">
        <ele>254.98</ele>
        <time>2021-05-13T07:54:26Z</time>
      </trkpt>
      <trkpt lat="43.742530" lon="4.844590">
        <ele>255.86</ele>
        <time>2021-05-13T07:54:38Z</time>
      </trkpt>
      <trkpt lat="43.742640" lon="4.844610">
        <ele>257.59</ele>
        <time>2021-05-13T07:54:47Z</time>
      </trkpt>
      <trkpt lat="43.742730" lon="4.844670">
        <ele>258.12</ele>
        <time>2021-05-13T07:54:55Z</time>
      </trkpt>
      <trkpt lat="43.742860" lon="4.844830">
        <ele>258.32</ele>
        <time>2021-05-13T07:55:07Z</time>
      </trkpt>
      <trkpt lat="43.742940" lon="4.844920">
        <ele>259.86</ele>
        <time>2021-05-13T07:55:17Z</time>
      </trkpt>
      <trkpt lat="43.743010" lon="4.845030">
        <ele>260.45</ele>
        <time>2021-05-13T07:55:27Z</time>
      </trkpt>
      <trkpt lat="43.743040" lon="4.845130">
        <ele>262.03</ele>
        <time>2021-05-13T07:55:40Z</time>
      </trkpt>
      <trkpt lat="43.743090" lon="4.845260">
        <ele>263.54</ele>
        <time>2021-05-13T07:55:54Z</time>
      </trkpt>
      <trkpt lat="43.743120" lon="4.845420">
        <ele>264.26</ele>
        <time>2021-05-13T07:56:07Z</time>
      </trkpt>
      <trkpt lat="43.743140" lon="4.845540">
        <ele>265.06</ele>
        <time>2021-05-13T07:56:16Z</time>
      </trkpt>
      <trkpt lat="43.743180" lon="4.845660">
        <ele>265.78</ele>
        <time>2021-05-13T07:56:32Z</time>
      </trkpt>
      <trkpt lat="43.743230" lon="4.845780">
        <ele>266.4</ele>
        <time>2021-05-13T07:56:41Z</time>
      </trkpt>
      <trkpt lat="43.743260" lon="4.845930">
        <ele>266.44</ele>
        <time>2021-05-13T07:56:51Z</time>
      </trkpt>
      <trkpt lat="43.743300" lon="4.846030">
        <ele>266.54</ele>
        <time>2021-05-13T07:57:02Z</time>
      </trkpt>
      <trkpt lat="43.743340" lon="4.846150">
        <ele>268.19</ele>
        <time>2021-05-13T07:57:14Z</time>
      </trkpt>
      <trkpt lat="43.743380" lon="4.846260">
        <ele>270.85</ele>
        <time>2021-05-13T07:57:27Z</time>
      </trkpt>
      <trkpt lat="43.743440" lon="4.846380">
        <ele>272.91</ele>
        <time>2021-05-13T07:57:43Z</time>
      </trkpt>
      <trkpt lat="43.743500" lon="4.846510">
        <ele>273.65</ele>
        <time>2021-05-13T07:57:53Z</time>
      </trkpt>
      <trkpt lat="43.743510" lon="4.846650">
        <ele>275.6</ele>
        <time>2021-05-13T07:58:07Z</time>
      </trkpt>
      <trkpt lat="43.743520" lon="4.846790">
        <ele>277.09</ele>
        <time>2021-05-13T07:58:17Z</time>
      </trkpt>
      <trkpt lat="43.743560" lon="4.846920">
        <ele>277.12</ele>
        <time>2021-05-13T07:58:27Z</time>
      </trkpt>
      <trkpt lat="43.743570" lon="4.847050">
        <ele>277.13</ele>
        <time>2021-05-13T07:58:38Z</time>
      </trkpt>
      <trkpt lat="43.743620" lon="4.847150">
        <ele>277.97</ele>
        <time>2021-05-13T07:58:49Z</time>
      </trkpt>
      <trkpt lat="43.743640" lon="4.847280">
        <ele>279.46</ele>
        <time>2021-05-13T07:59:04Z</time>
      </trkpt>
      <trkpt lat="43.743720" lon="4.847380">
        <ele>282.07</ele>
        <time>2021-05-13T07:59:17Z</time>
      </trkpt>
      <trkpt lat="43.743780" lon="4.847470">
        <ele>283.5</ele>
        <time>2021-05-13T07:59:30Z</time>
      </trkpt>
      <trkpt lat="43.743850" lon="4.847560">
        <ele>286.08</ele>
        <time>2021-05-13T07:59:42Z</time>
      </trkpt>
      <trkpt lat="43.743950" lon="4.847640">
        <ele>287.13</ele>
        <time>2021-05-13T07:59:53Z</time>
      </trkpt>
      <trkpt lat="43.744040" lon="4.847730">
        <ele>289.78</ele>
        <time>2021-05-13T08:00:05Z</time>
      </trkpt>
      <trkpt lat="43.744130" lon="4.847800">
        <ele>290.68</ele>
        <time>2021-05-13T08:00:16Z</time>
      </trkpt>
      <trkpt lat="43.744220" lon="4.847840">
        <ele>291.79</ele>
        <time>2021-05-13T08:00:28Z</time>
      </trkpt>
      <trkpt lat="43.744290" lon="4.847940">
        <ele>293.3</ele>
        <time>2021-05-13T08:00:41Z</time>
      </trkpt>
      <trkpt lat="43.744380" lon="4.848070">
        <ele>295.55</ele>
        <time>2021-05-13T08:00:54Z</time>
      </trkpt>
      <trkpt lat="43.744400" lon="4.848090">
        <ele>296.06</ele>
        <time>2021-05-13T08:02:15Z</time>
      </trkpt>
      <trkpt lat="43.744420" lon="4.848170">
        <ele>296.23</ele>
        <time>2021-05-13T08:02:46Z</time>
      </trkpt>
      <trkpt lat="43.744480" lon="4.848270">
        <ele>297.27</ele>
        <time>2021-05-13T08:02:56Z</time>
      </trkpt>
      <trkpt lat="43.744540" lon="4.848380">
        <ele>299.28</ele>
        <time>2021-05-13T08:03:07Z</time>
      </trkpt>
      <trkpt lat="43.744550" lon="4.848510">
        <ele>301.47</ele>
        <time>2021-05-13T08:03:18Z</time>
      </trkpt>
      <trkpt lat="43.744540" lon="4.848640">
        <ele>304.42</ele>
        <time>2021-05-13T08:03:30Z</time>
      </trkpt>
      <trkpt lat="43.744560" lon="4.848770">
        <ele>305.64</ele>
        <time>2021-05-13T08:03:40Z</time>
      </trkpt>
      <trkpt lat="43.744610" lon="4.848890">
        <ele>306.43</ele>
        <time>2021-05-13T08:03:52Z</time>
      </trkpt>
      <trkpt lat="43.744620" lon="4.849020">
        <ele>308.04</ele>
        <time>2021-05-13T08:04:04Z</time>
      </trkpt>
      <trkpt lat="43.744660" lon="4.849150">
        <ele>310.08</ele>
        <time>2021-05-13T08:04:14Z</time>
      </trkpt>
      <trkpt lat="43.744700" lon="4.849280">
        <ele>312.95</ele>
        <time>2021-05-13T08:04:26Z</time>
      </trkpt>
      <trkpt lat="43.744730" lon="4.849400">
        <ele>312.93</ele>
        <time>2021-05-13T08:04:41Z</time>
      </trkpt>
      <trkpt lat="43.744770" lon="4.849500">
        <ele>313.03</ele>
        <time>2021-05-13T08:04:51Z</time>
      </trkpt>
      <trkpt lat="43.744800" lon="4.849590">
        <ele>312.02</ele>
        <time>2021-05-13T08:05:23Z</time>
      </trkpt>
      <trkpt lat="43.744870" lon="4.849680">
        <ele>311.36</ele>
        <time>2021-05-13T08:05:32Z</time>
      </trkpt>
      <trkpt lat="43.744960" lon="4.849750">
        <ele>310.71</ele>
        <time>2021-05-13T08:05:40Z</time>
      </trkpt>
      <trkpt lat="43.745040" lon="4.849820">
        <ele>310.33</ele>
        <time>2021-05-13T08:05:48Z</time>
      </trkpt>
      <trkpt lat="43.745110" lon="4.849910">
        <ele>310.43</ele>
        <time>2021-05-13T08:05:56Z</time>
      </trkpt>
      <trkpt lat="43.745150" lon="4.850030">
        <ele>311.74</ele>
        <time>2021-05-13T08:06:24Z</time>
      </trkpt>
      <trkpt lat="43.745230" lon="4.850140">
        <ele>311.84</ele>
        <time>2021-05-13T08:06:36Z</time>
      </trkpt>
      <trkpt lat="43.745310" lon="4.850210">
        <ele>312.21</ele>
        <time>2021-05-13T08:06:46Z</time>
      </trkpt>
      <trkpt lat="43.745390" lon="4.850270">
        <ele>312.72</ele>
        <time>2021-05-13T08:06:55Z</time>
      </trkpt>
      <trkpt lat="43.745460" lon="4.850360">
        <ele>313.38</ele>
        <time>2021-05-13T08:07:04Z</time>
      </trkpt>
      <trkpt lat="43.745510" lon="4.850490">
        <ele>313.47</ele>
        <time>2021-05-13T08:07:14Z</time>
      </trkpt>
      <trkpt lat="43.745560" lon="4.850670">
        <ele>313.5</ele>
        <time>2021-05-13T08:07:23Z</time>
      </trkpt>
      <trkpt lat="43.745650" lon="4.850830">
        <ele>313.6</ele>
        <time>2021-05-13T08:07:35Z</time>
      </trkpt>
      <trkpt lat="43.745730" lon="4.850950">
        <ele>313.8</ele>
        <time>2021-05-13T08:07:46Z</time>
      </trkpt>
      <trkpt lat="43.745710" lon="4.850960">
        <ele>313.45</ele>
        <time>2021-05-13T08:08:11Z</time>
      </trkpt>
      <trkpt lat="43.745770" lon="4.851050">
        <ele>312.99</ele>
        <time>2021-05-13T08:08:39Z</time>
      </trkpt>
      <trkpt lat="43.745860" lon="4.851150">
        <ele>312.14</ele>
        <time>2021-05-13T08:08:49Z</time>
      </trkpt>
      <trkpt lat="43.745940" lon="4.851230">
        <ele>310.92</ele>
        <time>2021-05-13T08:08:58Z</time>
      </trkpt>
      <trkpt lat="43.746000" lon="4.851310">
        <ele>309.47</ele>
        <time>2021-05-13T08:09:06Z</time>
      </trkpt>
      <trkpt lat="43.746070" lon="4.851390">
        <ele>309.11</ele>
        <time>2021-05-13T08:09:15Z</time>
      </trkpt>
      <trkpt lat="43.746160" lon="4.851450">
        <ele>308.81</ele>
        <time>2021-05-13T08:09:25Z</time>
      </trkpt>
      <trkpt lat="43.746240" lon="4.851510">
        <ele>308.8</ele>
        <time>2021-05-13T08:09:34Z</time>
      </trkpt>
      <trkpt lat="43.746330" lon="4.851560">
        <ele>309.32</ele>
        <time>2021-05-13T08:09:43Z</time>
      </trkpt>
      <trkpt lat="43.746420" lon="4.851600">
        <ele>309.98</ele>
        <time>2021-05-13T08:09:51Z</time>
      </trkpt>
      <trkpt lat="43.746510" lon="4.851650">
        <ele>310.7</ele>
        <time>2021-05-13T08:09:59Z</time>
      </trkpt>
      <trkpt lat="43.746580" lon="4.851710">
        <ele>311</ele>
        <time>2021-05-13T08:10:07Z</time>
      </trkpt>
      <trkpt lat="43.746660" lon="4.851780">
        <ele>311.24</ele>
        <time>2021-05-13T08:10:16Z</time>
      </trkpt>
      <trkpt lat="43.746730" lon="4.851840">
        <ele>311.63</ele>
        <time>2021-05-13T08:10:25Z</time>
      </trkpt>
      <trkpt lat="43.746830" lon="4.851870">
        <ele>311.59</ele>
        <time>2021-05-13T08:10:35Z</time>
      </trkpt>
      <trkpt lat="43.746950" lon="4.851910">
        <ele>311.52</ele>
        <time>2021-05-13T08:10:44Z</time>
      </trkpt>
      <trkpt lat="43.747060" lon="4.851960">
        <ele>311.48</ele>
        <time>2021-05-13T08:10:53Z</time>
      </trkpt>
      <trkpt lat="43.747160" lon="4.852020">
        <ele>311.51</ele>
        <time>2021-05-13T08:11:01Z</time>
      </trkpt>
      <trkpt lat="43.747240" lon="4.852100">
        <ele>311.71</ele>
        <time>2021-05-13T08:11:10Z</time>
      </trkpt>
      <trkpt lat="43.747310" lon="4.852200">
        <ele>312.28</ele>
        <time>2021-05-13T08:11:19Z</time>
      </trkpt>
      <trkpt lat="43.747360" lon="4.852330">
        <ele>312.41</ele>
        <time>2021-05-13T08:11:27Z</time>
      </trkpt>
      <trkpt lat="43.747400" lon="4.852430">
        <ele>312.44</ele>
        <time>2021-05-13T08:11:35Z</time>
      </trkpt>
      <trkpt lat="43.747450" lon="4.852550">
        <ele>312.63</ele>
        <time>2021-05-13T08:11:44Z</time>
      </trkpt>
      <trkpt lat="43.747540" lon="4.852630">
        <ele>312.45</ele>
        <time>2021-05-13T08:11:53Z</time>
      </trkpt>
      <trkpt lat="43.747620" lon="4.852690">
        <ele>312.62</ele>
        <time>2021-05-13T08:12:01Z</time>
      </trkpt>
      <trkpt lat="43.747710" lon="4.852740">
        <ele>312.64</ele>
        <time>2021-05-13T08:12:09Z</time>
      </trkpt>
      <trkpt lat="43.747810" lon="4.852790">
        <ele>312.61</ele>
        <time>2021-05-13T08:12:17Z</time>
      </trkpt>
      <trkpt lat="43.747900" lon="4.852840">
        <ele>312.01</ele>
        <time>2021-05-13T08:12:25Z</time>
      </trkpt>
      <trkpt lat="43.747980" lon="4.852910">
        <ele>311.85</ele>
        <time>2021-05-13T08:12:33Z</time>
      </trkpt>
      <trkpt lat="43.748060" lon="4.852970">
        <ele>311.77</ele>
        <time>2021-05-13T08:12:41Z</time>
      </trkpt>
      <trkpt lat="43.748160" lon="4.853040">
        <ele>311.69</ele>
        <time>2021-05-13T08:12:50Z</time>
      </trkpt>
      <trkpt lat="43.748250" lon="4.853100">
        <ele>311.61</ele>
        <time>2021-05-13T08:12:58Z</time>
      </trkpt>
      <trkpt lat="43.748340" lon="4.853150">
        <ele>311.75</ele>
        <time>2021-05-13T08:13:06Z</time>
      </trkpt>
      <trkpt lat="43.748450" lon="4.853170">
        <ele>311.76</ele>
        <time>2021-05-13T08:13:14Z</time>
      </trkpt>
      <trkpt lat="43.748540" lon="4.853200">
        <ele>311.8</ele>
        <time>2021-05-13T08:13:22Z</time>
      </trkpt>
      <trkpt lat="43.748640" lon="4.853220">
        <ele>311.81</ele>
        <time>2021-05-13T08:13:31Z</time>
      </trkpt>
      <trkpt lat="43.748730" lon="4.853240">
        <ele>311.74</ele>
        <time>2021-05-13T08:13:39Z</time>
      </trkpt>
      <trkpt lat="43.748850" lon="4.853240">
        <ele>311.54</ele>
        <time>2021-05-13T08:13:47Z</time>
      </trkpt>
      <trkpt lat="43.748950" lon="4.853190">
        <ele>311.56</ele>
        <time>2021-05-13T08:13:57Z</time>
      </trkpt>
      <trkpt lat="43.748880" lon="4.853180">
        <ele>312.38</ele>
        <time>2021-05-13T08:14:40Z</time>
      </trkpt>
      <trkpt lat="43.748860" lon="4.853290">
        <ele>311.52</ele>
        <time>2021-05-13T08:14:57Z</time>
      </trkpt>
      <trkpt lat="43.748870" lon="4.853440">
        <ele>311.46</ele>
        <time>2021-05-13T08:15:07Z</time>
      </trkpt>
      <trkpt lat="43.748920" lon="4.853570">
        <ele>311.5</ele>
        <time>2021-05-13T08:15:17Z</time>
      </trkpt>
      <trkpt lat="43.748920" lon="4.853710">
        <ele>313.64</ele>
        <time>2021-05-13T08:15:29Z</time>
      </trkpt>
      <trkpt lat="43.748920" lon="4.853840">
        <ele>315.95</ele>
        <time>2021-05-13T08:15:41Z</time>
      </trkpt>
      <trkpt lat="43.748920" lon="4.853970">
        <ele>317.76</ele>
        <time>2021-05-13T08:15:52Z</time>
      </trkpt>
      <trkpt lat="43.748950" lon="4.854100">
        <ele>318.55</ele>
        <time>2021-05-13T08:16:02Z</time>
      </trkpt>
      <trkpt lat="43.748990" lon="4.854220">
        <ele>320.3</ele>
        <time>2021-05-13T08:16:11Z</time>
      </trkpt>
      <trkpt lat="43.749020" lon="4.854340">
        <ele>320.54</ele>
        <time>2021-05-13T08:16:21Z</time>
      </trkpt>
      <trkpt lat="43.749050" lon="4.854460">
        <ele>319.07</ele>
        <time>2021-05-13T08:16:51Z</time>
      </trkpt>
      <trkpt lat="43.749090" lon="4.854580">
        <ele>320.38</ele>
        <time>2021-05-13T08:17:02Z</time>
      </trkpt>
      <trkpt lat="43.749100" lon="4.854720">
        <ele>320.53</ele>
        <time>2021-05-13T08:17:10Z</time>
      </trkpt>
      <trkpt lat="43.749160" lon="4.854840">
        <ele>320.53</ele>
        <time>2021-05-13T08:17:20Z</time>
      </trkpt>
      <trkpt lat="43.749230" lon="4.854960">
        <ele>320.04</ele>
        <time>2021-05-13T08:17:31Z</time>
      </trkpt>
      <trkpt lat="43.749310" lon="4.854890">
        <ele>320.31</ele>
        <time>2021-05-13T08:17:50Z</time>
      </trkpt>
      <trkpt lat="43.749360" lon="4.854780">
        <ele>321.26</ele>
        <time>2021-05-13T08:17:58Z</time>
      </trkpt>
      <trkpt lat="43.749470" lon="4.854730">
        <ele>321.48</ele>
        <time>2021-05-13T08:18:07Z</time>
      </trkpt>
      <trkpt lat="43.749560" lon="4.854780">
        <ele>321.58</ele>
        <time>2021-05-13T08:18:15Z</time>
      </trkpt>
      <trkpt lat="43.749670" lon="4.854830">
        <ele>321.67</ele>
        <time>2021-05-13T08:18:24Z</time>
      </trkpt>
      <trkpt lat="43.749760" lon="4.854900">
        <ele>321.78</ele>
        <time>2021-05-13T08:18:32Z</time>
      </trkpt>
      <trkpt lat="43.749840" lon="4.854960">
        <ele>321.96</ele>
        <time>2021-05-13T08:18:41Z</time>
      </trkpt>
      <trkpt lat="43.749920" lon="4.855030">
        <ele>323.52</ele>
        <time>2021-05-13T08:18:51Z</time>
      </trkpt>
      <trkpt lat="43.749980" lon="4.855160">
        <ele>323.16</ele>
        <time>2021-05-13T08:19:10Z</time>
      </trkpt>
      <trkpt lat="43.750010" lon="4.855300">
        <ele>324.45</ele>
        <time>2021-05-13T08:19:26Z</time>
      </trkpt>
      <trkpt lat="43.750050" lon="4.855460">
        <ele>325.94</ele>
        <time>2021-05-13T08:19:36Z</time>
      </trkpt>
      <trkpt lat="43.750060" lon="4.855630">
        <ele>327.23</ele>
        <time>2021-05-13T08:19:47Z</time>
      </trkpt>
      <trkpt lat="43.750090" lon="4.855760">
        <ele>326.83</ele>
        <time>2021-05-13T08:19:56Z</time>
      </trkpt>
      <trkpt lat="43.750110" lon="4.855890">
        <ele>326.16</ele>
        <time>2021-05-13T08:20:05Z</time>
      </trkpt>
      <trkpt lat="43.750130" lon="4.856030">
        <ele>325.68</ele>
        <time>2021-05-13T08:20:14Z</time>
      </trkpt>
      <trkpt lat="43.750160" lon="4.856160">
        <ele>325.76</ele>
        <time>2021-05-13T08:20:24Z</time>
      </trkpt>
      <trkpt lat="43.750190" lon="4.856300">
        <ele>325.8</ele>
        <time>2021-05-13T08:20:33Z</time>
      </trkpt>
      <trkpt lat="43.750190" lon="4.856410">
        <ele>324.95</ele>
        <time>2021-05-13T08:20:50Z</time>
      </trkpt>
      <trkpt lat="43.750230" lon="4.856540">
        <ele>324.12</ele>
        <time>2021-05-13T08:21:02Z</time>
      </trkpt>
      <trkpt lat="43.750260" lon="4.856670">
        <ele>323.94</ele>
        <time>2021-05-13T08:21:10Z</time>
      </trkpt>
      <trkpt lat="43.750310" lon="4.856790">
        <ele>323.2</ele>
        <time>2021-05-13T08:21:22Z</time>
      </trkpt>
      <trkpt lat="43.750380" lon="4.856910">
        <ele>322.51</ele>
        <time>2021-05-13T08:21:31Z</time>
      </trkpt>
      <trkpt lat="43.750440" lon="4.857030">
        <ele>322.17</ele>
        <time>2021-05-13T08:21:39Z</time>
      </trkpt>
      <trkpt lat="43.750490" lon="4.857150">
        <ele>321.65</ele>
        <time>2021-05-13T08:21:47Z</time>
      </trkpt>
      <trkpt lat="43.750530" lon="4.857260">
        <ele>321.32</ele>
        <time>2021-05-13T08:21:55Z</time>
      </trkpt>
      <trkpt lat="43.750600" lon="4.857370">
        <ele>321.06</ele>
        <time>2021-05-13T08:22:04Z</time>
      </trkpt>
      <trkpt lat="43.750680" lon="4.857430">
        <ele>320.24</ele>
        <time>2021-05-13T08:22:12Z</time>
      </trkpt>
      <trkpt lat="43.750790" lon="4.857460">
        <ele>319.07</ele>
        <time>2021-05-13T08:22:20Z</time>
      </trkpt>
      <trkpt lat="43.750870" lon="4.857510">
        <ele>318.11</ele>
        <time>2021-05-13T08:22:28Z</time>
      </trkpt>
      <trkpt lat="43.750930" lon="4.857600">
        <ele>317.51</ele>
        <time>2021-05-13T08:22:38Z</time>
      </trkpt>
      <trkpt lat="43.750990" lon="4.857720">
        <ele>317.51</ele>
        <time>2021-05-13T08:22:46Z</time>
      </trkpt>
      <trkpt lat="43.751060" lon="4.857810">
        <ele>317.76</ele>
        <time>2021-05-13T08:22:54Z</time>
      </trkpt>
      <trkpt lat="43.751130" lon="4.857920">
        <ele>317.67</ele>
        <time>2021-05-13T08:23:16Z</time>
      </trkpt>
      <trkpt lat="43.751200" lon="4.858010">
        <ele>317.5</ele>
        <time>2021-05-13T08:23:26Z</time>
      </trkpt>
      <trkpt lat="43.751280" lon="4.858130">
        <ele>317.79</ele>
        <time>2021-05-13T08:23:36Z</time>
      </trkpt>
      <trkpt lat="43.751350" lon="4.858250">
        <ele>317.87</ele>
        <time>2021-05-13T08:23:46Z</time>
      </trkpt>
      <trkpt lat="43.751420" lon="4.858370">
        <ele>317.71</ele>
        <time>2021-05-13T08:23:55Z</time>
      </trkpt>
      <trkpt lat="43.751500" lon="4.858470">
        <ele>317.47</ele>
        <time>2021-05-13T08:24:03Z</time>
      </trkpt>
      <trkpt lat="43.751580" lon="4.858570">
        <ele>317.01</ele>
        <time>2021-05-13T08:24:11Z</time>
      </trkpt>
      <trkpt lat="43.751660" lon="4.858640">
        <ele>316.53</ele>
        <time>2021-05-13T08:24:19Z</time>
      </trkpt>
      <trkpt lat="43.751740" lon="4.858730">
        <ele>316.16</ele>
        <time>2021-05-13T08:24:28Z</time>
      </trkpt>
      <trkpt lat="43.751830" lon="4.858800">
        <ele>316.31</ele>
        <time>2021-05-13T08:24:36Z</time>
      </trkpt>
      <trkpt lat="43.751920" lon="4.858860">
        <ele>317.26</ele>
        <time>2021-05-13T08:24:44Z</time>
      </trkpt>
      <trkpt lat="43.751980" lon="4.858960">
        <ele>318.39</ele>
        <time>2021-05-13T08:24:52Z</time>
      </trkpt>
      <trkpt lat="43.752030" lon="4.859080">
        <ele>319.6</ele>
        <time>2021-05-13T08:25:01Z</time>
      </trkpt>
      <trkpt lat="43.752080" lon="4.859190">
        <ele>320.7</ele>
        <time>2021-05-13T08:25:09Z</time>
      </trkpt>
      <trkpt lat="43.752150" lon="4.859290">
        <ele>321.09</ele>
        <time>2021-05-13T08:25:17Z</time>
      </trkpt>
      <trkpt lat="43.752220" lon="4.859390">
        <ele>320.76</ele>
        <time>2021-05-13T08:25:25Z</time>
      </trkpt>
      <trkpt lat="43.752290" lon="4.859470">
        <ele>320.11</ele>
        <time>2021-05-13T08:25:33Z</time>
      </trkpt>
      <trkpt lat="43.752370" lon="4.859560">
        <ele>319.76</ele>
        <time>2021-05-13T08:25:41Z</time>
      </trkpt>
      <trkpt lat="43.752460" lon="4.859640">
        <ele>319.76</ele>
        <time>2021-05-13T08:25:49Z</time>
      </trkpt>
      <trkpt lat="43.752540" lon="4.859710">
        <ele>319.98</ele>
        <time>2021-05-13T08:25:57Z</time>
      </trkpt>
      <trkpt lat="43.752610" lon="4.859810">
        <ele>319.94</ele>
        <time>2021-05-13T08:26:05Z</time>
      </trkpt>
      <trkpt lat="43.752660" lon="4.859930">
        <ele>319.61</ele>
        <time>2021-05-13T08:26:14Z</time>
      </trkpt>
      <trkpt lat="43.752720" lon="4.860040">
        <ele>319.68</ele>
        <time>2021-05-13T08:26:22Z</time>
      </trkpt>
      <trkpt lat="43.752780" lon="4.860150">
        <ele>320.53</ele>
        <time>2021-05-13T08:26:30Z</time>
      </trkpt>
      <trkpt lat="43.752840" lon="4.860260">
        <ele>320.94</ele>
        <time>2021-05-13T08:26:38Z</time>
      </trkpt>
      <trkpt lat="43.752920" lon="4.860350">
        <ele>321.51</ele>
        <time>2021-05-13T08:26:46Z</time>
      </trkpt>
      <trkpt lat="43.752990" lon="4.860500">
        <ele>321.82</ele>
        <time>2021-05-13T08:26:54Z</time>
      </trkpt>
      <trkpt lat="43.753070" lon="4.860580">
        <ele>321.97</ele>
        <time>2021-05-13T08:27:01Z</time>
      </trkpt>
      <trkpt lat="43.753160" lon="4.860640">
        <ele>322.86</ele>
        <time>2021-05-13T08:27:13Z</time>
      </trkpt>
      <trkpt lat="43.753250" lon="4.860670">
        <ele>322.89</ele>
        <time>2021-05-13T08:27:20Z</time>
      </trkpt>
      <trkpt lat="43.753360" lon="4.860720">
        <ele>323.49</ele>
        <time>2021-05-13T08:27:29Z</time>
      </trkpt>
      <trkpt lat="43.753400" lon="4.860860">
        <ele>325</ele>
        <time>2021-05-13T08:27:38Z</time>
      </trkpt>
      <trkpt lat="43.753330" lon="4.861060">
        <ele>324.16</ele>
        <time>2021-05-13T08:27:52Z</time>
      </trkpt>
      <trkpt lat="43.753310" lon="4.861200">
        <ele>323.75</ele>
        <time>2021-05-13T08:28:01Z</time>
      </trkpt>
      <trkpt lat="43.753310" lon="4.861370">
        <ele>324.13</ele>
        <time>2021-05-13T08:28:11Z</time>
      </trkpt>
      <trkpt lat="43.753370" lon="4.861490">
        <ele>324.25</ele>
        <time>2021-05-13T08:28:18Z</time>
      </trkpt>
      <trkpt lat="43.753460" lon="4.861530">
        <ele>324.57</ele>
        <time>2021-05-13T08:28:27Z</time>
      </trkpt>
      <trkpt lat="43.753550" lon="4.861520">
        <ele>324.57</ele>
        <time>2021-05-13T08:28:36Z</time>
      </trkpt>
      <trkpt lat="43.753640" lon="4.861510">
        <ele>323.9</ele>
        <time>2021-05-13T08:28:44Z</time>
      </trkpt>
      <trkpt lat="43.753740" lon="4.861460">
        <ele>323.09</ele>
        <time>2021-05-13T08:28:53Z</time>
      </trkpt>
      <trkpt lat="43.753840" lon="4.861480">
        <ele>322.56</ele>
        <time>2021-05-13T08:29:00Z</time>
      </trkpt>
      <trkpt lat="43.753880" lon="4.861600">
        <ele>321.98</ele>
        <time>2021-05-13T08:29:08Z</time>
      </trkpt>
      <trkpt lat="43.753920" lon="4.861730">
        <ele>321.62</ele>
        <time>2021-05-13T08:29:16Z</time>
      </trkpt>
      <trkpt lat="43.754010" lon="4.861800">
        <ele>321.67</ele>
        <time>2021-05-13T08:29:25Z</time>
      </trkpt>
      <trkpt lat="43.754100" lon="4.861810">
        <ele>321.81</ele>
        <time>2021-05-13T08:29:33Z</time>
      </trkpt>
      <trkpt lat="43.754190" lon="4.861820">
        <ele>320.86</ele>
        <time>2021-05-13T08:29:41Z</time>
      </trkpt>
      <trkpt lat="43.754300" lon="4.861840">
        <ele>320.43</ele>
        <time>2021-05-13T08:29:50Z</time>
      </trkpt>
      <trkpt lat="43.754390" lon="4.861890">
        <ele>320.2</ele>
        <time>2021-05-13T08:29:57Z</time>
      </trkpt>
      <trkpt lat="43.754480" lon="4.861960">
        <ele>319.76</ele>
        <time>2021-05-13T08:30:04Z</time>
      </trkpt>
      <trkpt lat="43.754570" lon="4.862020">
        <ele>318.08</ele>
        <time>2021-05-13T08:30:33Z</time>
      </trkpt>
      <trkpt lat="43.754650" lon="4.861930">
        <ele>318.32</ele>
        <time>2021-05-13T08:30:43Z</time>
      </trkpt>
      <trkpt lat="43.754720" lon="4.861840">
        <ele>318.31</ele>
        <time>2021-05-13T08:30:51Z</time>
      </trkpt>
      <trkpt lat="43.754790" lon="4.861760">
        <ele>320.12</ele>
        <time>2021-05-13T08:31:08Z</time>
      </trkpt>
      <trkpt lat="43.754900" lon="4.861740">
        <ele>320.81</ele>
        <time>2021-05-13T08:31:19Z</time>
      </trkpt>
      <trkpt lat="43.755000" lon="4.861800">
        <ele>320.57</ele>
        <time>2021-05-13T08:31:27Z</time>
      </trkpt>
      <trkpt lat="43.755100" lon="4.861870">
        <ele>319.4</ele>
        <time>2021-05-13T08:31:35Z</time>
      </trkpt>
      <trkpt lat="43.755190" lon="4.861850">
        <ele>318.79</ele>
        <time>2021-05-13T08:31:43Z</time>
      </trkpt>
      <trkpt lat="43.755230" lon="4.861730">
        <ele>317.19</ele>
        <time>2021-05-13T08:31:51Z</time>
      </trkpt>
      <trkpt lat="43.755210" lon="4.861600">
        <ele>316.58</ele>
        <time>2021-05-13T08:32:00Z</time>
      </trkpt>
      <trkpt lat="43.755180" lon="4.861460">
        <ele>315.51</ele>
        <time>2021-05-13T08:32:08Z</time>
      </trkpt>
      <trkpt lat="43.755130" lon="4.861300">
        <ele>314.35</ele>
        <time>2021-05-13T08:32:17Z</time>
      </trkpt>
      <trkpt lat="43.755090" lon="4.861170">
        <ele>312.92</ele>
        <time>2021-05-13T08:32:25Z</time>
      </trkpt>
      <trkpt lat="43.755030" lon="4.861070">
        <ele>311.21</ele>
        <time>2021-05-13T08:32:55Z</time>
      </trkpt>
      <trkpt lat="43.754990" lon="4.860950">
        <ele>311.05</ele>
        <time>2021-05-13T08:33:02Z</time>
      </trkpt>
      <trkpt lat="43.755010" lon="4.860840">
        <ele>310.6</ele>
        <time>2021-05-13T08:33:09Z</time>
      </trkpt>
      <trkpt lat="43.755100" lon="4.860800">
        <ele>309.84</ele>
        <time>2021-05-13T08:33:18Z</time>
      </trkpt>
      <trkpt lat="43.755170" lon="4.860890">
        <ele>309.28</ele>
        <time>2021-05-13T08:33:25Z</time>
      </trkpt>
      <trkpt lat="43.755260" lon="4.860950">
        <ele>308.3</ele>
        <time>2021-05-13T08:33:33Z</time>
      </trkpt>
      <trkpt lat="43.755410" lon="4.861030">
        <ele>307.12</ele>
        <time>2021-05-13T08:33:47Z</time>
      </trkpt>
      <trkpt lat="43.755560" lon="4.861000">
        <ele>306.85</ele>
        <time>2021-05-13T08:33:55Z</time>
      </trkpt>
      <trkpt lat="43.755650" lon="4.860970">
        <ele>305.86</ele>
        <time>2021-05-13T08:34:03Z</time>
      </trkpt>
      <trkpt lat="43.755730" lon="4.860910">
        <ele>304.42</ele>
        <time>2021-05-13T08:34:11Z</time>
      </trkpt>
      <trkpt lat="43.755810" lon="4.860850">
        <ele>303.5</ele>
        <time>2021-05-13T08:34:18Z</time>
      </trkpt>
      <trkpt lat="43.755850" lon="4.860760">
        <ele>301.88</ele>
        <time>2021-05-13T08:34:27Z</time>
      </trkpt>
      <trkpt lat="43.755860" lon="4.860620">
        <ele>300.96</ele>
        <time>2021-05-13T08:34:34Z</time>
      </trkpt>
      <trkpt lat="43.755860" lon="4.860490">
        <ele>300</ele>
        <time>2021-05-13T08:34:43Z</time>
      </trkpt>
      <trkpt lat="43.755840" lon="4.860360">
        <ele>298.71</ele>
        <time>2021-05-13T08:34:51Z</time>
      </trkpt>
      <trkpt lat="43.755820" lon="4.860230">
        <ele>296.89</ele>
        <time>2021-05-13T08:34:59Z</time>
      </trkpt>
      <trkpt lat="43.755800" lon="4.860090">
        <ele>295.87</ele>
        <time>2021-05-13T08:35:07Z</time>
      </trkpt>
      <trkpt lat="43.755790" lon="4.859950">
        <ele>294.82</ele>
        <time>2021-05-13T08:35:15Z</time>
      </trkpt>
      <trkpt lat="43.755770" lon="4.859820">
        <ele>293.44</ele>
        <time>2021-05-13T08:35:23Z</time>
      </trkpt>
      <trkpt lat="43.755760" lon="4.859670">
        <ele>292.45</ele>
        <time>2021-05-13T08:35:31Z</time>
      </trkpt>
      <trkpt lat="43.755800" lon="4.859520">
        <ele>291.91</ele>
        <time>2021-05-13T08:35:39Z</time>
      </trkpt>
      <trkpt lat="43.755840" lon="4.859370">
        <ele>291.17</ele>
        <time>2021-05-13T08:35:48Z</time>
      </trkpt>
      <trkpt lat="43.755850" lon="4.859220">
        <ele>290.23</ele>
        <time>2021-05-13T08:35:57Z</time>
      </trkpt>
      <trkpt lat="43.755740" lon="4.859140">
        <ele>289.79</ele>
        <time>2021-05-13T08:36:07Z</time>
      </trkpt>
      <trkpt lat="43.755620" lon="4.859150">
        <ele>289.39</ele>
        <time>2021-05-13T08:36:18Z</time>
      </trkpt>
      <trkpt lat="43.755420" lon="4.859030">
        <ele>289.4</ele>
        <time>2021-05-13T08:36:36Z</time>
      </trkpt>
      <trkpt lat="43.755280" lon="4.858920">
        <ele>289.36</ele>
        <time>2021-05-13T08:36:49Z</time>
      </trkpt>
      <trkpt lat="43.755210" lon="4.858780">
        <ele>288.79</ele>
        <time>2021-05-13T08:36:59Z</time>
      </trkpt>
      <trkpt lat="43.755130" lon="4.858630">
        <ele>287.84</ele>
        <time>2021-05-13T08:37:08Z</time>
      </trkpt>
      <trkpt lat="43.755070" lon="4.858520">
        <ele>287.17</ele>
        <time>2021-05-13T08:37:16Z</time>
      </trkpt>
      <trkpt lat="43.755060" lon="4.858380">
        <ele>286.25</ele>
        <time>2021-05-13T08:37:24Z</time>
      </trkpt>
      <trkpt lat="43.755030" lon="4.858200">
        <ele>284.88</ele>
        <time>2021-05-13T08:37:33Z</time>
      </trkpt>
      <trkpt lat="43.754980" lon="4.858070">
        <ele>283.72</ele>
        <time>2021-05-13T08:37:42Z</time>
      </trkpt>
      <trkpt lat="43.754970" lon="4.857860">
        <ele>282.61</ele>
        <time>2021-05-13T08:37:53Z</time>
      </trkpt>
      <trkpt lat="43.754990" lon="4.857700">
        <ele>281.94</ele>
        <time>2021-05-13T08:38:02Z</time>
      </trkpt>
      <trkpt lat="43.754960" lon="4.857560">
        <ele>281.07</ele>
        <time>2021-05-13T08:38:10Z</time>
      </trkpt>
      <trkpt lat="43.754920" lon="4.857420">
        <ele>279.54</ele>
        <time>2021-05-13T08:38:20Z</time>
      </trkpt>
      <trkpt lat="43.754880" lon="4.857250">
        <ele>278.17</ele>
        <time>2021-05-13T08:38:29Z</time>
      </trkpt>
      <trkpt lat="43.754830" lon="4.857120">
        <ele>276.24</ele>
        <time>2021-05-13T08:38:38Z</time>
      </trkpt>
      <trkpt lat="43.754770" lon="4.856990">
        <ele>274.08</ele>
        <time>2021-05-13T08:38:47Z</time>
      </trkpt>
      <trkpt lat="43.754710" lon="4.856870">
        <ele>272.35</ele>
        <time>2021-05-13T08:38:58Z</time>
      </trkpt>
      <trkpt lat="43.754650" lon="4.856740">
        <ele>271.27</ele>
        <time>2021-05-13T08:39:08Z</time>
      </trkpt>
      <trkpt lat="43.754590" lon="4.856640">
        <ele>270.58</ele>
        <time>2021-05-13T08:39:17Z</time>
      </trkpt>
      <trkpt lat="43.754540" lon="4.856520">
        <ele>270.01</ele>
        <time>2021-05-13T08:39:27Z</time>
      </trkpt>
      <trkpt lat="43.754630" lon="4.856500">
        <ele>267.55</ele>
        <time>2021-05-13T08:39:39Z</time>
      </trkpt>
      <trkpt lat="43.754730" lon="4.856590">
        <ele>266.43</ele>
        <time>2021-05-13T08:39:48Z</time>
      </trkpt>
      <trkpt lat="43.754800" lon="4.856720">
        <ele>266.23</ele>
        <time>2021-05-13T08:39:59Z</time>
      </trkpt>
      <trkpt lat="43.754920" lon="4.856760">
        <ele>265.19</ele>
        <time>2021-05-13T08:40:10Z</time>
      </trkpt>
      <trkpt lat="43.755000" lon="4.856680">
        <ele>265</ele>
        <time>2021-05-13T08:40:19Z</time>
      </trkpt>
      <trkpt lat="43.755050" lon="4.856550">
        <ele>264.19</ele>
        <time>2021-05-13T08:40:28Z</time>
      </trkpt>
      <trkpt lat="43.755050" lon="4.856420">
        <ele>263.31</ele>
        <time>2021-05-13T08:40:38Z</time>
      </trkpt>
      <trkpt lat="43.754990" lon="4.856330">
        <ele>261.73</ele>
        <time>2021-05-13T08:40:52Z</time>
      </trkpt>
      <trkpt lat="43.755000" lon="4.856270">
        <ele>259.69</ele>
        <time>2021-05-13T08:41:28Z</time>
      </trkpt>
      <trkpt lat="43.754980" lon="4.856100">
        <ele>259.75</ele>
        <time>2021-05-13T08:41:45Z</time>
      </trkpt>
      <trkpt lat="43.754960" lon="4.855950">
        <ele>258.75</ele>
        <time>2021-05-13T08:41:59Z</time>
      </trkpt>
      <trkpt lat="43.754920" lon="4.855810">
        <ele>257.88</ele>
        <time>2021-05-13T08:42:09Z</time>
      </trkpt>
      <trkpt lat="43.754890" lon="4.855770">
        <ele>257.2</ele>
        <time>2021-05-13T08:42:42Z</time>
      </trkpt>
      <trkpt lat="43.754960" lon="4.855800">
        <ele>257.14</ele>
        <time>2021-05-13T08:43:10Z</time>
      </trkpt>
      <trkpt lat="43.754960" lon="4.855690">
        <ele>257.13</ele>
        <time>2021-05-13T08:43:27Z</time>
      </trkpt>
      <trkpt lat="43.754970" lon="4.855550">
        <ele>256.65</ele>
        <time>2021-05-13T08:43:37Z</time>
      </trkpt>
      <trkpt lat="43.755030" lon="4.855430">
        <ele>255.28</ele>
        <time>2021-05-13T08:43:47Z</time>
      </trkpt>
      <trkpt lat="43.755140" lon="4.855350">
        <ele>254.23</ele>
        <time>2021-05-13T08:43:56Z</time>
      </trkpt>
      <trkpt lat="43.755230" lon="4.855310">
        <ele>253.54</ele>
        <time>2021-05-13T08:44:04Z</time>
      </trkpt>
      <trkpt lat="43.755340" lon="4.855290">
        <ele>252.35</ele>
        <time>2021-05-13T08:44:13Z</time>
      </trkpt>
      <trkpt lat="43.755390" lon="4.855180">
        <ele>251.04</ele>
        <time>2021-05-13T08:44:20Z</time>
      </trkpt>
      <trkpt lat="43.755320" lon="4.855030">
        <ele>250.2</ele>
        <time>2021-05-13T08:44:28Z</time>
      </trkpt>
      <trkpt lat="43.755280" lon="4.854890">
        <ele>250.18</ele>
        <time>2021-05-13T08:44:36Z</time>
      </trkpt>
      <trkpt lat="43.755290" lon="4.854760">
        <ele>250.78</ele>
        <time>2021-05-13T08:44:44Z</time>
      </trkpt>
      <trkpt lat="43.755320" lon="4.854640">
        <ele>251.49</ele>
        <time>2021-05-13T08:44:52Z</time>
      </trkpt>
      <trkpt lat="43.755300" lon="4.854530">
        <ele>251.27</ele>
        <time>2021-05-13T08:45:00Z</time>
      </trkpt>
      <trkpt lat="43.755210" lon="4.854440">
        <ele>251.08</ele>
        <time>2021-05-13T08:45:10Z</time>
      </trkpt>
      <trkpt lat="43.755070" lon="4.854420">
        <ele>251.91</ele>
        <time>2021-05-13T08:45:22Z</time>
      </trkpt>
      <trkpt lat="43.754930" lon="4.854480">
        <ele>252.84</ele>
        <time>2021-05-13T08:45:35Z</time>
      </trkpt>
      <trkpt lat="43.754790" lon="4.854530">
        <ele>254.34</ele>
        <time>2021-05-13T08:45:49Z</time>
      </trkpt>
      <trkpt lat="43.754610" lon="4.854690">
        <ele>256.33</ele>
        <time>2021-05-13T08:46:07Z</time>
      </trkpt>
      <trkpt lat="43.754420" lon="4.854720">
        <ele>257.05</ele>
        <time>2021-05-13T08:46:18Z</time>
      </trkpt>
      <trkpt lat="43.754320" lon="4.854720">
        <ele>257.14</ele>
        <time>2021-05-13T08:46:26Z</time>
      </trkpt>
      <trkpt lat="43.754150" lon="4.854680">
        <ele>257.86</ele>
        <time>2021-05-13T08:46:41Z</time>
      </trkpt>
      <trkpt lat="43.754050" lon="4.854530">
        <ele>258.76</ele>
        <time>2021-05-13T08:46:52Z</time>
      </trkpt>
      <trkpt lat="43.754050" lon="4.854390">
        <ele>259.37</ele>
        <time>2021-05-13T08:47:02Z</time>
      </trkpt>
      <trkpt lat="43.754080" lon="4.854300">
        <ele>258.81</ele>
        <time>2021-05-13T08:47:22Z</time>
      </trkpt>
      <trkpt lat="43.754110" lon="4.854160">
        <ele>258.3</ele>
        <time>2021-05-13T08:47:31Z</time>
      </trkpt>
      <trkpt lat="43.754190" lon="4.854070">
        <ele>257.2</ele>
        <time>2021-05-13T08:47:39Z</time>
      </trkpt>
      <trkpt lat="43.754300" lon="4.854010">
        <ele>256.03</ele>
        <time>2021-05-13T08:47:48Z</time>
      </trkpt>
      <trkpt lat="43.754420" lon="4.853980">
        <ele>254.91</ele>
        <time>2021-05-13T08:47:57Z</time>
      </trkpt>
      <trkpt lat="43.754500" lon="4.853920">
        <ele>254.14</ele>
        <time>2021-05-13T08:48:05Z</time>
      </trkpt>
      <trkpt lat="43.754530" lon="4.853770">
        <ele>253.29</ele>
        <time>2021-05-13T08:48:13Z</time>
      </trkpt>
      <trkpt lat="43.754490" lon="4.853640">
        <ele>252.76</ele>
        <time>2021-05-13T08:48:21Z</time>
      </trkpt>
      <trkpt lat="43.754450" lon="4.853510">
        <ele>251.92</ele>
        <time>2021-05-13T08:48:29Z</time>
      </trkpt>
      <trkpt lat="43.754420" lon="4.853370">
        <ele>251.2</ele>
        <time>2021-05-13T08:48:37Z</time>
      </trkpt>
      <trkpt lat="43.754390" lon="4.853240">
        <ele>250.51</ele>
        <time>2021-05-13T08:48:50Z</time>
      </trkpt>
      <trkpt lat="43.754410" lon="4.853080">
        <ele>250.29</ele>
        <time>2021-05-13T08:49:02Z</time>
      </trkpt>
      <trkpt lat="43.754450" lon="4.852940">
        <ele>249.92</ele>
        <time>2021-05-13T08:49:11Z</time>
      </trkpt>
      <trkpt lat="43.754470" lon="4.852780">
        <ele>249.15</ele>
        <time>2021-05-13T08:49:19Z</time>
      </trkpt>
      <trkpt lat="43.754510" lon="4.852640">
        <ele>247.45</ele>
        <time>2021-05-13T08:49:28Z</time>
      </trkpt>
      <trkpt lat="43.754510" lon="4.852520">
        <ele>246.66</ele>
        <time>2021-05-13T08:49:35Z</time>
      </trkpt>
      <trkpt lat="43.754500" lon="4.852310">
        <ele>245.25</ele>
        <time>2021-05-13T08:49:47Z</time>
      </trkpt>
      <trkpt lat="43.754490" lon="4.852170">
        <ele>245.2</ele>
        <time>2021-05-13T08:49:54Z</time>
      </trkpt>
      <trkpt lat="43.754500" lon="4.852050">
        <ele>245.77</ele>
        <time>2021-05-13T08:50:03Z</time>
      </trkpt>
      <trkpt lat="43.754500" lon="4.851920">
        <ele>246.23</ele>
        <time>2021-05-13T08:50:10Z</time>
      </trkpt>
      <trkpt lat="43.754500" lon="4.851760">
        <ele>246.12</ele>
        <time>2021-05-13T08:50:19Z</time>
      </trkpt>
      <trkpt lat="43.754520" lon="4.851620">
        <ele>245.75</ele>
        <time>2021-05-13T08:50:26Z</time>
      </trkpt>
      <trkpt lat="43.754500" lon="4.851460">
        <ele>244.8</ele>
        <time>2021-05-13T08:50:34Z</time>
      </trkpt>
      <trkpt lat="43.754480" lon="4.851320">
        <ele>244.51</ele>
        <time>2021-05-13T08:50:42Z</time>
      </trkpt>
      <trkpt lat="43.754440" lon="4.851190">
        <ele>244.86</ele>
        <time>2021-05-13T08:50:56Z</time>
      </trkpt>
      <trkpt lat="43.754420" lon="4.851090">
        <ele>244.87</ele>
        <time>2021-05-13T08:51:14Z</time>
      </trkpt>
      <trkpt lat="43.754410" lon="4.850940">
        <ele>245.14</ele>
        <time>2021-05-13T08:51:27Z</time>
      </trkpt>
      <trkpt lat="43.754390" lon="4.850810">
        <ele>245.11</ele>
        <time>2021-05-13T08:51:38Z</time>
      </trkpt>
      <trkpt lat="43.754410" lon="4.850660">
        <ele>245.17</ele>
        <time>2021-05-13T08:51:54Z</time>
      </trkpt>
      <trkpt lat="43.754430" lon="4.850520">
        <ele>245.63</ele>
        <time>2021-05-13T08:52:02Z</time>
      </trkpt>
      <trkpt lat="43.754440" lon="4.850380">
        <ele>245.8</ele>
        <time>2021-05-13T08:52:10Z</time>
      </trkpt>
      <trkpt lat="43.754450" lon="4.850240">
        <ele>245.98</ele>
        <time>2021-05-13T08:52:18Z</time>
      </trkpt>
      <trkpt lat="43.754470" lon="4.850110">
        <ele>246.2</ele>
        <time>2021-05-13T08:52:26Z</time>
      </trkpt>
      <trkpt lat="43.754520" lon="4.849980">
        <ele>246.47</ele>
        <time>2021-05-13T08:52:34Z</time>
      </trkpt>
      <trkpt lat="43.754530" lon="4.849850">
        <ele>246.73</ele>
        <time>2021-05-13T08:52:42Z</time>
      </trkpt>
      <trkpt lat="43.754540" lon="4.849720">
        <ele>246.3</ele>
        <time>2021-05-13T08:52:50Z</time>
      </trkpt>
      <trkpt lat="43.754560" lon="4.849490">
        <ele>247.35</ele>
        <time>2021-05-13T08:53:03Z</time>
      </trkpt>
      <trkpt lat="43.754660" lon="4.849360">
        <ele>247.75</ele>
        <time>2021-05-13T08:53:11Z</time>
      </trkpt>
      <trkpt lat="43.754720" lon="4.849250">
        <ele>248.7</ele>
        <time>2021-05-13T08:53:20Z</time>
      </trkpt>
      <trkpt lat="43.754790" lon="4.849150">
        <ele>248.54</ele>
        <time>2021-05-13T08:53:29Z</time>
      </trkpt>
      <trkpt lat="43.754850" lon="4.849050">
        <ele>247.15</ele>
        <time>2021-05-13T08:53:37Z</time>
      </trkpt>
      <trkpt lat="43.754930" lon="4.848910">
        <ele>244.96</ele>
        <time>2021-05-13T08:53:47Z</time>
      </trkpt>
      <trkpt lat="43.755040" lon="4.848810">
        <ele>245.34</ele>
        <time>2021-05-13T08:53:56Z</time>
      </trkpt>
      <trkpt lat="43.755110" lon="4.848730">
        <ele>245.49</ele>
        <time>2021-05-13T08:54:04Z</time>
      </trkpt>
      <trkpt lat="43.755180" lon="4.848640">
        <ele>245.19</ele>
        <time>2021-05-13T08:54:12Z</time>
      </trkpt>
      <trkpt lat="43.755250" lon="4.848540">
        <ele>244.59</ele>
        <time>2021-05-13T08:54:19Z</time>
      </trkpt>
      <trkpt lat="43.755300" lon="4.848420">
        <ele>244.2</ele>
        <time>2021-05-13T08:54:27Z</time>
      </trkpt>
      <trkpt lat="43.755370" lon="4.848280">
        <ele>242</ele>
        <time>2021-05-13T08:54:36Z</time>
      </trkpt>
      <trkpt lat="43.755400" lon="4.848150">
        <ele>241.75</ele>
        <time>2021-05-13T08:54:44Z</time>
      </trkpt>
      <trkpt lat="43.755400" lon="4.848030">
        <ele>239.87</ele>
        <time>2021-05-13T08:54:52Z</time>
      </trkpt>
      <trkpt lat="43.755450" lon="4.847880">
        <ele>239.13</ele>
        <time>2021-05-13T08:55:00Z</time>
      </trkpt>
      <trkpt lat="43.755560" lon="4.847830">
        <ele>237.01</ele>
        <time>2021-05-13T08:55:11Z</time>
      </trkpt>
      <trkpt lat="43.755630" lon="4.847770">
        <ele>235.77</ele>
        <time>2021-05-13T08:55:19Z</time>
      </trkpt>
      <trkpt lat="43.755690" lon="4.847660">
        <ele>235.09</ele>
        <time>2021-05-13T08:55:26Z</time>
      </trkpt>
      <trkpt lat="43.755710" lon="4.847530">
        <ele>236.23</ele>
        <time>2021-05-13T08:55:34Z</time>
      </trkpt>
      <trkpt lat="43.755730" lon="4.847390">
        <ele>236.67</ele>
        <time>2021-05-13T08:55:41Z</time>
      </trkpt>
      <trkpt lat="43.755730" lon="4.847250">
        <ele>236.57</ele>
        <time>2021-05-13T08:55:49Z</time>
      </trkpt>
      <trkpt lat="43.755750" lon="4.847130">
        <ele>236.51</ele>
        <time>2021-05-13T08:55:56Z</time>
      </trkpt>
      <trkpt lat="43.755760" lon="4.846990">
        <ele>236.76</ele>
        <time>2021-05-13T08:56:06Z</time>
      </trkpt>
      <trkpt lat="43.755770" lon="4.846840">
        <ele>236.71</ele>
        <time>2021-05-13T08:56:14Z</time>
      </trkpt>
      <trkpt lat="43.755750" lon="4.846690">
        <ele>236.34</ele>
        <time>2021-05-13T08:56:24Z</time>
      </trkpt>
      <trkpt lat="43.755750" lon="4.846560">
        <ele>235.51</ele>
        <time>2021-05-13T08:56:32Z</time>
      </trkpt>
      <trkpt lat="43.755800" lon="4.846420">
        <ele>234.61</ele>
        <time>2021-05-13T08:56:40Z</time>
      </trkpt>
      <trkpt lat="43.755880" lon="4.846380">
        <ele>233.53</ele>
        <time>2021-05-13T08:56:50Z</time>
      </trkpt>
      <trkpt lat="43.756000" lon="4.846350">
        <ele>231.63</ele>
        <time>2021-05-13T08:57:01Z</time>
      </trkpt>
      <trkpt lat="43.756150" lon="4.846290">
        <ele>229.92</ele>
        <time>2021-05-13T08:57:11Z</time>
      </trkpt>
      <trkpt lat="43.756250" lon="4.846190">
        <ele>228.48</ele>
        <time>2021-05-13T08:57:21Z</time>
      </trkpt>
      <trkpt lat="43.756340" lon="4.846090">
        <ele>227.26</ele>
        <time>2021-05-13T08:57:29Z</time>
      </trkpt>
      <trkpt lat="43.756420" lon="4.846000">
        <ele>226.11</ele>
        <time>2021-05-13T08:57:37Z</time>
      </trkpt>
      <trkpt lat="43.756520" lon="4.845890">
        <ele>224.92</ele>
        <time>2021-05-13T08:57:48Z</time>
      </trkpt>
      <trkpt lat="43.756560" lon="4.845740">
        <ele>224.55</ele>
        <time>2021-05-13T08:57:58Z</time>
      </trkpt>
      <trkpt lat="43.756550" lon="4.845600">
        <ele>224.75</ele>
        <time>2021-05-13T08:58:07Z</time>
      </trkpt>
      <trkpt lat="43.756430" lon="4.845460">
        <ele>226.05</ele>
        <time>2021-05-13T08:58:21Z</time>
      </trkpt>
      <trkpt lat="43.756300" lon="4.845360">
        <ele>227.51</ele>
        <time>2021-05-13T08:58:34Z</time>
      </trkpt>
      <trkpt lat="43.756110" lon="4.845230">
        <ele>228.53</ele>
        <time>2021-05-13T08:58:52Z</time>
      </trkpt>
      <trkpt lat="43.755950" lon="4.845120">
        <ele>229.46</ele>
        <time>2021-05-13T08:59:08Z</time>
      </trkpt>
      <trkpt lat="43.755820" lon="4.845090">
        <ele>230.31</ele>
        <time>2021-05-13T08:59:21Z</time>
      </trkpt>
      <trkpt lat="43.755430" lon="4.845030">
        <ele>232.13</ele>
        <time>2021-05-13T08:59:51Z</time>
      </trkpt>
      <trkpt lat="43.755220" lon="4.844920">
        <ele>232.93</ele>
        <time>2021-05-13T09:00:09Z</time>
      </trkpt>
      <trkpt lat="43.755050" lon="4.844800">
        <ele>233.94</ele>
        <time>2021-05-13T09:00:25Z</time>
      </trkpt>
      <trkpt lat="43.755020" lon="4.844630">
        <ele>235.49</ele>
        <time>2021-05-13T09:00:36Z</time>
      </trkpt>
      <trkpt lat="43.755120" lon="4.844450">
        <ele>237.02</ele>
        <time>2021-05-13T09:00:48Z</time>
      </trkpt>
      <trkpt lat="43.755200" lon="4.844340">
        <ele>238.8</ele>
        <time>2021-05-13T09:00:59Z</time>
      </trkpt>
      <trkpt lat="43.755300" lon="4.844250">
        <ele>240.31</ele>
        <time>2021-05-13T09:01:09Z</time>
      </trkpt>
      <trkpt lat="43.755390" lon="4.844160">
        <ele>241.75</ele>
        <time>2021-05-13T09:01:18Z</time>
      </trkpt>
      <trkpt lat="43.755400" lon="4.844160">
        <ele>242.59</ele>
        <time>2021-05-13T09:01:59Z</time>
      </trkpt>
      <trkpt lat="43.755440" lon="4.844110">
        <ele>242.67</ele>
        <time>2021-05-13T09:02:17Z</time>
      </trkpt>
      <trkpt lat="43.755520" lon="4.844030">
        <ele>243.13</ele>
        <time>2021-05-13T09:02:27Z</time>
      </trkpt>
      <trkpt lat="43.755620" lon="4.843950">
        <ele>243.92</ele>
        <time>2021-05-13T09:02:36Z</time>
      </trkpt>
      <trkpt lat="43.755700" lon="4.843850">
        <ele>244.85</ele>
        <time>2021-05-13T09:02:45Z</time>
      </trkpt>
      <trkpt lat="43.755780" lon="4.843770">
        <ele>245.7</ele>
        <time>2021-05-13T09:02:54Z</time>
      </trkpt>
      <trkpt lat="43.755870" lon="4.843630">
        <ele>246.95</ele>
        <time>2021-05-13T09:03:04Z</time>
      </trkpt>
      <trkpt lat="43.755940" lon="4.843520">
        <ele>248.26</ele>
        <time>2021-05-13T09:03:13Z</time>
      </trkpt>
      <trkpt lat="43.756020" lon="4.843430">
        <ele>248.13</ele>
        <time>2021-05-13T09:03:23Z</time>
      </trkpt>
      <trkpt lat="43.756090" lon="4.843360">
        <ele>247.19</ele>
        <time>2021-05-13T09:03:32Z</time>
      </trkpt>
      <trkpt lat="43.756170" lon="4.843260">
        <ele>245.34</ele>
        <time>2021-05-13T09:03:42Z</time>
      </trkpt>
      <trkpt lat="43.756300" lon="4.843140">
        <ele>243.71</ele>
        <time>2021-05-13T09:03:55Z</time>
      </trkpt>
      <trkpt lat="43.756330" lon="4.843000">
        <ele>243.26</ele>
        <time>2021-05-13T09:04:04Z</time>
      </trkpt>
      <trkpt lat="43.756340" lon="4.842850">
        <ele>243.27</ele>
        <time>2021-05-13T09:04:13Z</time>
      </trkpt>
      <trkpt lat="43.756300" lon="4.842680">
        <ele>244.53</ele>
        <time>2021-05-13T09:04:23Z</time>
      </trkpt>
      <trkpt lat="43.756280" lon="4.842530">
        <ele>246.25</ele>
        <time>2021-05-13T09:04:33Z</time>
      </trkpt>
      <trkpt lat="43.756320" lon="4.842360">
        <ele>247.37</ele>
        <time>2021-05-13T09:04:42Z</time>
      </trkpt>
      <trkpt lat="43.756380" lon="4.842220">
        <ele>247.86</ele>
        <time>2021-05-13T09:04:51Z</time>
      </trkpt>
      <trkpt lat="43.756460" lon="4.842120">
        <ele>247.16</ele>
        <time>2021-05-13T09:04:59Z</time>
      </trkpt>
      <trkpt lat="43.756540" lon="4.842000">
        <ele>245.58</ele>
        <time>2021-05-13T09:05:08Z</time>
      </trkpt>
      <trkpt lat="43.756610" lon="4.841890">
        <ele>243.82</ele>
        <time>2021-05-13T09:05:16Z</time>
      </trkpt>
      <trkpt lat="43.756690" lon="4.841760">
        <ele>242.48</ele>
        <time>2021-05-13T09:05:30Z</time>
      </trkpt>
      <trkpt lat="43.756770" lon="4.841630">
        <ele>242.15</ele>
        <time>2021-05-13T09:05:39Z</time>
      </trkpt>
      <trkpt lat="43.756840" lon="4.841500">
        <ele>241.54</ele>
        <time>2021-05-13T09:05:55Z</time>
      </trkpt>
      <trkpt lat="43.756880" lon="4.841350">
        <ele>241.24</ele>
        <time>2021-05-13T09:06:03Z</time>
      </trkpt>
      <trkpt lat="43.756930" lon="4.841250">
        <ele>240.94</ele>
        <time>2021-05-13T09:06:11Z</time>
      </trkpt>
      <trkpt lat="43.757010" lon="4.841140">
        <ele>240.1</ele>
        <time>2021-05-13T09:06:19Z</time>
      </trkpt>
      <trkpt lat="43.757110" lon="4.841130">
        <ele>239.41</ele>
        <time>2021-05-13T09:06:29Z</time>
      </trkpt>
      <trkpt lat="43.757190" lon="4.841170">
        <ele>238.09</ele>
        <time>2021-05-13T09:06:37Z</time>
      </trkpt>
      <trkpt lat="43.757310" lon="4.841220">
        <ele>237.27</ele>
        <time>2021-05-13T09:06:49Z</time>
      </trkpt>
      <trkpt lat="43.757420" lon="4.841180">
        <ele>235.76</ele>
        <time>2021-05-13T09:06:59Z</time>
      </trkpt>
      <trkpt lat="43.757500" lon="4.841110">
        <ele>234.98</ele>
        <time>2021-05-13T09:07:06Z</time>
      </trkpt>
      <trkpt lat="43.757510" lon="4.840970">
        <ele>234.83</ele>
        <time>2021-05-13T09:07:14Z</time>
      </trkpt>
      <trkpt lat="43.757500" lon="4.840820">
        <ele>234.89</ele>
        <time>2021-05-13T09:07:24Z</time>
      </trkpt>
      <trkpt lat="43.757520" lon="4.840670">
        <ele>235.12</ele>
        <time>2021-05-13T09:07:33Z</time>
      </trkpt>
      <trkpt lat="43.757570" lon="4.840520">
        <ele>235.93</ele>
        <time>2021-05-13T09:07:42Z</time>
      </trkpt>
      <trkpt lat="43.757630" lon="4.840390">
        <ele>236.03</ele>
        <time>2021-05-13T09:07:50Z</time>
      </trkpt>
      <trkpt lat="43.757720" lon="4.840280">
        <ele>235.25</ele>
        <time>2021-05-13T09:07:59Z</time>
      </trkpt>
      <trkpt lat="43.757810" lon="4.840180">
        <ele>233.9</ele>
        <time>2021-05-13T09:08:07Z</time>
      </trkpt>
      <trkpt lat="43.757890" lon="4.840100">
        <ele>233.27</ele>
        <time>2021-05-13T09:08:16Z</time>
      </trkpt>
      <trkpt lat="43.758000" lon="4.840030">
        <ele>233.06</ele>
        <time>2021-05-13T09:08:25Z</time>
      </trkpt>
      <trkpt lat="43.758100" lon="4.839980">
        <ele>232.94</ele>
        <time>2021-05-13T09:08:32Z</time>
      </trkpt>
      <trkpt lat="43.758220" lon="4.839910">
        <ele>233.5</ele>
        <time>2021-05-13T09:08:42Z</time>
      </trkpt>
      <trkpt lat="43.758330" lon="4.839850">
        <ele>233.69</ele>
        <time>2021-05-13T09:08:49Z</time>
      </trkpt>
      <trkpt lat="43.758440" lon="4.839730">
        <ele>233.69</ele>
        <time>2021-05-13T09:09:00Z</time>
      </trkpt>
      <trkpt lat="43.758520" lon="4.839610">
        <ele>233.26</ele>
        <time>2021-05-13T09:09:09Z</time>
      </trkpt>
      <trkpt lat="43.758510" lon="4.839490">
        <ele>232.91</ele>
        <time>2021-05-13T09:09:16Z</time>
      </trkpt>
      <trkpt lat="43.758440" lon="4.839400">
        <ele>232.97</ele>
        <time>2021-05-13T09:09:25Z</time>
      </trkpt>
      <trkpt lat="43.758260" lon="4.839300">
        <ele>234.29</ele>
        <time>2021-05-13T09:09:40Z</time>
      </trkpt>
      <trkpt lat="43.758150" lon="4.839230">
        <ele>234.87</ele>
        <time>2021-05-13T09:09:51Z</time>
      </trkpt>
      <trkpt lat="43.758000" lon="4.839120">
        <ele>236.11</ele>
        <time>2021-05-13T09:10:04Z</time>
      </trkpt>
      <trkpt lat="43.757860" lon="4.839060">
        <ele>237.52</ele>
        <time>2021-05-13T09:10:16Z</time>
      </trkpt>
      <trkpt lat="43.757720" lon="4.838960">
        <ele>239.17</ele>
        <time>2021-05-13T09:10:29Z</time>
      </trkpt>
      <trkpt lat="43.757640" lon="4.838810">
        <ele>240.28</ele>
        <time>2021-05-13T09:10:39Z</time>
      </trkpt>
      <trkpt lat="43.757620" lon="4.838670">
        <ele>240.44</ele>
        <time>2021-05-13T09:10:47Z</time>
      </trkpt>
      <trkpt lat="43.757650" lon="4.838530">
        <ele>240.95</ele>
        <time>2021-05-13T09:10:55Z</time>
      </trkpt>
      <trkpt lat="43.757680" lon="4.838380">
        <ele>242.3</ele>
        <time>2021-05-13T09:11:03Z</time>
      </trkpt>
      <trkpt lat="43.757700" lon="4.838250">
        <ele>242.81</ele>
        <time>2021-05-13T09:11:11Z</time>
      </trkpt>
      <trkpt lat="43.757680" lon="4.838110">
        <ele>243.54</ele>
        <time>2021-05-13T09:11:20Z</time>
      </trkpt>
      <trkpt lat="43.757660" lon="4.837970">
        <ele>244.98</ele>
        <time>2021-05-13T09:11:30Z</time>
      </trkpt>
      <trkpt lat="43.757670" lon="4.837810">
        <ele>246.22</ele>
        <time>2021-05-13T09:11:39Z</time>
      </trkpt>
      <trkpt lat="43.757700" lon="4.837610">
        <ele>247.84</ele>
        <time>2021-05-13T09:11:50Z</time>
      </trkpt>
      <trkpt lat="43.757750" lon="4.837490">
        <ele>248.26</ele>
        <time>2021-05-13T09:11:58Z</time>
      </trkpt>
      <trkpt lat="43.757840" lon="4.837360">
        <ele>248.14</ele>
        <time>2021-05-13T09:12:06Z</time>
      </trkpt>
      <trkpt lat="43.757920" lon="4.837260">
        <ele>248.1</ele>
        <time>2021-05-13T09:12:14Z</time>
      </trkpt>
      <trkpt lat="43.758000" lon="4.837170">
        <ele>248.28</ele>
        <time>2021-05-13T09:12:22Z</time>
      </trkpt>
      <trkpt lat="43.758070" lon="4.837050">
        <ele>248.42</ele>
        <time>2021-05-13T09:12:30Z</time>
      </trkpt>
      <trkpt lat="43.758150" lon="4.836950">
        <ele>248.3</ele>
        <time>2021-05-13T09:12:38Z</time>
      </trkpt>
      <trkpt lat="43.758200" lon="4.836830">
        <ele>248.28</ele>
        <time>2021-05-13T09:12:47Z</time>
      </trkpt>
      <trkpt lat="43.758240" lon="4.836700">
        <ele>248.44</ele>
        <time>2021-05-13T09:12:56Z</time>
      </trkpt>
      <trkpt lat="43.758270" lon="4.836560">
        <ele>248.9</ele>
        <time>2021-05-13T09:13:05Z</time>
      </trkpt>
      <trkpt lat="43.758260" lon="4.836410">
        <ele>249.82</ele>
        <time>2021-05-13T09:13:14Z</time>
      </trkpt>
      <trkpt lat="43.758220" lon="4.836260">
        <ele>250.23</ele>
        <time>2021-05-13T09:13:22Z</time>
      </trkpt>
      <trkpt lat="43.758190" lon="4.836110">
        <ele>250.69</ele>
        <time>2021-05-13T09:13:30Z</time>
      </trkpt>
      <trkpt lat="43.758140" lon="4.836000">
        <ele>251.35</ele>
        <time>2021-05-13T09:13:38Z</time>
      </trkpt>
      <trkpt lat="43.758060" lon="4.835930">
        <ele>252.19</ele>
        <time>2021-05-13T09:13:47Z</time>
      </trkpt>
      <trkpt lat="43.757920" lon="4.835860">
        <ele>252.31</ele>
        <time>2021-05-13T09:13:58Z</time>
      </trkpt>
      <trkpt lat="43.757790" lon="4.835820">
        <ele>252.35</ele>
        <time>2021-05-13T09:14:09Z</time>
      </trkpt>
      <trkpt lat="43.757690" lon="4.835790">
        <ele>252.16</ele>
        <time>2021-05-13T09:14:18Z</time>
      </trkpt>
      <trkpt lat="43.757600" lon="4.835760">
        <ele>251.79</ele>
        <time>2021-05-13T09:14:29Z</time>
      </trkpt>
      <trkpt lat="43.757490" lon="4.835750">
        <ele>251.21</ele>
        <time>2021-05-13T09:14:39Z</time>
      </trkpt>
      <trkpt lat="43.757370" lon="4.835700">
        <ele>250.92</ele>
        <time>2021-05-13T09:14:49Z</time>
      </trkpt>
      <trkpt lat="43.757260" lon="4.835670">
        <ele>250.25</ele>
        <time>2021-05-13T09:14:59Z</time>
      </trkpt>
      <trkpt lat="43.757130" lon="4.835660">
        <ele>249.5</ele>
        <time>2021-05-13T09:15:08Z</time>
      </trkpt>
      <trkpt lat="43.757020" lon="4.835620">
        <ele>248.64</ele>
        <time>2021-05-13T09:15:17Z</time>
      </trkpt>
      <trkpt lat="43.756930" lon="4.835550">
        <ele>248</ele>
        <time>2021-05-13T09:15:26Z</time>
      </trkpt>
      <trkpt lat="43.756840" lon="4.835470">
        <ele>246.36</ele>
        <time>2021-05-13T09:15:35Z</time>
      </trkpt>
      <trkpt lat="43.756780" lon="4.835260">
        <ele>245.4</ele>
        <time>2021-05-13T09:15:48Z</time>
      </trkpt>
      <trkpt lat="43.756750" lon="4.835150">
        <ele>244.02</ele>
        <time>2021-05-13T09:16:14Z</time>
      </trkpt>
      <trkpt lat="43.756700" lon="4.835050">
        <ele>243.3</ele>
        <time>2021-05-13T09:16:24Z</time>
      </trkpt>
      <trkpt lat="43.756670" lon="4.834900">
        <ele>242.34</ele>
        <time>2021-05-13T09:16:34Z</time>
      </trkpt>
      <trkpt lat="43.756650" lon="4.834740">
        <ele>241.86</ele>
        <time>2021-05-13T09:16:44Z</time>
      </trkpt>
      <trkpt lat="43.756650" lon="4.834580">
        <ele>240.83</ele>
        <time>2021-05-13T09:16:55Z</time>
      </trkpt>
      <trkpt lat="43.756670" lon="4.834450">
        <ele>240.47</ele>
        <time>2021-05-13T09:17:05Z</time>
      </trkpt>
      <trkpt lat="43.756670" lon="4.834270">
        <ele>239.84</ele>
        <time>2021-05-13T09:17:17Z</time>
      </trkpt>
      <trkpt lat="43.756730" lon="4.834140">
        <ele>239.7</ele>
        <time>2021-05-13T09:17:26Z</time>
      </trkpt>
      <trkpt lat="43.756790" lon="4.834000">
        <ele>239.12</ele>
        <time>2021-05-13T09:17:34Z</time>
      </trkpt>
      <trkpt lat="43.756840" lon="4.833870">
        <ele>239.11</ele>
        <time>2021-05-13T09:17:42Z</time>
      </trkpt>
      <trkpt lat="43.756860" lon="4.833740">
        <ele>239.36</ele>
        <time>2021-05-13T09:17:50Z</time>
      </trkpt>
      <trkpt lat="43.756970" lon="4.833640">
        <ele>239.91</ele>
        <time>2021-05-13T09:18:00Z</time>
      </trkpt>
      <trkpt lat="43.757050" lon="4.833550">
        <ele>241.58</ele>
        <time>2021-05-13T09:18:08Z</time>
      </trkpt>
      <trkpt lat="43.757120" lon="4.833490">
        <ele>242.37</ele>
        <time>2021-05-13T09:18:23Z</time>
      </trkpt>
      <trkpt lat="43.757220" lon="4.833440">
        <ele>242.57</ele>
        <time>2021-05-13T09:18:35Z</time>
      </trkpt>
      <trkpt lat="43.757360" lon="4.833400">
        <ele>243.11</ele>
        <time>2021-05-13T09:18:45Z</time>
      </trkpt>
      <trkpt lat="43.757460" lon="4.833340">
        <ele>243.41</ele>
        <time>2021-05-13T09:18:52Z</time>
      </trkpt>
      <trkpt lat="43.757560" lon="4.833260">
        <ele>243.4</ele>
        <time>2021-05-13T09:19:00Z</time>
      </trkpt>
      <trkpt lat="43.757620" lon="4.833160">
        <ele>243.15</ele>
        <time>2021-05-13T09:19:11Z</time>
      </trkpt>
      <trkpt lat="43.757760" lon="4.833030">
        <ele>241.84</ele>
        <time>2021-05-13T09:19:24Z</time>
      </trkpt>
      <trkpt lat="43.757850" lon="4.832920">
        <ele>239.4</ele>
        <time>2021-05-13T09:19:35Z</time>
      </trkpt>
      <trkpt lat="43.757970" lon="4.832820">
        <ele>237.35</ele>
        <time>2021-05-13T09:19:46Z</time>
      </trkpt>
      <trkpt lat="43.758180" lon="4.832690">
        <ele>235.06</ele>
        <time>2021-05-13T09:20:01Z</time>
      </trkpt>
      <trkpt lat="43.758390" lon="4.832600">
        <ele>233.17</ele>
        <time>2021-05-13T09:20:17Z</time>
      </trkpt>
      <trkpt lat="43.758500" lon="4.832530">
        <ele>233.17</ele>
        <time>2021-05-13T09:20:29Z</time>
      </trkpt>
      <trkpt lat="43.758620" lon="4.832460">
        <ele>232.47</ele>
        <time>2021-05-13T09:20:39Z</time>
      </trkpt>
      <trkpt lat="43.758700" lon="4.832390">
        <ele>231.54</ele>
        <time>2021-05-13T09:20:47Z</time>
      </trkpt>
      <trkpt lat="43.758810" lon="4.832320">
        <ele>230.99</ele>
        <time>2021-05-13T09:20:56Z</time>
      </trkpt>
      <trkpt lat="43.758930" lon="4.832270">
        <ele>229.26</ele>
        <time>2021-05-13T09:21:07Z</time>
      </trkpt>
      <trkpt lat="43.759060" lon="4.832210">
        <ele>228.71</ele>
        <time>2021-05-13T09:21:15Z</time>
      </trkpt>
      <trkpt lat="43.759180" lon="4.832160">
        <ele>227.9</ele>
        <time>2021-05-13T09:21:24Z</time>
      </trkpt>
      <trkpt lat="43.759290" lon="4.832080">
        <ele>226.94</ele>
        <time>2021-05-13T09:21:35Z</time>
      </trkpt>
      <trkpt lat="43.759400" lon="4.832040">
        <ele>225.68</ele>
        <time>2021-05-13T09:21:45Z</time>
      </trkpt>
      <trkpt lat="43.759510" lon="4.831970">
        <ele>224.59</ele>
        <time>2021-05-13T09:21:55Z</time>
      </trkpt>
      <trkpt lat="43.759630" lon="4.831920">
        <ele>224.16</ele>
        <time>2021-05-13T09:22:04Z</time>
      </trkpt>
      <trkpt lat="43.759750" lon="4.831880">
        <ele>223.66</ele>
        <time>2021-05-13T09:22:12Z</time>
      </trkpt>
      <trkpt lat="43.759870" lon="4.831820">
        <ele>222.83</ele>
        <time>2021-05-13T09:22:23Z</time>
      </trkpt>
      <trkpt lat="43.759990" lon="4.831760">
        <ele>222.74</ele>
        <time>2021-05-13T09:22:34Z</time>
      </trkpt>
      <trkpt lat="43.760090" lon="4.831710">
        <ele>222.34</ele>
        <time>2021-05-13T09:22:43Z</time>
      </trkpt>
      <trkpt lat="43.760180" lon="4.831670">
        <ele>221.44</ele>
        <time>2021-05-13T09:22:52Z</time>
      </trkpt>
      <trkpt lat="43.760270" lon="4.831610">
        <ele>219.84</ele>
        <time>2021-05-13T09:23:02Z</time>
      </trkpt>
      <trkpt lat="43.760360" lon="4.831580">
        <ele>219.01</ele>
        <time>2021-05-13T09:23:11Z</time>
      </trkpt>
      <trkpt lat="43.760500" lon="4.831550">
        <ele>218.58</ele>
        <time>2021-05-13T09:23:24Z</time>
      </trkpt>
      <trkpt lat="43.760710" lon="4.831490">
        <ele>217.36</ele>
        <time>2021-05-13T09:23:40Z</time>
      </trkpt>
      <trkpt lat="43.760800" lon="4.831460">
        <ele>217.32</ele>
        <time>2021-05-13T09:23:50Z</time>
      </trkpt>
      <trkpt lat="43.760960" lon="4.831400">
        <ele>217.4</ele>
        <time>2021-05-13T09:24:02Z</time>
      </trkpt>
      <trkpt lat="43.761060" lon="4.831350">
        <ele>216.88</ele>
        <time>2021-05-13T09:24:12Z</time>
      </trkpt>
      <trkpt lat="43.761160" lon="4.831390">
        <ele>214.32</ele>
        <time>2021-05-13T09:24:24Z</time>
      </trkpt>
      <trkpt lat="43.761200" lon="4.831490">
        <ele>211.98</ele>
        <time>2021-05-13T09:24:34Z</time>
      </trkpt>
      <trkpt lat="43.761250" lon="4.831600">
        <ele>210.88</ele>
        <time>2021-05-13T09:24:46Z</time>
      </trkpt>
      <trkpt lat="43.761340" lon="4.831640">
        <ele>211.43</ele>
        <time>2021-05-13T09:25:16Z</time>
      </trkpt>
      <trkpt lat="43.761450" lon="4.831670">
        <ele>210.1</ele>
        <time>2021-05-13T09:25:26Z</time>
      </trkpt>
      <trkpt lat="43.761580" lon="4.831680">
        <ele>208.66</ele>
        <time>2021-05-13T09:25:35Z</time>
      </trkpt>
      <trkpt lat="43.761710" lon="4.831690">
        <ele>208.12</ele>
        <time>2021-05-13T09:25:46Z</time>
      </trkpt>
      <trkpt lat="43.761860" lon="4.831720">
        <ele>207.63</ele>
        <time>2021-05-13T09:25:56Z</time>
      </trkpt>
      <trkpt lat="43.761970" lon="4.831730">
        <ele>208.39</ele>
        <time>2021-05-13T09:26:12Z</time>
      </trkpt>
      <trkpt lat="43.762070" lon="4.831740">
        <ele>209.98</ele>
        <time>2021-05-13T09:26:23Z</time>
      </trkpt>
      <trkpt lat="43.762190" lon="4.831760">
        <ele>212.31</ele>
        <time>2021-05-13T09:26:35Z</time>
      </trkpt>
      <trkpt lat="43.762290" lon="4.831740">
        <ele>212.85</ele>
        <time>2021-05-13T09:26:45Z</time>
      </trkpt>
      <trkpt lat="43.762410" lon="4.831710">
        <ele>213.13</ele>
        <time>2021-05-13T09:26:56Z</time>
      </trkpt>
      <trkpt lat="43.762540" lon="4.831710">
        <ele>212.53</ele>
        <time>2021-05-13T09:27:09Z</time>
      </trkpt>
      <trkpt lat="43.762810" lon="4.831810">
        <ele>209.94</ele>
        <time>2021-05-13T09:27:27Z</time>
      </trkpt>
      <trkpt lat="43.763010" lon="4.831890">
        <ele>209.04</ele>
        <time>2021-05-13T09:27:41Z</time>
      </trkpt>
      <trkpt lat="43.763100" lon="4.831930">
        <ele>210.36</ele>
        <time>2021-05-13T09:27:52Z</time>
      </trkpt>
      <trkpt lat="43.763230" lon="4.831980">
        <ele>212.93</ele>
        <time>2021-05-13T09:28:02Z</time>
      </trkpt>
      <trkpt lat="43.763320" lon="4.831920">
        <ele>213</ele>
        <time>2021-05-13T09:28:12Z</time>
      </trkpt>
      <trkpt lat="43.763430" lon="4.831860">
        <ele>211.37</ele>
        <time>2021-05-13T09:28:22Z</time>
      </trkpt>
      <trkpt lat="43.763540" lon="4.831830">
        <ele>209.75</ele>
        <time>2021-05-13T09:28:31Z</time>
      </trkpt>
      <trkpt lat="43.763650" lon="4.831820">
        <ele>208.01</ele>
        <time>2021-05-13T09:28:40Z</time>
      </trkpt>
      <trkpt lat="43.763610" lon="4.831800">
        <ele>206.55</ele>
        <time>2021-05-13T09:29:18Z</time>
      </trkpt>
      <trkpt lat="43.763610" lon="4.831850">
        <ele>206.36</ele>
        <time>2021-05-13T09:29:42Z</time>
      </trkpt>
      <trkpt lat="43.763680" lon="4.831890">
        <ele>206.26</ele>
        <time>2021-05-13T09:29:54Z</time>
      </trkpt>
      <trkpt lat="43.763800" lon="4.831880">
        <ele>205.81</ele>
        <time>2021-05-13T09:30:05Z</time>
      </trkpt>
      <trkpt lat="43.763940" lon="4.831830">
        <ele>206.06</ele>
        <time>2021-05-13T09:30:15Z</time>
      </trkpt>
      <trkpt lat="43.764080" lon="4.831780">
        <ele>206.21</ele>
        <time>2021-05-13T09:30:25Z</time>
      </trkpt>
      <trkpt lat="43.764180" lon="4.831770">
        <ele>206.4</ele>
        <time>2021-05-13T09:30:35Z</time>
      </trkpt>
      <trkpt lat="43.764280" lon="4.831800">
        <ele>209.04</ele>
        <time>2021-05-13T09:30:48Z</time>
      </trkpt>
      <trkpt lat="43.764350" lon="4.831860">
        <ele>212.81</ele>
        <time>2021-05-13T09:31:03Z</time>
      </trkpt>
      <trkpt lat="43.764440" lon="4.831880">
        <ele>216.24</ele>
        <time>2021-05-13T09:31:17Z</time>
      </trkpt>
      <trkpt lat="43.764530" lon="4.831830">
        <ele>217.47</ele>
        <time>2021-05-13T09:31:35Z</time>
      </trkpt>
      <trkpt lat="43.764590" lon="4.831750">
        <ele>218.62</ele>
        <time>2021-05-13T09:31:50Z</time>
      </trkpt>
      <trkpt lat="43.764670" lon="4.831720">
        <ele>220.98</ele>
        <time>2021-05-13T09:32:09Z</time>
      </trkpt>
      <trkpt lat="43.764760" lon="4.831640">
        <ele>222.98</ele>
        <time>2021-05-13T09:32:23Z</time>
      </trkpt>
      <trkpt lat="43.764820" lon="4.831550">
        <ele>226.81</ele>
        <time>2021-05-13T09:32:41Z</time>
      </trkpt>
      <trkpt lat="43.764850" lon="4.831480">
        <ele>229.63</ele>
        <time>2021-05-13T09:33:11Z</time>
      </trkpt>
      <trkpt lat="43.764850" lon="4.831550">
        <ele>229.9</ele>
        <time>2021-05-13T09:33:50Z</time>
      </trkpt>
      <trkpt lat="43.764950" lon="4.831580">
        <ele>229.29</ele>
        <time>2021-05-13T09:34:04Z</time>
      </trkpt>
      <trkpt lat="43.765010" lon="4.831610">
        <ele>226.61</ele>
        <time>2021-05-13T09:34:31Z</time>
      </trkpt>
      <trkpt lat="43.765120" lon="4.831670">
        <ele>226.25</ele>
        <time>2021-05-13T09:34:49Z</time>
      </trkpt>
      <trkpt lat="43.765250" lon="4.831710">
        <ele>224.87</ele>
        <time>2021-05-13T09:35:01Z</time>
      </trkpt>
      <trkpt lat="43.765420" lon="4.831750">
        <ele>224.89</ele>
        <time>2021-05-13T09:35:14Z</time>
      </trkpt>
      <trkpt lat="43.765500" lon="4.831680">
        <ele>224.62</ele>
        <time>2021-05-13T09:35:24Z</time>
      </trkpt>
      <trkpt lat="43.765600" lon="4.831610">
        <ele>222.51</ele>
        <time>2021-05-13T09:35:34Z</time>
      </trkpt>
      <trkpt lat="43.765700" lon="4.831590">
        <ele>219.14</ele>
        <time>2021-05-13T09:35:47Z</time>
      </trkpt>
      <trkpt lat="43.765800" lon="4.831570">
        <ele>215.91</ele>
        <time>2021-05-13T09:36:01Z</time>
      </trkpt>
      <trkpt lat="43.765910" lon="4.831570">
        <ele>213.79</ele>
        <time>2021-05-13T09:36:13Z</time>
      </trkpt>
      <trkpt lat="43.766020" lon="4.831600">
        <ele>212.36</ele>
        <time>2021-05-13T09:36:24Z</time>
      </trkpt>
      <trkpt lat="43.766120" lon="4.831680">
        <ele>210.2</ele>
        <time>2021-05-13T09:36:36Z</time>
      </trkpt>
      <trkpt lat="43.766200" lon="4.831710">
        <ele>209.28</ele>
        <time>2021-05-13T09:36:47Z</time>
      </trkpt>
      <trkpt lat="43.766320" lon="4.831700">
        <ele>209.78</ele>
        <time>2021-05-13T09:36:58Z</time>
      </trkpt>
      <trkpt lat="43.766440" lon="4.831720">
        <ele>209.68</ele>
        <time>2021-05-13T09:37:09Z</time>
      </trkpt>
      <trkpt lat="43.766540" lon="4.831740">
        <ele>208.39</ele>
        <time>2021-05-13T09:37:21Z</time>
      </trkpt>
      <trkpt lat="43.766620" lon="4.831770">
        <ele>206.32</ele>
        <time>2021-05-13T09:37:33Z</time>
      </trkpt>
      <trkpt lat="43.766680" lon="4.831840">
        <ele>205.61</ele>
        <time>2021-05-13T09:37:59Z</time>
      </trkpt>
      <trkpt lat="43.766780" lon="4.831910">
        <ele>204.22</ele>
        <time>2021-05-13T09:38:11Z</time>
      </trkpt>
      <trkpt lat="43.766870" lon="4.831910">
        <ele>202.04</ele>
        <time>2021-05-13T09:38:25Z</time>
      </trkpt>
      <trkpt lat="43.766990" lon="4.831930">
        <ele>198.25</ele>
        <time>2021-05-13T09:38:43Z</time>
      </trkpt>
      <trkpt lat="43.767100" lon="4.831890">
        <ele>195.53</ele>
        <time>2021-05-13T09:38:59Z</time>
      </trkpt>
      <trkpt lat="43.767210" lon="4.831860">
        <ele>191.87</ele>
        <time>2021-05-13T09:39:15Z</time>
      </trkpt>
      <trkpt lat="43.767300" lon="4.831860">
        <ele>188.16</ele>
        <time>2021-05-13T09:39:32Z</time>
      </trkpt>
      <trkpt lat="43.767400" lon="4.831880">
        <ele>185.27</ele>
        <time>2021-05-13T09:39:47Z</time>
      </trkpt>
      <trkpt lat="43.767490" lon="4.831870">
        <ele>181.88</ele>
        <time>2021-05-13T09:40:01Z</time>
      </trkpt>
      <trkpt lat="43.767540" lon="4.831790">
        <ele>180.16</ele>
        <time>2021-05-13T09:40:27Z</time>
      </trkpt>
      <trkpt lat="43.767570" lon="4.831760">
        <ele>179.95</ele>
        <time>2021-05-13T09:40:59Z</time>
      </trkpt>
      <trkpt lat="43.767600" lon="4.831640">
        <ele>179.19</ele>
        <time>2021-05-13T09:41:16Z</time>
      </trkpt>
      <trkpt lat="43.767630" lon="4.831520">
        <ele>175.71</ele>
        <time>2021-05-13T09:41:31Z</time>
      </trkpt>
      <trkpt lat="43.767690" lon="4.831430">
        <ele>173.56</ele>
        <time>2021-05-13T09:41:41Z</time>
      </trkpt>
      <trkpt lat="43.767760" lon="4.831310">
        <ele>169.71</ele>
        <time>2021-05-13T09:41:53Z</time>
      </trkpt>
      <trkpt lat="43.767820" lon="4.831220">
        <ele>166.63</ele>
        <time>2021-05-13T09:42:08Z</time>
      </trkpt>
      <trkpt lat="43.767850" lon="4.831110">
        <ele>163.76</ele>
        <time>2021-05-13T09:42:21Z</time>
      </trkpt>
      <trkpt lat="43.767880" lon="4.830960">
        <ele>160.23</ele>
        <time>2021-05-13T09:42:35Z</time>
      </trkpt>
      <trkpt lat="43.767920" lon="4.830850">
        <ele>157.25</ele>
        <time>2021-05-13T09:42:47Z</time>
      </trkpt>
      <trkpt lat="43.767940" lon="4.830640">
        <ele>154.71</ele>
        <time>2021-05-13T09:43:01Z</time>
      </trkpt>
      <trkpt lat="43.767900" lon="4.830620">
        <ele>153.02</ele>
        <time>2021-05-13T09:43:29Z</time>
      </trkpt>
      <trkpt lat="43.767810" lon="4.830590">
        <ele>153.54</ele>
        <time>2021-05-13T09:43:56Z</time>
      </trkpt>
      <trkpt lat="43.767990" lon="4.830450">
        <ele>153.39</ele>
        <time>2021-05-13T09:44:15Z</time>
      </trkpt>
      <trkpt lat="43.768040" lon="4.830220">
        <ele>151.67</ele>
        <time>2021-05-13T09:44:25Z</time>
      </trkpt>
      <trkpt lat="43.768010" lon="4.830050">
        <ele>149.89</ele>
        <time>2021-05-13T09:44:33Z</time>
      </trkpt>
      <trkpt lat="43.768030" lon="4.829940">
        <ele>148.19</ele>
        <time>2021-05-13T09:44:40Z</time>
      </trkpt>
      <trkpt lat="43.768090" lon="4.829860">
        <ele>146.66</ele>
        <time>2021-05-13T09:44:48Z</time>
      </trkpt>
      <trkpt lat="43.768140" lon="4.829720">
        <ele>145.35</ele>
        <time>2021-05-13T09:44:57Z</time>
      </trkpt>
      <trkpt lat="43.768210" lon="4.829600">
        <ele>143.76</ele>
        <time>2021-05-13T09:45:07Z</time>
      </trkpt>
      <trkpt lat="43.768330" lon="4.829510">
        <ele>142.65</ele>
        <time>2021-05-13T09:45:14Z</time>
      </trkpt>
      <trkpt lat="43.768450" lon="4.829450">
        <ele>142.33</ele>
        <time>2021-05-13T09:45:24Z</time>
      </trkpt>
      <trkpt lat="43.768580" lon="4.829440">
        <ele>141.99</ele>
        <time>2021-05-13T09:45:32Z</time>
      </trkpt>
      <trkpt lat="43.768710" lon="4.829430">
        <ele>141.1</ele>
        <time>2021-05-13T09:45:42Z</time>
      </trkpt>
      <trkpt lat="43.768890" lon="4.829280">
        <ele>139.93</ele>
        <time>2021-05-13T09:45:53Z</time>
      </trkpt>
      <trkpt lat="43.768930" lon="4.829130">
        <ele>137.71</ele>
        <time>2021-05-13T09:46:02Z</time>
      </trkpt>
      <trkpt lat="43.768920" lon="4.828960">
        <ele>136.06</ele>
        <time>2021-05-13T09:46:12Z</time>
      </trkpt>
      <trkpt lat="43.768930" lon="4.828860">
        <ele>133.66</ele>
        <time>2021-05-13T09:46:24Z</time>
      </trkpt>
      <trkpt lat="43.768870" lon="4.828760">
        <ele>133.57</ele>
        <time>2021-05-13T09:46:40Z</time>
      </trkpt>
      <trkpt lat="43.768900" lon="4.828620">
        <ele>133.31</ele>
        <time>2021-05-13T09:46:57Z</time>
      </trkpt>
      <trkpt lat="43.768940" lon="4.828520">
        <ele>130.73</ele>
        <time>2021-05-13T09:47:11Z</time>
      </trkpt>
      <trkpt lat="43.769030" lon="4.828460">
        <ele>130.06</ele>
        <time>2021-05-13T09:47:22Z</time>
      </trkpt>
      <trkpt lat="43.769190" lon="4.828450">
        <ele>128.39</ele>
        <time>2021-05-13T09:47:33Z</time>
      </trkpt>
      <trkpt lat="43.769340" lon="4.828380">
        <ele>128.05</ele>
        <time>2021-05-13T09:47:41Z</time>
      </trkpt>
      <trkpt lat="43.769430" lon="4.828390">
        <ele>128.33</ele>
        <time>2021-05-13T09:48:01Z</time>
      </trkpt>
      <trkpt lat="43.769510" lon="4.828270">
        <ele>128.63</ele>
        <time>2021-05-13T09:48:13Z</time>
      </trkpt>
      <trkpt lat="43.769530" lon="4.828120">
        <ele>129.08</ele>
        <time>2021-05-13T09:48:26Z</time>
      </trkpt>
      <trkpt lat="43.769590" lon="4.827970">
        <ele>130.24</ele>
        <time>2021-05-13T09:48:39Z</time>
      </trkpt>
      <trkpt lat="43.769730" lon="4.827990">
        <ele>130.29</ele>
        <time>2021-05-13T09:48:51Z</time>
      </trkpt>
      <trkpt lat="43.769860" lon="4.828030">
        <ele>130.62</ele>
        <time>2021-05-13T09:49:02Z</time>
      </trkpt>
      <trkpt lat="43.769950" lon="4.827960">
        <ele>130.85</ele>
        <time>2021-05-13T09:49:17Z</time>
      </trkpt>
      <trkpt lat="43.770060" lon="4.827920">
        <ele>130.58</ele>
        <time>2021-05-13T09:49:26Z</time>
      </trkpt>
      <trkpt lat="43.770170" lon="4.827930">
        <ele>130.12</ele>
        <time>2021-05-13T09:49:35Z</time>
      </trkpt>
      <trkpt lat="43.770220" lon="4.828070">
        <ele>129.89</ele>
        <time>2021-05-13T09:49:44Z</time>
      </trkpt>
      <trkpt lat="43.770250" lon="4.828190">
        <ele>129.42</ele>
        <time>2021-05-13T09:49:54Z</time>
      </trkpt>
      <trkpt lat="43.770280" lon="4.828170">
        <ele>123.57</ele>
        <time>2021-05-13T09:50:13Z</time>
      </trkpt>
      <trkpt lat="43.770290" lon="4.828210">
        <ele>131.58</ele>
        <time>2021-05-13T10:54:01Z</time>
      </trkpt>
      <trkpt lat="43.770250" lon="4.828210">
        <ele>131.97</ele>
        <time>2021-05-13T10:54:22Z</time>
      </trkpt>
      <trkpt lat="43.770240" lon="4.828220">
        <ele>132</ele>
        <time>2021-05-13T10:55:06Z</time>
      </trkpt>
      <trkpt lat="43.770170" lon="4.828180">
        <ele>130.79</ele>
        <time>2021-05-13T10:55:47Z</time>
      </trkpt>
      <trkpt lat="43.770130" lon="4.828080">
        <ele>131.82</ele>
        <time>2021-05-13T10:56:01Z</time>
      </trkpt>
      <trkpt lat="43.770120" lon="4.828000">
        <ele>133.18</ele>
        <time>2021-05-13T10:56:20Z</time>
      </trkpt>
      <trkpt lat="43.769960" lon="4.828060">
        <ele>132.78</ele>
        <time>2021-05-13T10:56:34Z</time>
      </trkpt>
      <trkpt lat="43.769860" lon="4.828080">
        <ele>132.7</ele>
        <time>2021-05-13T10:56:44Z</time>
      </trkpt>
      <trkpt lat="43.769720" lon="4.828050">
        <ele>132.57</ele>
        <time>2021-05-13T10:56:56Z</time>
      </trkpt>
      <trkpt lat="43.769590" lon="4.828000">
        <ele>131.98</ele>
        <time>2021-05-13T10:57:09Z</time>
      </trkpt>
      <trkpt lat="43.769480" lon="4.827980">
        <ele>131.98</ele>
        <time>2021-05-13T10:57:18Z</time>
      </trkpt>
      <trkpt lat="43.769330" lon="4.827950">
        <ele>132.3</ele>
        <time>2021-05-13T10:57:31Z</time>
      </trkpt>
      <trkpt lat="43.769230" lon="4.827910">
        <ele>132.48</ele>
        <time>2021-05-13T10:57:41Z</time>
      </trkpt>
      <trkpt lat="43.769130" lon="4.827830">
        <ele>133.18</ele>
        <time>2021-05-13T10:57:54Z</time>
      </trkpt>
      <trkpt lat="43.769110" lon="4.827830">
        <ele>133.54</ele>
        <time>2021-05-13T10:58:11Z</time>
      </trkpt>
      <trkpt lat="43.769030" lon="4.827780">
        <ele>133.6</ele>
        <time>2021-05-13T10:58:29Z</time>
      </trkpt>
      <trkpt lat="43.768950" lon="4.827710">
        <ele>134.02</ele>
        <time>2021-05-13T10:58:40Z</time>
      </trkpt>
      <trkpt lat="43.768850" lon="4.827640">
        <ele>134.69</ele>
        <time>2021-05-13T10:58:51Z</time>
      </trkpt>
      <trkpt lat="43.768750" lon="4.827560">
        <ele>135.51</ele>
        <time>2021-05-13T10:59:00Z</time>
      </trkpt>
      <trkpt lat="43.768660" lon="4.827540">
        <ele>135.74</ele>
        <time>2021-05-13T10:59:15Z</time>
      </trkpt>
      <trkpt lat="43.768570" lon="4.827510">
        <ele>135.52</ele>
        <time>2021-05-13T10:59:29Z</time>
      </trkpt>
      <trkpt lat="43.768430" lon="4.827460">
        <ele>136.07</ele>
        <time>2021-05-13T10:59:42Z</time>
      </trkpt>
      <trkpt lat="43.768140" lon="4.827260">
        <ele>138.7</ele>
        <time>2021-05-13T11:00:07Z</time>
      </trkpt>
      <trkpt lat="43.767960" lon="4.827160">
        <ele>140.32</ele>
        <time>2021-05-13T11:00:24Z</time>
      </trkpt>
      <trkpt lat="43.767810" lon="4.827050">
        <ele>141.57</ele>
        <time>2021-05-13T11:00:39Z</time>
      </trkpt>
      <trkpt lat="43.767730" lon="4.826970">
        <ele>142.85</ele>
        <time>2021-05-13T11:00:50Z</time>
      </trkpt>
      <trkpt lat="43.767720" lon="4.826880">
        <ele>143.99</ele>
        <time>2021-05-13T11:01:04Z</time>
      </trkpt>
      <trkpt lat="43.767670" lon="4.826830">
        <ele>144.45</ele>
        <time>2021-05-13T11:01:19Z</time>
      </trkpt>
      <trkpt lat="43.767631" lon="4.826544">
        <ele>142.1</ele>
        <time>2021-05-13T11:01:30Z</time>
      </trkpt>
      <trkpt lat="43.767557" lon="4.826351">
        <ele>143.7</ele>
        <time>2021-05-13T11:01:39Z</time>
      </trkpt>
      <trkpt lat="43.767429" lon="4.825959">
        <ele>150.5</ele>
        <time>2021-05-13T11:01:48Z</time>
      </trkpt>
      <trkpt lat="43.767235" lon="4.825766">
        <ele>154.9</ele>
        <time>2021-05-13T11:02:01Z</time>
      </trkpt>
      <trkpt lat="43.767100" lon="4.825723">
        <ele>155.7</ele>
        <time>2021-05-13T11:02:09Z</time>
      </trkpt>
      <trkpt lat="43.766941" lon="4.825632">
        <ele>157.8</ele>
        <time>2021-05-13T11:02:18Z</time>
      </trkpt>
      <trkpt lat="43.766713" lon="4.825621">
        <ele>160.4</ele>
        <time>2021-05-13T11:02:29Z</time>
      </trkpt>
      <trkpt lat="43.766577" lon="4.825686">
        <ele>160.8</ele>
        <time>2021-05-13T11:02:43Z</time>
      </trkpt>
      <trkpt lat="43.766484" lon="4.825712">
        <ele>161.4</ele>
        <time>2021-05-13T11:02:53Z</time>
      </trkpt>
      <trkpt lat="43.766337" lon="4.825718">
        <ele>163.2</ele>
        <time>2021-05-13T11:03:04Z</time>
      </trkpt>
      <trkpt lat="43.766201" lon="4.825782">
        <ele>163.8</ele>
        <time>2021-05-13T11:03:17Z</time>
      </trkpt>
      <trkpt lat="43.766112" lon="4.825804">
        <ele>164.6</ele>
        <time>2021-05-13T11:03:33Z</time>
      </trkpt>
      <trkpt lat="43.766031" lon="4.825675">
        <ele>165.9</ele>
        <time>2021-05-13T11:03:43Z</time>
      </trkpt>
      <trkpt lat="43.765945" lon="4.825594">
        <ele>165.7</ele>
        <time>2021-05-13T11:03:55Z</time>
      </trkpt>
      <trkpt lat="43.765880" lon="4.825503">
        <ele>166.4</ele>
        <time>2021-05-13T11:04:07Z</time>
      </trkpt>
      <trkpt lat="43.765686" lon="4.825391">
        <ele>169.1</ele>
        <time>2021-05-13T11:04:22Z</time>
      </trkpt>
      <trkpt lat="43.765535" lon="4.825391">
        <ele>169.4</ele>
        <time>2021-05-13T11:04:32Z</time>
      </trkpt>
      <trkpt lat="43.765372" lon="4.825332">
        <ele>171.4</ele>
        <time>2021-05-13T11:04:40Z</time>
      </trkpt>
      <trkpt lat="43.765252" lon="4.825294">
        <ele>172.3</ele>
        <time>2021-05-13T11:04:49Z</time>
      </trkpt>
      <trkpt lat="43.765082" lon="4.825219">
        <ele>172.6</ele>
        <time>2021-05-13T11:04:59Z</time>
      </trkpt>
      <trkpt lat="43.765000" lon="4.825155">
        <ele>173.6</ele>
        <time>2021-05-13T11:05:10Z</time>
      </trkpt>
      <trkpt lat="43.764837" lon="4.825090">
        <ele>175.4</ele>
        <time>2021-05-13T11:05:21Z</time>
      </trkpt>
      <trkpt lat="43.764694" lon="4.825079">
        <ele>175.7</ele>
        <time>2021-05-13T11:05:29Z</time>
      </trkpt>
      <trkpt lat="43.764597" lon="4.825020">
        <ele>177.4</ele>
        <time>2021-05-13T11:05:37Z</time>
      </trkpt>
      <trkpt lat="43.764446" lon="4.825015">
        <ele>177.5</ele>
        <time>2021-05-13T11:05:49Z</time>
      </trkpt>
      <trkpt lat="43.764214" lon="4.824758">
        <ele>179.5</ele>
        <time>2021-05-13T11:05:59Z</time>
      </trkpt>
      <trkpt lat="43.763958" lon="4.824446">
        <ele>184.5</ele>
        <time>2021-05-13T11:06:11Z</time>
      </trkpt>
      <trkpt lat="43.763757" lon="4.824232">
        <ele>186</ele>
        <time>2021-05-13T11:06:22Z</time>
      </trkpt>
      <trkpt lat="43.763578" lon="4.824125">
        <ele>188.7</ele>
        <time>2021-05-13T11:06:33Z</time>
      </trkpt>
      <trkpt lat="43.763369" lon="4.823953">
        <ele>190.7</ele>
        <time>2021-05-13T11:06:41Z</time>
      </trkpt>
      <trkpt lat="43.763284" lon="4.823599">
        <ele>192.4</ele>
        <time>2021-05-13T11:06:51Z</time>
      </trkpt>
      <trkpt lat="43.763478" lon="4.823449">
        <ele>193.3</ele>
        <time>2021-05-13T11:06:59Z</time>
      </trkpt>
      <trkpt lat="43.763586" lon="4.823320">
        <ele>194.7</ele>
        <time>2021-05-13T11:07:11Z</time>
      </trkpt>
      <trkpt lat="43.763679" lon="4.822998">
        <ele>197.7</ele>
        <time>2021-05-13T11:07:20Z</time>
      </trkpt>
      <trkpt lat="43.763780" lon="4.822741">
        <ele>198.4</ele>
        <time>2021-05-13T11:07:31Z</time>
      </trkpt>
      <trkpt lat="43.763857" lon="4.822569">
        <ele>199.2</ele>
        <time>2021-05-13T11:07:41Z</time>
      </trkpt>
      <trkpt lat="43.763927" lon="4.822387">
        <ele>199.8</ele>
        <time>2021-05-13T11:07:50Z</time>
      </trkpt>
      <trkpt lat="43.763842" lon="4.822193">
        <ele>199.9</ele>
        <time>2021-05-13T11:07:58Z</time>
      </trkpt>
      <trkpt lat="43.763710" lon="4.822258">
        <ele>199.8</ele>
        <time>2021-05-13T11:08:07Z</time>
      </trkpt>
      <trkpt lat="43.763532" lon="4.822515">
        <ele>205.3</ele>
        <time>2021-05-13T11:08:15Z</time>
      </trkpt>
      <trkpt lat="43.763168" lon="4.822912">
        <ele>207.9</ele>
        <time>2021-05-13T11:08:34Z</time>
      </trkpt>
      <trkpt lat="43.763020" lon="4.822923">
        <ele>207.7</ele>
        <time>2021-05-13T11:09:05Z</time>
      </trkpt>
      <trkpt lat="43.762804" lon="4.823020">
        <ele>207.6</ele>
        <time>2021-05-13T11:09:18Z</time>
      </trkpt>
      <trkpt lat="43.762470" lon="4.823062">
        <ele>209</ele>
        <time>2021-05-13T11:09:36Z</time>
      </trkpt>
      <trkpt lat="43.762191" lon="4.823116">
        <ele>209.5</ele>
        <time>2021-05-13T11:09:53Z</time>
      </trkpt>
      <trkpt lat="43.762048" lon="4.823202">
        <ele>210.2</ele>
        <time>2021-05-13T11:10:06Z</time>
      </trkpt>
      <trkpt lat="43.761874" lon="4.823336">
        <ele>210.5</ele>
        <time>2021-05-13T11:10:16Z</time>
      </trkpt>
      <trkpt lat="43.761707" lon="4.823465">
        <ele>210.4</ele>
        <time>2021-05-13T11:10:28Z</time>
      </trkpt>
      <trkpt lat="43.761599" lon="4.823497">
        <ele>210.4</ele>
        <time>2021-05-13T11:10:38Z</time>
      </trkpt>
      <trkpt lat="43.761459" lon="4.823524">
        <ele>210.4</ele>
        <time>2021-05-13T11:10:57Z</time>
      </trkpt>
      <trkpt lat="43.761312" lon="4.823551">
        <ele>211.2</ele>
        <time>2021-05-13T11:11:07Z</time>
      </trkpt>
      <trkpt lat="43.761145" lon="4.823631">
        <ele>212.3</ele>
        <time>2021-05-13T11:11:17Z</time>
      </trkpt>
      <trkpt lat="43.760866" lon="4.823695">
        <ele>213.6</ele>
        <time>2021-05-13T11:11:28Z</time>
      </trkpt>
      <trkpt lat="43.760665" lon="4.823685">
        <ele>216.1</ele>
        <time>2021-05-13T11:11:39Z</time>
      </trkpt>
      <trkpt lat="43.760394" lon="4.823663">
        <ele>219.2</ele>
        <time>2021-05-13T11:11:54Z</time>
      </trkpt>
      <trkpt lat="43.760130" lon="4.823663">
        <ele>220.9</ele>
        <time>2021-05-13T11:12:13Z</time>
      </trkpt>
      <trkpt lat="43.759782" lon="4.823642">
        <ele>223.6</ele>
        <time>2021-05-13T11:12:31Z</time>
      </trkpt>
      <trkpt lat="43.759565" lon="4.823663">
        <ele>224.1</ele>
        <time>2021-05-13T11:12:47Z</time>
      </trkpt>
      <trkpt lat="43.759270" lon="4.823640">
        <ele>228.3</ele>
        <time>2021-05-13T11:18:47Z</time>
      </trkpt>
      <trkpt lat="43.759280" lon="4.823650">
        <ele>228.34</ele>
        <time>2021-05-13T11:19:47Z</time>
      </trkpt>
      <trkpt lat="43.759310" lon="4.823650">
        <ele>227.72</ele>
        <time>2021-05-13T11:20:52Z</time>
      </trkpt>
      <trkpt lat="43.759300" lon="4.823670">
        <ele>227.26</ele>
        <time>2021-05-13T11:22:31Z</time>
      </trkpt>
      <trkpt lat="43.759150" lon="4.823620">
        <ele>227.66</ele>
        <time>2021-05-13T11:24:12Z</time>
      </trkpt>
      <trkpt lat="43.759050" lon="4.823590">
        <ele>227.83</ele>
        <time>2021-05-13T11:24:20Z</time>
      </trkpt>
      <trkpt lat="43.758960" lon="4.823560">
        <ele>228.21</ele>
        <time>2021-05-13T11:24:28Z</time>
      </trkpt>
      <trkpt lat="43.758880" lon="4.823510">
        <ele>228.5</ele>
        <time>2021-05-13T11:24:36Z</time>
      </trkpt>
      <trkpt lat="43.758780" lon="4.823460">
        <ele>229.76</ele>
        <time>2021-05-13T11:24:45Z</time>
      </trkpt>
      <trkpt lat="43.758680" lon="4.823400">
        <ele>229.99</ele>
        <time>2021-05-13T11:24:54Z</time>
      </trkpt>
      <trkpt lat="43.758590" lon="4.823320">
        <ele>231.22</ele>
        <time>2021-05-13T11:25:35Z</time>
      </trkpt>
      <trkpt lat="43.758540" lon="4.823190">
        <ele>231.22</ele>
        <time>2021-05-13T11:25:45Z</time>
      </trkpt>
      <trkpt lat="43.758520" lon="4.823050">
        <ele>231.47</ele>
        <time>2021-05-13T11:25:56Z</time>
      </trkpt>
      <trkpt lat="43.758630" lon="4.822990">
        <ele>232.86</ele>
        <time>2021-05-13T11:26:10Z</time>
      </trkpt>
      <trkpt lat="43.758760" lon="4.822930">
        <ele>233.78</ele>
        <time>2021-05-13T11:26:23Z</time>
      </trkpt>
      <trkpt lat="43.758910" lon="4.822900">
        <ele>235.71</ele>
        <time>2021-05-13T11:26:38Z</time>
      </trkpt>
      <trkpt lat="43.759060" lon="4.822830">
        <ele>236.66</ele>
        <time>2021-05-13T11:26:51Z</time>
      </trkpt>
      <trkpt lat="43.759110" lon="4.822750">
        <ele>237.78</ele>
        <time>2021-05-13T11:27:02Z</time>
      </trkpt>
      <trkpt lat="43.759130" lon="4.822670">
        <ele>238.96</ele>
        <time>2021-05-13T11:27:23Z</time>
      </trkpt>
      <trkpt lat="43.759120" lon="4.822540">
        <ele>239.72</ele>
        <time>2021-05-13T11:27:32Z</time>
      </trkpt>
      <trkpt lat="43.759040" lon="4.822420">
        <ele>240.53</ele>
        <time>2021-05-13T11:27:42Z</time>
      </trkpt>
      <trkpt lat="43.758950" lon="4.822360">
        <ele>241.36</ele>
        <time>2021-05-13T11:27:50Z</time>
      </trkpt>
      <trkpt lat="43.758850" lon="4.822310">
        <ele>242.15</ele>
        <time>2021-05-13T11:27:57Z</time>
      </trkpt>
      <trkpt lat="43.758760" lon="4.822320">
        <ele>242.97</ele>
        <time>2021-05-13T11:28:05Z</time>
      </trkpt>
      <trkpt lat="43.758660" lon="4.822340">
        <ele>243.96</ele>
        <time>2021-05-13T11:28:13Z</time>
      </trkpt>
      <trkpt lat="43.758560" lon="4.822350">
        <ele>245.17</ele>
        <time>2021-05-13T11:28:21Z</time>
      </trkpt>
      <trkpt lat="43.758470" lon="4.822320">
        <ele>246.39</ele>
        <time>2021-05-13T11:28:30Z</time>
      </trkpt>
      <trkpt lat="43.758390" lon="4.822220">
        <ele>247.3</ele>
        <time>2021-05-13T11:28:41Z</time>
      </trkpt>
      <trkpt lat="43.758320" lon="4.822020">
        <ele>248.76</ele>
        <time>2021-05-13T11:28:55Z</time>
      </trkpt>
      <trkpt lat="43.758250" lon="4.821920">
        <ele>249.51</ele>
        <time>2021-05-13T11:29:04Z</time>
      </trkpt>
      <trkpt lat="43.758140" lon="4.821850">
        <ele>250.55</ele>
        <time>2021-05-13T11:29:14Z</time>
      </trkpt>
      <trkpt lat="43.758040" lon="4.821790">
        <ele>252.17</ele>
        <time>2021-05-13T11:29:24Z</time>
      </trkpt>
      <trkpt lat="43.757940" lon="4.821750">
        <ele>253.52</ele>
        <time>2021-05-13T11:29:34Z</time>
      </trkpt>
      <trkpt lat="43.757850" lon="4.821720">
        <ele>255.02</ele>
        <time>2021-05-13T11:29:45Z</time>
      </trkpt>
      <trkpt lat="43.757760" lon="4.821660">
        <ele>256.05</ele>
        <time>2021-05-13T11:29:54Z</time>
      </trkpt>
      <trkpt lat="43.757590" lon="4.821720">
        <ele>257.72</ele>
        <time>2021-05-13T11:30:07Z</time>
      </trkpt>
      <trkpt lat="43.757560" lon="4.821840">
        <ele>258.16</ele>
        <time>2021-05-13T11:30:15Z</time>
      </trkpt>
      <trkpt lat="43.757480" lon="4.821940">
        <ele>259.11</ele>
        <time>2021-05-13T11:30:25Z</time>
      </trkpt>
      <trkpt lat="43.757330" lon="4.821960">
        <ele>261.49</ele>
        <time>2021-05-13T11:30:39Z</time>
      </trkpt>
      <trkpt lat="43.757230" lon="4.821910">
        <ele>262.84</ele>
        <time>2021-05-13T11:30:49Z</time>
      </trkpt>
      <trkpt lat="43.757130" lon="4.821850">
        <ele>263.97</ele>
        <time>2021-05-13T11:30:59Z</time>
      </trkpt>
      <trkpt lat="43.757010" lon="4.821840">
        <ele>265.47</ele>
        <time>2021-05-13T11:31:09Z</time>
      </trkpt>
      <trkpt lat="43.756890" lon="4.821780">
        <ele>266.96</ele>
        <time>2021-05-13T11:31:20Z</time>
      </trkpt>
      <trkpt lat="43.756810" lon="4.821690">
        <ele>268.17</ele>
        <time>2021-05-13T11:31:29Z</time>
      </trkpt>
      <trkpt lat="43.756780" lon="4.821660">
        <ele>268.53</ele>
        <time>2021-05-13T11:31:52Z</time>
      </trkpt>
      <trkpt lat="43.756760" lon="4.821690">
        <ele>268.71</ele>
        <time>2021-05-13T11:32:26Z</time>
      </trkpt>
      <trkpt lat="43.756810" lon="4.821650">
        <ele>269.16</ele>
        <time>2021-05-13T11:32:53Z</time>
      </trkpt>
      <trkpt lat="43.756870" lon="4.821640">
        <ele>269.52</ele>
        <time>2021-05-13T11:33:26Z</time>
      </trkpt>
      <trkpt lat="43.756890" lon="4.821620">
        <ele>269.73</ele>
        <time>2021-05-13T11:33:50Z</time>
      </trkpt>
      <trkpt lat="43.756970" lon="4.821520">
        <ele>269.59</ele>
        <time>2021-05-13T11:34:00Z</time>
      </trkpt>
      <trkpt lat="43.756990" lon="4.821480">
        <ele>269.24</ele>
        <time>2021-05-13T11:34:34Z</time>
      </trkpt>
      <trkpt lat="43.757040" lon="4.821350">
        <ele>269.59</ele>
        <time>2021-05-13T11:34:47Z</time>
      </trkpt>
      <trkpt lat="43.757090" lon="4.821220">
        <ele>269.95</ele>
        <time>2021-05-13T11:34:54Z</time>
      </trkpt>
      <trkpt lat="43.757110" lon="4.821070">
        <ele>270.18</ele>
        <time>2021-05-13T11:35:03Z</time>
      </trkpt>
      <trkpt lat="43.757160" lon="4.820920">
        <ele>271.08</ele>
        <time>2021-05-13T11:35:12Z</time>
      </trkpt>
      <trkpt lat="43.757230" lon="4.820750">
        <ele>272.53</ele>
        <time>2021-05-13T11:35:24Z</time>
      </trkpt>
      <trkpt lat="43.757270" lon="4.820650">
        <ele>274.89</ele>
        <time>2021-05-13T11:35:46Z</time>
      </trkpt>
      <trkpt lat="43.757330" lon="4.820630">
        <ele>275.12</ele>
        <time>2021-05-13T11:36:11Z</time>
      </trkpt>
      <trkpt lat="43.757420" lon="4.820370">
        <ele>275.34</ele>
        <time>2021-05-13T11:36:34Z</time>
      </trkpt>
      <trkpt lat="43.757430" lon="4.820190">
        <ele>277.15</ele>
        <time>2021-05-13T11:36:43Z</time>
      </trkpt>
      <trkpt lat="43.757460" lon="4.820020">
        <ele>278.25</ele>
        <time>2021-05-13T11:36:53Z</time>
      </trkpt>
      <trkpt lat="43.757450" lon="4.819870">
        <ele>279.63</ele>
        <time>2021-05-13T11:37:02Z</time>
      </trkpt>
      <trkpt lat="43.757440" lon="4.819720">
        <ele>280.62</ele>
        <time>2021-05-13T11:37:10Z</time>
      </trkpt>
      <trkpt lat="43.757340" lon="4.819580">
        <ele>282.21</ele>
        <time>2021-05-13T11:37:20Z</time>
      </trkpt>
      <trkpt lat="43.757240" lon="4.819510">
        <ele>283.02</ele>
        <time>2021-05-13T11:37:29Z</time>
      </trkpt>
      <trkpt lat="43.757120" lon="4.819500">
        <ele>283.61</ele>
        <time>2021-05-13T11:37:38Z</time>
      </trkpt>
      <trkpt lat="43.757020" lon="4.819500">
        <ele>284.17</ele>
        <time>2021-05-13T11:37:46Z</time>
      </trkpt>
      <trkpt lat="43.756940" lon="4.819470">
        <ele>285.36</ele>
        <time>2021-05-13T11:37:55Z</time>
      </trkpt>
      <trkpt lat="43.756980" lon="4.819480">
        <ele>285.95</ele>
        <time>2021-05-13T11:38:39Z</time>
      </trkpt>
      <trkpt lat="43.756900" lon="4.819350">
        <ele>285.83</ele>
        <time>2021-05-13T11:38:50Z</time>
      </trkpt>
      <trkpt lat="43.756850" lon="4.819180">
        <ele>287.19</ele>
        <time>2021-05-13T11:39:02Z</time>
      </trkpt>
      <trkpt lat="43.756780" lon="4.819100">
        <ele>287.75</ele>
        <time>2021-05-13T11:39:11Z</time>
      </trkpt>
      <trkpt lat="43.756670" lon="4.819040">
        <ele>289.19</ele>
        <time>2021-05-13T11:39:21Z</time>
      </trkpt>
      <trkpt lat="43.756550" lon="4.819020">
        <ele>289.79</ele>
        <time>2021-05-13T11:39:29Z</time>
      </trkpt>
      <trkpt lat="43.756480" lon="4.818930">
        <ele>290.31</ele>
        <time>2021-05-13T11:39:37Z</time>
      </trkpt>
      <trkpt lat="43.756480" lon="4.818810">
        <ele>291.19</ele>
        <time>2021-05-13T11:39:46Z</time>
      </trkpt>
      <trkpt lat="43.756520" lon="4.818710">
        <ele>291.38</ele>
        <time>2021-05-13T11:40:01Z</time>
      </trkpt>
      <trkpt lat="43.756580" lon="4.818610">
        <ele>291.26</ele>
        <time>2021-05-13T11:40:09Z</time>
      </trkpt>
      <trkpt lat="43.756650" lon="4.818500">
        <ele>291.43</ele>
        <time>2021-05-13T11:40:18Z</time>
      </trkpt>
      <trkpt lat="43.756740" lon="4.818390">
        <ele>291.84</ele>
        <time>2021-05-13T11:40:27Z</time>
      </trkpt>
      <trkpt lat="43.756800" lon="4.818280">
        <ele>291.82</ele>
        <time>2021-05-13T11:40:35Z</time>
      </trkpt>
      <trkpt lat="43.756870" lon="4.818170">
        <ele>291.63</ele>
        <time>2021-05-13T11:40:43Z</time>
      </trkpt>
      <trkpt lat="43.756950" lon="4.818070">
        <ele>291.59</ele>
        <time>2021-05-13T11:40:51Z</time>
      </trkpt>
      <trkpt lat="43.756950" lon="4.818050">
        <ele>291.53</ele>
        <time>2021-05-13T11:41:39Z</time>
      </trkpt>
      <trkpt lat="43.756970" lon="4.818030">
        <ele>291.6</ele>
        <time>2021-05-13T11:42:17Z</time>
      </trkpt>
      <trkpt lat="43.756880" lon="4.818080">
        <ele>290.66</ele>
        <time>2021-05-13T11:42:31Z</time>
      </trkpt>
      <trkpt lat="43.756810" lon="4.818170">
        <ele>289.57</ele>
        <time>2021-05-13T11:42:42Z</time>
      </trkpt>
      <trkpt lat="43.756720" lon="4.818270">
        <ele>289.11</ele>
        <time>2021-05-13T11:42:52Z</time>
      </trkpt>
      <trkpt lat="43.756650" lon="4.818370">
        <ele>288.3</ele>
        <time>2021-05-13T11:43:00Z</time>
      </trkpt>
      <trkpt lat="43.756580" lon="4.818460">
        <ele>287.34</ele>
        <time>2021-05-13T11:43:11Z</time>
      </trkpt>
      <trkpt lat="43.756490" lon="4.818560">
        <ele>286.61</ele>
        <time>2021-05-13T11:43:18Z</time>
      </trkpt>
      <trkpt lat="43.756400" lon="4.818640">
        <ele>285.57</ele>
        <time>2021-05-13T11:43:27Z</time>
      </trkpt>
      <trkpt lat="43.756310" lon="4.818660">
        <ele>284.39</ele>
        <time>2021-05-13T11:43:35Z</time>
      </trkpt>
      <trkpt lat="43.756210" lon="4.818670">
        <ele>283.45</ele>
        <time>2021-05-13T11:43:42Z</time>
      </trkpt>
      <trkpt lat="43.756100" lon="4.818670">
        <ele>282.09</ele>
        <time>2021-05-13T11:43:56Z</time>
      </trkpt>
      <trkpt lat="43.756010" lon="4.818630">
        <ele>281.77</ele>
        <time>2021-05-13T11:44:03Z</time>
      </trkpt>
      <trkpt lat="43.755920" lon="4.818600">
        <ele>281.28</ele>
        <time>2021-05-13T11:44:12Z</time>
      </trkpt>
      <trkpt lat="43.755830" lon="4.818580">
        <ele>281.03</ele>
        <time>2021-05-13T11:44:18Z</time>
      </trkpt>
      <trkpt lat="43.755750" lon="4.818630">
        <ele>280.15</ele>
        <time>2021-05-13T11:44:27Z</time>
      </trkpt>
      <trkpt lat="43.755730" lon="4.818760">
        <ele>279.52</ele>
        <time>2021-05-13T11:44:34Z</time>
      </trkpt>
      <trkpt lat="43.755710" lon="4.818890">
        <ele>279.34</ele>
        <time>2021-05-13T11:44:42Z</time>
      </trkpt>
      <trkpt lat="43.755630" lon="4.818990">
        <ele>279.36</ele>
        <time>2021-05-13T11:44:51Z</time>
      </trkpt>
      <trkpt lat="43.755520" lon="4.818980">
        <ele>278.81</ele>
        <time>2021-05-13T11:45:04Z</time>
      </trkpt>
      <trkpt lat="43.755410" lon="4.818920">
        <ele>277.77</ele>
        <time>2021-05-13T11:45:15Z</time>
      </trkpt>
      <trkpt lat="43.755340" lon="4.818860">
        <ele>276.76</ele>
        <time>2021-05-13T11:45:42Z</time>
      </trkpt>
      <trkpt lat="43.755260" lon="4.818840">
        <ele>276.54</ele>
        <time>2021-05-13T11:46:22Z</time>
      </trkpt>
      <trkpt lat="43.755170" lon="4.818720">
        <ele>276.19</ele>
        <time>2021-05-13T11:46:34Z</time>
      </trkpt>
      <trkpt lat="43.755120" lon="4.818600">
        <ele>275.88</ele>
        <time>2021-05-13T11:46:43Z</time>
      </trkpt>
      <trkpt lat="43.755020" lon="4.818550">
        <ele>275.11</ele>
        <time>2021-05-13T11:46:54Z</time>
      </trkpt>
      <trkpt lat="43.754950" lon="4.818640">
        <ele>274.64</ele>
        <time>2021-05-13T11:47:02Z</time>
      </trkpt>
      <trkpt lat="43.754920" lon="4.818770">
        <ele>274.19</ele>
        <time>2021-05-13T11:47:11Z</time>
      </trkpt>
      <trkpt lat="43.754890" lon="4.818890">
        <ele>273.79</ele>
        <time>2021-05-13T11:47:20Z</time>
      </trkpt>
      <trkpt lat="43.754810" lon="4.819020">
        <ele>273.42</ele>
        <time>2021-05-13T11:47:30Z</time>
      </trkpt>
      <trkpt lat="43.754700" lon="4.819070">
        <ele>272.58</ele>
        <time>2021-05-13T11:47:38Z</time>
      </trkpt>
      <trkpt lat="43.754600" lon="4.819060">
        <ele>271.93</ele>
        <time>2021-05-13T11:47:46Z</time>
      </trkpt>
      <trkpt lat="43.754500" lon="4.819030">
        <ele>271.25</ele>
        <time>2021-05-13T11:47:53Z</time>
      </trkpt>
      <trkpt lat="43.754410" lon="4.818960">
        <ele>271.11</ele>
        <time>2021-05-13T11:48:01Z</time>
      </trkpt>
      <trkpt lat="43.754330" lon="4.818890">
        <ele>270.87</ele>
        <time>2021-05-13T11:48:09Z</time>
      </trkpt>
      <trkpt lat="43.754260" lon="4.818820">
        <ele>270.55</ele>
        <time>2021-05-13T11:48:17Z</time>
      </trkpt>
      <trkpt lat="43.754160" lon="4.818780">
        <ele>270.36</ele>
        <time>2021-05-13T11:48:26Z</time>
      </trkpt>
      <trkpt lat="43.754080" lon="4.818840">
        <ele>270.31</ele>
        <time>2021-05-13T11:48:35Z</time>
      </trkpt>
      <trkpt lat="43.754010" lon="4.818930">
        <ele>270.78</ele>
        <time>2021-05-13T11:48:44Z</time>
      </trkpt>
      <trkpt lat="43.753950" lon="4.819030">
        <ele>271.15</ele>
        <time>2021-05-13T11:48:53Z</time>
      </trkpt>
      <trkpt lat="43.753890" lon="4.819130">
        <ele>271.34</ele>
        <time>2021-05-13T11:49:02Z</time>
      </trkpt>
      <trkpt lat="43.753850" lon="4.819240">
        <ele>271.55</ele>
        <time>2021-05-13T11:49:11Z</time>
      </trkpt>
      <trkpt lat="43.753880" lon="4.819350">
        <ele>271.88</ele>
        <time>2021-05-13T11:49:21Z</time>
      </trkpt>
      <trkpt lat="43.753920" lon="4.819480">
        <ele>272.93</ele>
        <time>2021-05-13T11:49:31Z</time>
      </trkpt>
      <trkpt lat="43.753880" lon="4.819640">
        <ele>273.65</ele>
        <time>2021-05-13T11:49:40Z</time>
      </trkpt>
      <trkpt lat="43.753830" lon="4.819780">
        <ele>274.26</ele>
        <time>2021-05-13T11:49:50Z</time>
      </trkpt>
      <trkpt lat="43.753740" lon="4.819900">
        <ele>274.7</ele>
        <time>2021-05-13T11:49:58Z</time>
      </trkpt>
      <trkpt lat="43.753640" lon="4.820000">
        <ele>274.99</ele>
        <time>2021-05-13T11:50:07Z</time>
      </trkpt>
      <trkpt lat="43.753660" lon="4.820130">
        <ele>274.85</ele>
        <time>2021-05-13T11:50:27Z</time>
      </trkpt>
      <trkpt lat="43.753760" lon="4.820140">
        <ele>274.73</ele>
        <time>2021-05-13T11:50:34Z</time>
      </trkpt>
      <trkpt lat="43.753860" lon="4.820180">
        <ele>274.01</ele>
        <time>2021-05-13T11:50:43Z</time>
      </trkpt>
      <trkpt lat="43.753950" lon="4.820220">
        <ele>273.39</ele>
        <time>2021-05-13T11:50:50Z</time>
      </trkpt>
      <trkpt lat="43.754050" lon="4.820300">
        <ele>272.96</ele>
        <time>2021-05-13T11:50:58Z</time>
      </trkpt>
      <trkpt lat="43.754140" lon="4.820390">
        <ele>272.57</ele>
        <time>2021-05-13T11:51:08Z</time>
      </trkpt>
      <trkpt lat="43.754210" lon="4.820480">
        <ele>272.14</ele>
        <time>2021-05-13T11:51:16Z</time>
      </trkpt>
      <trkpt lat="43.754280" lon="4.820580">
        <ele>271.87</ele>
        <time>2021-05-13T11:51:25Z</time>
      </trkpt>
      <trkpt lat="43.754340" lon="4.820690">
        <ele>271.21</ele>
        <time>2021-05-13T11:51:33Z</time>
      </trkpt>
      <trkpt lat="43.754400" lon="4.820770">
        <ele>270.68</ele>
        <time>2021-05-13T11:51:40Z</time>
      </trkpt>
      <trkpt lat="43.754460" lon="4.820870">
        <ele>270.03</ele>
        <time>2021-05-13T11:51:47Z</time>
      </trkpt>
      <trkpt lat="43.754500" lon="4.820970">
        <ele>269.37</ele>
        <time>2021-05-13T11:51:55Z</time>
      </trkpt>
      <trkpt lat="43.754530" lon="4.821070">
        <ele>268.38</ele>
        <time>2021-05-13T11:52:04Z</time>
      </trkpt>
      <trkpt lat="43.754600" lon="4.821170">
        <ele>267.41</ele>
        <time>2021-05-13T11:52:14Z</time>
      </trkpt>
      <trkpt lat="43.754680" lon="4.821100">
        <ele>266.2</ele>
        <time>2021-05-13T11:52:23Z</time>
      </trkpt>
      <trkpt lat="43.754720" lon="4.820960">
        <ele>264.18</ele>
        <time>2021-05-13T11:52:33Z</time>
      </trkpt>
      <trkpt lat="43.754750" lon="4.820800">
        <ele>263.55</ele>
        <time>2021-05-13T11:52:43Z</time>
      </trkpt>
      <trkpt lat="43.754800" lon="4.820660">
        <ele>262.66</ele>
        <time>2021-05-13T11:52:53Z</time>
      </trkpt>
      <trkpt lat="43.754910" lon="4.820630">
        <ele>261.79</ele>
        <time>2021-05-13T11:53:03Z</time>
      </trkpt>
      <trkpt lat="43.755020" lon="4.820630">
        <ele>260.65</ele>
        <time>2021-05-13T11:53:16Z</time>
      </trkpt>
      <trkpt lat="43.755120" lon="4.820680">
        <ele>260.07</ele>
        <time>2021-05-13T11:53:23Z</time>
      </trkpt>
      <trkpt lat="43.755220" lon="4.820690">
        <ele>259.83</ele>
        <time>2021-05-13T11:53:29Z</time>
      </trkpt>
      <trkpt lat="43.755290" lon="4.820600">
        <ele>259.35</ele>
        <time>2021-05-13T11:53:37Z</time>
      </trkpt>
      <trkpt lat="43.755320" lon="4.820480">
        <ele>258.41</ele>
        <time>2021-05-13T11:53:44Z</time>
      </trkpt>
      <trkpt lat="43.755400" lon="4.820450">
        <ele>257.1</ele>
        <time>2021-05-13T11:53:52Z</time>
      </trkpt>
      <trkpt lat="43.755500" lon="4.820420">
        <ele>256.4</ele>
        <time>2021-05-13T11:54:00Z</time>
      </trkpt>
      <trkpt lat="43.755590" lon="4.820440">
        <ele>255.5</ele>
        <time>2021-05-13T11:54:09Z</time>
      </trkpt>
      <trkpt lat="43.755660" lon="4.820530">
        <ele>254.94</ele>
        <time>2021-05-13T11:54:16Z</time>
      </trkpt>
      <trkpt lat="43.755710" lon="4.820650">
        <ele>254.53</ele>
        <time>2021-05-13T11:54:26Z</time>
      </trkpt>
      <trkpt lat="43.755790" lon="4.820700">
        <ele>253.58</ele>
        <time>2021-05-13T11:54:33Z</time>
      </trkpt>
      <trkpt lat="43.755880" lon="4.820650">
        <ele>252.8</ele>
        <time>2021-05-13T11:54:41Z</time>
      </trkpt>
      <trkpt lat="43.755960" lon="4.820550">
        <ele>251.74</ele>
        <time>2021-05-13T11:54:51Z</time>
      </trkpt>
      <trkpt lat="43.756070" lon="4.820500">
        <ele>250.93</ele>
        <time>2021-05-13T11:55:00Z</time>
      </trkpt>
      <trkpt lat="43.756170" lon="4.820540">
        <ele>249.59</ele>
        <time>2021-05-13T11:55:12Z</time>
      </trkpt>
      <trkpt lat="43.756180" lon="4.820690">
        <ele>248.67</ele>
        <time>2021-05-13T11:55:23Z</time>
      </trkpt>
      <trkpt lat="43.756150" lon="4.820830">
        <ele>247.29</ele>
        <time>2021-05-13T11:55:34Z</time>
      </trkpt>
      <trkpt lat="43.756200" lon="4.820980">
        <ele>246.12</ele>
        <time>2021-05-13T11:55:43Z</time>
      </trkpt>
      <trkpt lat="43.756260" lon="4.821090">
        <ele>244.68</ele>
        <time>2021-05-13T11:55:53Z</time>
      </trkpt>
      <trkpt lat="43.756270" lon="4.821260">
        <ele>244.03</ele>
        <time>2021-05-13T11:56:09Z</time>
      </trkpt>
      <trkpt lat="43.756160" lon="4.821200">
        <ele>243.24</ele>
        <time>2021-05-13T11:56:24Z</time>
      </trkpt>
      <trkpt lat="43.756030" lon="4.821240">
        <ele>241.95</ele>
        <time>2021-05-13T11:56:35Z</time>
      </trkpt>
      <trkpt lat="43.755910" lon="4.821330">
        <ele>241.2</ele>
        <time>2021-05-13T11:56:44Z</time>
      </trkpt>
      <trkpt lat="43.755810" lon="4.821380">
        <ele>240.68</ele>
        <time>2021-05-13T11:56:53Z</time>
      </trkpt>
      <trkpt lat="43.755720" lon="4.821480">
        <ele>240.33</ele>
        <time>2021-05-13T11:57:03Z</time>
      </trkpt>
      <trkpt lat="43.755600" lon="4.821530">
        <ele>239.99</ele>
        <time>2021-05-13T11:57:13Z</time>
      </trkpt>
      <trkpt lat="43.755480" lon="4.821570">
        <ele>239.15</ele>
        <time>2021-05-13T11:57:23Z</time>
      </trkpt>
      <trkpt lat="43.755380" lon="4.821590">
        <ele>238.72</ele>
        <time>2021-05-13T11:57:31Z</time>
      </trkpt>
      <trkpt lat="43.755310" lon="4.821660">
        <ele>238.62</ele>
        <time>2021-05-13T11:57:40Z</time>
      </trkpt>
      <trkpt lat="43.755310" lon="4.821800">
        <ele>238.35</ele>
        <time>2021-05-13T11:57:51Z</time>
      </trkpt>
      <trkpt lat="43.755230" lon="4.821940">
        <ele>237.47</ele>
        <time>2021-05-13T11:58:03Z</time>
      </trkpt>
      <trkpt lat="43.755180" lon="4.822080">
        <ele>236.57</ele>
        <time>2021-05-13T11:58:13Z</time>
      </trkpt>
      <trkpt lat="43.755130" lon="4.822220">
        <ele>236.23</ele>
        <time>2021-05-13T11:58:21Z</time>
      </trkpt>
      <trkpt lat="43.755100" lon="4.822390">
        <ele>236.14</ele>
        <time>2021-05-13T11:58:29Z</time>
      </trkpt>
      <trkpt lat="43.755150" lon="4.822510">
        <ele>236.29</ele>
        <time>2021-05-13T11:58:37Z</time>
      </trkpt>
      <trkpt lat="43.755190" lon="4.822640">
        <ele>236.38</ele>
        <time>2021-05-13T11:58:46Z</time>
      </trkpt>
      <trkpt lat="43.755130" lon="4.822790">
        <ele>236.33</ele>
        <time>2021-05-13T11:58:56Z</time>
      </trkpt>
      <trkpt lat="43.755060" lon="4.822840">
        <ele>236.15</ele>
        <time>2021-05-13T11:59:10Z</time>
      </trkpt>
      <trkpt lat="43.755060" lon="4.822780">
        <ele>235.59</ele>
        <time>2021-05-13T11:59:48Z</time>
      </trkpt>
      <trkpt lat="43.755030" lon="4.822790">
        <ele>235.41</ele>
        <time>2021-05-13T12:00:22Z</time>
      </trkpt>
      <trkpt lat="43.754970" lon="4.822850">
        <ele>235.38</ele>
        <time>2021-05-13T12:00:40Z</time>
      </trkpt>
      <trkpt lat="43.754880" lon="4.822820">
        <ele>235.24</ele>
        <time>2021-05-13T12:00:50Z</time>
      </trkpt>
      <trkpt lat="43.754790" lon="4.822740">
        <ele>235.19</ele>
        <time>2021-05-13T12:01:02Z</time>
      </trkpt>
      <trkpt lat="43.754700" lon="4.822670">
        <ele>234.76</ele>
        <time>2021-05-13T12:01:10Z</time>
      </trkpt>
      <trkpt lat="43.754620" lon="4.822610">
        <ele>234.7</ele>
        <time>2021-05-13T12:01:20Z</time>
      </trkpt>
      <trkpt lat="43.754530" lon="4.822640">
        <ele>234.73</ele>
        <time>2021-05-13T12:01:30Z</time>
      </trkpt>
      <trkpt lat="43.754440" lon="4.822730">
        <ele>234.53</ele>
        <time>2021-05-13T12:01:39Z</time>
      </trkpt>
      <trkpt lat="43.754360" lon="4.822810">
        <ele>233.93</ele>
        <time>2021-05-13T12:01:49Z</time>
      </trkpt>
      <trkpt lat="43.754290" lon="4.822910">
        <ele>233.75</ele>
        <time>2021-05-13T12:02:02Z</time>
      </trkpt>
      <trkpt lat="43.754240" lon="4.823010">
        <ele>233.61</ele>
        <time>2021-05-13T12:02:10Z</time>
      </trkpt>
      <trkpt lat="43.754240" lon="4.823140">
        <ele>233.22</ele>
        <time>2021-05-13T12:02:18Z</time>
      </trkpt>
      <trkpt lat="43.754260" lon="4.823260">
        <ele>232.87</ele>
        <time>2021-05-13T12:02:26Z</time>
      </trkpt>
      <trkpt lat="43.754300" lon="4.823390">
        <ele>232.69</ele>
        <time>2021-05-13T12:02:36Z</time>
      </trkpt>
      <trkpt lat="43.754360" lon="4.823510">
        <ele>232.44</ele>
        <time>2021-05-13T12:02:45Z</time>
      </trkpt>
      <trkpt lat="43.754410" lon="4.823620">
        <ele>232.08</ele>
        <time>2021-05-13T12:02:54Z</time>
      </trkpt>
      <trkpt lat="43.754380" lon="4.823840">
        <ele>231.76</ele>
        <time>2021-05-13T12:03:03Z</time>
      </trkpt>
      <trkpt lat="43.754410" lon="4.824000">
        <ele>231.69</ele>
        <time>2021-05-13T12:03:11Z</time>
      </trkpt>
      <trkpt lat="43.754450" lon="4.824130">
        <ele>231.45</ele>
        <time>2021-05-13T12:03:20Z</time>
      </trkpt>
      <trkpt lat="43.754500" lon="4.824250">
        <ele>231.23</ele>
        <time>2021-05-13T12:03:29Z</time>
      </trkpt>
      <trkpt lat="43.754520" lon="4.824400">
        <ele>231.13</ele>
        <time>2021-05-13T12:03:43Z</time>
      </trkpt>
      <trkpt lat="43.754570" lon="4.824410">
        <ele>231.08</ele>
        <time>2021-05-13T12:04:06Z</time>
      </trkpt>
      <trkpt lat="43.754510" lon="4.824410">
        <ele>231.28</ele>
        <time>2021-05-13T12:04:54Z</time>
      </trkpt>
      <trkpt lat="43.754480" lon="4.824450">
        <ele>231.49</ele>
        <time>2021-05-13T12:05:27Z</time>
      </trkpt>
      <trkpt lat="43.754450" lon="4.824390">
        <ele>231.14</ele>
        <time>2021-05-13T12:06:06Z</time>
      </trkpt>
      <trkpt lat="43.754350" lon="4.824300">
        <ele>228.72</ele>
        <time>2021-05-13T12:06:18Z</time>
      </trkpt>
      <trkpt lat="43.754280" lon="4.824190">
        <ele>226.64</ele>
        <time>2021-05-13T12:06:37Z</time>
      </trkpt>
      <trkpt lat="43.754190" lon="4.824080">
        <ele>224.29</ele>
        <time>2021-05-13T12:06:50Z</time>
      </trkpt>
      <trkpt lat="43.754090" lon="4.823890">
        <ele>221.63</ele>
        <time>2021-05-13T12:07:04Z</time>
      </trkpt>
      <trkpt lat="43.754000" lon="4.823720">
        <ele>219.93</ele>
        <time>2021-05-13T12:07:16Z</time>
      </trkpt>
      <trkpt lat="43.753940" lon="4.823570">
        <ele>217.92</ele>
        <time>2021-05-13T12:07:28Z</time>
      </trkpt>
      <trkpt lat="43.753870" lon="4.823350">
        <ele>216.76</ele>
        <time>2021-05-13T12:07:37Z</time>
      </trkpt>
      <trkpt lat="43.753810" lon="4.823210">
        <ele>215.47</ele>
        <time>2021-05-13T12:07:46Z</time>
      </trkpt>
      <trkpt lat="43.753710" lon="4.823120">
        <ele>214.19</ele>
        <time>2021-05-13T12:07:58Z</time>
      </trkpt>
      <trkpt lat="43.753630" lon="4.823030">
        <ele>213.17</ele>
        <time>2021-05-13T12:08:08Z</time>
      </trkpt>
      <trkpt lat="43.753610" lon="4.822830">
        <ele>211.22</ele>
        <time>2021-05-13T12:08:20Z</time>
      </trkpt>
      <trkpt lat="43.753580" lon="4.822650">
        <ele>209.6</ele>
        <time>2021-05-13T12:08:34Z</time>
      </trkpt>
      <trkpt lat="43.753500" lon="4.822550">
        <ele>209.14</ele>
        <time>2021-05-13T12:08:43Z</time>
      </trkpt>
      <trkpt lat="43.753420" lon="4.822460">
        <ele>208.31</ele>
        <time>2021-05-13T12:08:51Z</time>
      </trkpt>
      <trkpt lat="43.753400" lon="4.822260">
        <ele>207.84</ele>
        <time>2021-05-13T12:09:01Z</time>
      </trkpt>
      <trkpt lat="43.753390" lon="4.822120">
        <ele>206.82</ele>
        <time>2021-05-13T12:09:11Z</time>
      </trkpt>
      <trkpt lat="43.753300" lon="4.822020">
        <ele>205.75</ele>
        <time>2021-05-13T12:09:25Z</time>
      </trkpt>
      <trkpt lat="43.753200" lon="4.821910">
        <ele>204.15</ele>
        <time>2021-05-13T12:09:35Z</time>
      </trkpt>
      <trkpt lat="43.753100" lon="4.821900">
        <ele>203.36</ele>
        <time>2021-05-13T12:09:44Z</time>
      </trkpt>
      <trkpt lat="43.752980" lon="4.821900">
        <ele>202.84</ele>
        <time>2021-05-13T12:09:53Z</time>
      </trkpt>
      <trkpt lat="43.752870" lon="4.821920">
        <ele>202.06</ele>
        <time>2021-05-13T12:10:01Z</time>
      </trkpt>
      <trkpt lat="43.752790" lon="4.821970">
        <ele>201.49</ele>
        <time>2021-05-13T12:10:09Z</time>
      </trkpt>
      <trkpt lat="43.752700" lon="4.821950">
        <ele>200.76</ele>
        <time>2021-05-13T12:10:20Z</time>
      </trkpt>
      <trkpt lat="43.752610" lon="4.821980">
        <ele>200.14</ele>
        <time>2021-05-13T12:10:32Z</time>
      </trkpt>
      <trkpt lat="43.752480" lon="4.821930">
        <ele>199.81</ele>
        <time>2021-05-13T12:10:42Z</time>
      </trkpt>
      <trkpt lat="43.752380" lon="4.821990">
        <ele>199.25</ele>
        <time>2021-05-13T12:10:52Z</time>
      </trkpt>
      <trkpt lat="43.752380" lon="4.822110">
        <ele>197.69</ele>
        <time>2021-05-13T12:11:01Z</time>
      </trkpt>
      <trkpt lat="43.752400" lon="4.822250">
        <ele>196.72</ele>
        <time>2021-05-13T12:11:11Z</time>
      </trkpt>
      <trkpt lat="43.752320" lon="4.822420">
        <ele>195.5</ele>
        <time>2021-05-13T12:11:23Z</time>
      </trkpt>
      <trkpt lat="43.752310" lon="4.822560">
        <ele>194.76</ele>
        <time>2021-05-13T12:11:32Z</time>
      </trkpt>
      <trkpt lat="43.752310" lon="4.822710">
        <ele>193.44</ele>
        <time>2021-05-13T12:11:41Z</time>
      </trkpt>
      <trkpt lat="43.752330" lon="4.822860">
        <ele>193.08</ele>
        <time>2021-05-13T12:11:50Z</time>
      </trkpt>
      <trkpt lat="43.752350" lon="4.823000">
        <ele>192.47</ele>
        <time>2021-05-13T12:11:59Z</time>
      </trkpt>
      <trkpt lat="43.752370" lon="4.823140">
        <ele>192.09</ele>
        <time>2021-05-13T12:12:08Z</time>
      </trkpt>
      <trkpt lat="43.752400" lon="4.823280">
        <ele>191.76</ele>
        <time>2021-05-13T12:12:17Z</time>
      </trkpt>
      <trkpt lat="43.752370" lon="4.823430">
        <ele>191.57</ele>
        <time>2021-05-13T12:12:29Z</time>
      </trkpt>
      <trkpt lat="43.752270" lon="4.823540">
        <ele>191.47</ele>
        <time>2021-05-13T12:12:38Z</time>
      </trkpt>
      <trkpt lat="43.752180" lon="4.823640">
        <ele>190.54</ele>
        <time>2021-05-13T12:12:47Z</time>
      </trkpt>
      <trkpt lat="43.752090" lon="4.823700">
        <ele>189.8</ele>
        <time>2021-05-13T12:13:03Z</time>
      </trkpt>
      <trkpt lat="43.751990" lon="4.823720">
        <ele>189.18</ele>
        <time>2021-05-13T12:13:14Z</time>
      </trkpt>
      <trkpt lat="43.751870" lon="4.823690">
        <ele>187.3</ele>
        <time>2021-05-13T12:13:25Z</time>
      </trkpt>
      <trkpt lat="43.751730" lon="4.823660">
        <ele>186.49</ele>
        <time>2021-05-13T12:13:36Z</time>
      </trkpt>
      <trkpt lat="43.751600" lon="4.823640">
        <ele>185.76</ele>
        <time>2021-05-13T12:13:46Z</time>
      </trkpt>
      <trkpt lat="43.751490" lon="4.823630">
        <ele>184.43</ele>
        <time>2021-05-13T12:13:56Z</time>
      </trkpt>
      <trkpt lat="43.751360" lon="4.823620">
        <ele>183.21</ele>
        <time>2021-05-13T12:14:06Z</time>
      </trkpt>
      <trkpt lat="43.751260" lon="4.823660">
        <ele>182.77</ele>
        <time>2021-05-13T12:14:16Z</time>
      </trkpt>
      <trkpt lat="43.751130" lon="4.823680">
        <ele>182.34</ele>
        <time>2021-05-13T12:14:27Z</time>
      </trkpt>
      <trkpt lat="43.751010" lon="4.823710">
        <ele>181.78</ele>
        <time>2021-05-13T12:14:37Z</time>
      </trkpt>
      <trkpt lat="43.750960" lon="4.823850">
        <ele>180.89</ele>
        <time>2021-05-13T12:14:47Z</time>
      </trkpt>
      <trkpt lat="43.750860" lon="4.823960">
        <ele>180.4</ele>
        <time>2021-05-13T12:14:57Z</time>
      </trkpt>
      <trkpt lat="43.750750" lon="4.824070">
        <ele>179.71</ele>
        <time>2021-05-13T12:15:07Z</time>
      </trkpt>
      <trkpt lat="43.750660" lon="4.824150">
        <ele>179.17</ele>
        <time>2021-05-13T12:15:16Z</time>
      </trkpt>
      <trkpt lat="43.750550" lon="4.824150">
        <ele>178.58</ele>
        <time>2021-05-13T12:15:25Z</time>
      </trkpt>
      <trkpt lat="43.750430" lon="4.824160">
        <ele>177.93</ele>
        <time>2021-05-13T12:15:35Z</time>
      </trkpt>
      <trkpt lat="43.750410" lon="4.824270">
        <ele>176.85</ele>
        <time>2021-05-13T12:15:45Z</time>
      </trkpt>
      <trkpt lat="43.750430" lon="4.824410">
        <ele>175.25</ele>
        <time>2021-05-13T12:15:55Z</time>
      </trkpt>
      <trkpt lat="43.750450" lon="4.824560">
        <ele>174.53</ele>
        <time>2021-05-13T12:16:05Z</time>
      </trkpt>
      <trkpt lat="43.750400" lon="4.824730">
        <ele>174.24</ele>
        <time>2021-05-13T12:16:16Z</time>
      </trkpt>
      <trkpt lat="43.750280" lon="4.824790">
        <ele>173.28</ele>
        <time>2021-05-13T12:16:26Z</time>
      </trkpt>
      <trkpt lat="43.750190" lon="4.824850">
        <ele>172.09</ele>
        <time>2021-05-13T12:16:37Z</time>
      </trkpt>
      <trkpt lat="43.750120" lon="4.824960">
        <ele>171.37</ele>
        <time>2021-05-13T12:16:58Z</time>
      </trkpt>
      <trkpt lat="43.750040" lon="4.825050">
        <ele>170.9</ele>
        <time>2021-05-13T12:17:07Z</time>
      </trkpt>
      <trkpt lat="43.749930" lon="4.825100">
        <ele>170.04</ele>
        <time>2021-05-13T12:17:16Z</time>
      </trkpt>
      <trkpt lat="43.749820" lon="4.825070">
        <ele>169.45</ele>
        <time>2021-05-13T12:17:24Z</time>
      </trkpt>
      <trkpt lat="43.749730" lon="4.824950">
        <ele>169.09</ele>
        <time>2021-05-13T12:17:35Z</time>
      </trkpt>
      <trkpt lat="43.749670" lon="4.824820">
        <ele>168.31</ele>
        <time>2021-05-13T12:17:45Z</time>
      </trkpt>
      <trkpt lat="43.749650" lon="4.824630">
        <ele>167.54</ele>
        <time>2021-05-13T12:17:53Z</time>
      </trkpt>
      <trkpt lat="43.749570" lon="4.824560">
        <ele>166.84</ele>
        <time>2021-05-13T12:18:05Z</time>
      </trkpt>
      <trkpt lat="43.749470" lon="4.824510">
        <ele>165.66</ele>
        <time>2021-05-13T12:18:15Z</time>
      </trkpt>
      <trkpt lat="43.749390" lon="4.824420">
        <ele>164.42</ele>
        <time>2021-05-13T12:18:25Z</time>
      </trkpt>
      <trkpt lat="43.749320" lon="4.824320">
        <ele>163.91</ele>
        <time>2021-05-13T12:18:36Z</time>
      </trkpt>
      <trkpt lat="43.749210" lon="4.824190">
        <ele>163.15</ele>
        <time>2021-05-13T12:18:48Z</time>
      </trkpt>
      <trkpt lat="43.749110" lon="4.824100">
        <ele>162.39</ele>
        <time>2021-05-13T12:18:58Z</time>
      </trkpt>
      <trkpt lat="43.749020" lon="4.824120">
        <ele>161.71</ele>
        <time>2021-05-13T12:19:08Z</time>
      </trkpt>
      <trkpt lat="43.748910" lon="4.824170">
        <ele>160.71</ele>
        <time>2021-05-13T12:19:20Z</time>
      </trkpt>
      <trkpt lat="43.748820" lon="4.824230">
        <ele>159.97</ele>
        <time>2021-05-13T12:19:29Z</time>
      </trkpt>
      <trkpt lat="43.748720" lon="4.824210">
        <ele>159.34</ele>
        <time>2021-05-13T12:19:39Z</time>
      </trkpt>
      <trkpt lat="43.748670" lon="4.824300">
        <ele>157.9</ele>
        <time>2021-05-13T12:19:49Z</time>
      </trkpt>
      <trkpt lat="43.748640" lon="4.824400">
        <ele>157.03</ele>
        <time>2021-05-13T12:20:17Z</time>
      </trkpt>
      <trkpt lat="43.748630" lon="4.824530">
        <ele>157.3</ele>
        <time>2021-05-13T12:20:30Z</time>
      </trkpt>
      <trkpt lat="43.748640" lon="4.824680">
        <ele>157.41</ele>
        <time>2021-05-13T12:20:46Z</time>
      </trkpt>
      <trkpt lat="43.748580" lon="4.824800">
        <ele>156.94</ele>
        <time>2021-05-13T12:20:56Z</time>
      </trkpt>
      <trkpt lat="43.748480" lon="4.824890">
        <ele>156.32</ele>
        <time>2021-05-13T12:21:05Z</time>
      </trkpt>
      <trkpt lat="43.748410" lon="4.824980">
        <ele>155.77</ele>
        <time>2021-05-13T12:21:13Z</time>
      </trkpt>
      <trkpt lat="43.748340" lon="4.825070">
        <ele>155.14</ele>
        <time>2021-05-13T12:21:21Z</time>
      </trkpt>
      <trkpt lat="43.748270" lon="4.825160">
        <ele>154.49</ele>
        <time>2021-05-13T12:21:38Z</time>
      </trkpt>
      <trkpt lat="43.748190" lon="4.825260">
        <ele>154.31</ele>
        <time>2021-05-13T12:21:46Z</time>
      </trkpt>
      <trkpt lat="43.748100" lon="4.825310">
        <ele>153.92</ele>
        <time>2021-05-13T12:21:55Z</time>
      </trkpt>
      <trkpt lat="43.748000" lon="4.825350">
        <ele>153.19</ele>
        <time>2021-05-13T12:22:03Z</time>
      </trkpt>
      <trkpt lat="43.747900" lon="4.825400">
        <ele>152.6</ele>
        <time>2021-05-13T12:22:14Z</time>
      </trkpt>
      <trkpt lat="43.747800" lon="4.825490">
        <ele>152.31</ele>
        <time>2021-05-13T12:22:23Z</time>
      </trkpt>
      <trkpt lat="43.747720" lon="4.825610">
        <ele>151.64</ele>
        <time>2021-05-13T12:22:32Z</time>
      </trkpt>
      <trkpt lat="43.747640" lon="4.825670">
        <ele>151.08</ele>
        <time>2021-05-13T12:22:39Z</time>
      </trkpt>
      <trkpt lat="43.747550" lon="4.825640">
        <ele>150.28</ele>
        <time>2021-05-13T12:22:47Z</time>
      </trkpt>
      <trkpt lat="43.747430" lon="4.825600">
        <ele>149.49</ele>
        <time>2021-05-13T12:22:56Z</time>
      </trkpt>
      <trkpt lat="43.747310" lon="4.825600">
        <ele>148.79</ele>
        <time>2021-05-13T12:23:06Z</time>
      </trkpt>
      <trkpt lat="43.747260" lon="4.825690">
        <ele>147.36</ele>
        <time>2021-05-13T12:23:18Z</time>
      </trkpt>
      <trkpt lat="43.747220" lon="4.825780">
        <ele>147.22</ele>
        <time>2021-05-13T12:23:50Z</time>
      </trkpt>
      <trkpt lat="43.747150" lon="4.825880">
        <ele>147.35</ele>
        <time>2021-05-13T12:23:59Z</time>
      </trkpt>
      <trkpt lat="43.747060" lon="4.825990">
        <ele>148.15</ele>
        <time>2021-05-13T12:24:08Z</time>
      </trkpt>
      <trkpt lat="43.746980" lon="4.826090">
        <ele>149.02</ele>
        <time>2021-05-13T12:24:23Z</time>
      </trkpt>
      <trkpt lat="43.746890" lon="4.826190">
        <ele>149.39</ele>
        <time>2021-05-13T12:24:34Z</time>
      </trkpt>
      <trkpt lat="43.746820" lon="4.826310">
        <ele>149.96</ele>
        <time>2021-05-13T12:24:43Z</time>
      </trkpt>
      <trkpt lat="43.746710" lon="4.826410">
        <ele>150.93</ele>
        <time>2021-05-13T12:24:54Z</time>
      </trkpt>
      <trkpt lat="43.746610" lon="4.826500">
        <ele>151.57</ele>
        <time>2021-05-13T12:25:07Z</time>
      </trkpt>
      <trkpt lat="43.746520" lon="4.826580">
        <ele>152</ele>
        <time>2021-05-13T12:25:15Z</time>
      </trkpt>
      <trkpt lat="43.746440" lon="4.826660">
        <ele>152.67</ele>
        <time>2021-05-13T12:25:24Z</time>
      </trkpt>
      <trkpt lat="43.746350" lon="4.826750">
        <ele>153.1</ele>
        <time>2021-05-13T12:25:33Z</time>
      </trkpt>
      <trkpt lat="43.746250" lon="4.826840">
        <ele>153.71</ele>
        <time>2021-05-13T12:25:41Z</time>
      </trkpt>
      <trkpt lat="43.746150" lon="4.826890">
        <ele>154.36</ele>
        <time>2021-05-13T12:25:48Z</time>
      </trkpt>
      <trkpt lat="43.746110" lon="4.826960">
        <ele>155.04</ele>
        <time>2021-05-13T12:26:38Z</time>
      </trkpt>
      <trkpt lat="43.746040" lon="4.826970">
        <ele>155.27</ele>
        <time>2021-05-13T12:28:46Z</time>
      </trkpt>
      <trkpt lat="43.745990" lon="4.827080">
        <ele>155.71</ele>
        <time>2021-05-13T12:29:12Z</time>
      </trkpt>
      <trkpt lat="43.745920" lon="4.827180">
        <ele>156.01</ele>
        <time>2021-05-13T12:29:20Z</time>
      </trkpt>
      <trkpt lat="43.745870" lon="4.827290">
        <ele>156.13</ele>
        <time>2021-05-13T12:29:28Z</time>
      </trkpt>
      <trkpt lat="43.745840" lon="4.827430">
        <ele>156.29</ele>
        <time>2021-05-13T12:29:36Z</time>
      </trkpt>
      <trkpt lat="43.745820" lon="4.827550">
        <ele>156.58</ele>
        <time>2021-05-13T12:29:44Z</time>
      </trkpt>
      <trkpt lat="43.745810" lon="4.827690">
        <ele>156.96</ele>
        <time>2021-05-13T12:29:52Z</time>
      </trkpt>
      <trkpt lat="43.745820" lon="4.827810">
        <ele>157.13</ele>
        <time>2021-05-13T12:30:00Z</time>
      </trkpt>
      <trkpt lat="43.745810" lon="4.827950">
        <ele>157.51</ele>
        <time>2021-05-13T12:30:08Z</time>
      </trkpt>
      <trkpt lat="43.745770" lon="4.828080">
        <ele>157.39</ele>
        <time>2021-05-13T12:30:16Z</time>
      </trkpt>
      <trkpt lat="43.745710" lon="4.828190">
        <ele>157.12</ele>
        <time>2021-05-13T12:30:24Z</time>
      </trkpt>
      <trkpt lat="43.745640" lon="4.828300">
        <ele>156.84</ele>
        <time>2021-05-13T12:30:32Z</time>
      </trkpt>
      <trkpt lat="43.745600" lon="4.828430">
        <ele>156.54</ele>
        <time>2021-05-13T12:30:40Z</time>
      </trkpt>
      <trkpt lat="43.745590" lon="4.828550">
        <ele>156.61</ele>
        <time>2021-05-13T12:30:48Z</time>
      </trkpt>
      <trkpt lat="43.745590" lon="4.828670">
        <ele>157.04</ele>
        <time>2021-05-13T12:30:56Z</time>
      </trkpt>
      <trkpt lat="43.745590" lon="4.828810">
        <ele>157.08</ele>
        <time>2021-05-13T12:31:04Z</time>
      </trkpt>
      <trkpt lat="43.745580" lon="4.828950">
        <ele>156.69</ele>
        <time>2021-05-13T12:31:12Z</time>
      </trkpt>
      <trkpt lat="43.745610" lon="4.829080">
        <ele>155.87</ele>
        <time>2021-05-13T12:31:21Z</time>
      </trkpt>
      <trkpt lat="43.745640" lon="4.829210">
        <ele>155.03</ele>
        <time>2021-05-13T12:31:30Z</time>
      </trkpt>
      <trkpt lat="43.745680" lon="4.829330">
        <ele>154.46</ele>
        <time>2021-05-13T12:31:38Z</time>
      </trkpt>
      <trkpt lat="43.745720" lon="4.829460">
        <ele>154.04</ele>
        <time>2021-05-13T12:31:46Z</time>
      </trkpt>
      <trkpt lat="43.745770" lon="4.829600">
        <ele>153.68</ele>
        <time>2021-05-13T12:31:55Z</time>
      </trkpt>
      <trkpt lat="43.745810" lon="4.829720">
        <ele>153.34</ele>
        <time>2021-05-13T12:32:03Z</time>
      </trkpt>
      <trkpt lat="43.745850" lon="4.829860">
        <ele>153.03</ele>
        <time>2021-05-13T12:32:14Z</time>
      </trkpt>
      <trkpt lat="43.745870" lon="4.830020">
        <ele>152.79</ele>
        <time>2021-05-13T12:32:23Z</time>
      </trkpt>
      <trkpt lat="43.745860" lon="4.830180">
        <ele>152.14</ele>
        <time>2021-05-13T12:32:32Z</time>
      </trkpt>
      <trkpt lat="43.745740" lon="4.830150">
        <ele>151.03</ele>
        <time>2021-05-13T12:32:43Z</time>
      </trkpt>
      <trkpt lat="43.745630" lon="4.830110">
        <ele>150.38</ele>
        <time>2021-05-13T12:32:52Z</time>
      </trkpt>
      <trkpt lat="43.745510" lon="4.830110">
        <ele>149.48</ele>
        <time>2021-05-13T12:33:01Z</time>
      </trkpt>
      <trkpt lat="43.745410" lon="4.830060">
        <ele>148.81</ele>
        <time>2021-05-13T12:33:08Z</time>
      </trkpt>
      <trkpt lat="43.745310" lon="4.830030">
        <ele>147.05</ele>
        <time>2021-05-13T12:33:17Z</time>
      </trkpt>
      <trkpt lat="43.745250" lon="4.830130">
        <ele>146.9</ele>
        <time>2021-05-13T12:33:25Z</time>
      </trkpt>
      <trkpt lat="43.745170" lon="4.830230">
        <ele>145.87</ele>
        <time>2021-05-13T12:33:33Z</time>
      </trkpt>
      <trkpt lat="43.745060" lon="4.830260">
        <ele>145.69</ele>
        <time>2021-05-13T12:33:42Z</time>
      </trkpt>
      <trkpt lat="43.744950" lon="4.830280">
        <ele>145.56</ele>
        <time>2021-05-13T12:33:50Z</time>
      </trkpt>
      <trkpt lat="43.744840" lon="4.830280">
        <ele>144.99</ele>
        <time>2021-05-13T12:33:59Z</time>
      </trkpt>
      <trkpt lat="43.744730" lon="4.830270">
        <ele>144.28</ele>
        <time>2021-05-13T12:34:08Z</time>
      </trkpt>
      <trkpt lat="43.744620" lon="4.830310">
        <ele>143.58</ele>
        <time>2021-05-13T12:34:16Z</time>
      </trkpt>
      <trkpt lat="43.744550" lon="4.830310">
        <ele>129.3</ele>
        <time>2021-05-13T12:34:30Z</time>
      </trkpt>
    </trkseg>
  </trk>
</gpx>